<?xml version="1.0" encoding="utf-8"?>
<gpx xmlns:xsi="http://www.w3.org/2001/XMLSchema-instance" xmlns:xsd="http://www.w3.org/2001/XMLSchema" version="1.1" creator="Shapelink.com" xmlns="http://www.topografix.com/GPX/1/1" xmlns:gpxtpx="http://www.garmin.com/xmlschemas/TrackPointExtension/v1">
  <metadata>
    <name>Walking 8.96 km, 2012-08-07</name>
    <desc></desc>
    <author><name>Ulf Andrae</name></author> 
    <time>2012-08-07T09:43:45Z</time>
  </metadata>
  <trk>
    <name>Walking 8.96 km, 2012-08-07</name>
    <trkseg>
      <trkpt lat="61.6226664931" lon="8.63248117268">
        <ele>1437.79</ele>
        <time>2012-08-07T09:43:45Z</time>
      </trkpt>
      <trkpt lat="61.6226698458" lon="8.63247237168">
        <ele>1432.98</ele>
        <time>2012-08-07T09:43:48Z</time>
      </trkpt>
      <trkpt lat="61.6226744559" lon="8.63246625289">
        <ele>1429.14</ele>
        <time>2012-08-07T09:43:51Z</time>
      </trkpt>
      <trkpt lat="61.6226771381" lon="8.63246072084">
        <ele>1425.29</ele>
        <time>2012-08-07T09:43:54Z</time>
      </trkpt>
      <trkpt lat="61.6226773895" lon="8.63245728426">
        <ele>1422.41</ele>
        <time>2012-08-07T09:43:57Z</time>
      </trkpt>
      <trkpt lat="61.6226811614" lon="8.63245418295">
        <ele>1419.04</ele>
        <time>2012-08-07T09:44:00Z</time>
      </trkpt>
      <trkpt lat="61.6226819158" lon="8.63245552406">
        <ele>1415.68</ele>
        <time>2012-08-07T09:44:04Z</time>
      </trkpt>
      <trkpt lat="61.6226828378" lon="8.63245384768">
        <ele>1413.28</ele>
        <time>2012-08-07T09:44:08Z</time>
      </trkpt>
      <trkpt lat="61.6226826701" lon="8.63244026899">
        <ele>1409.91</ele>
        <time>2012-08-07T09:44:12Z</time>
      </trkpt>
      <trkpt lat="61.6226772219" lon="8.63245032728">
        <ele>1406.55</ele>
        <time>2012-08-07T09:44:17Z</time>
      </trkpt>
      <trkpt lat="61.6226726118" lon="8.63247094676">
        <ele>1403.18</ele>
        <time>2012-08-07T09:44:24Z</time>
      </trkpt>
      <trkpt lat="61.6226716898" lon="8.63247346133">
        <ele>1345.98</ele>
        <time>2012-08-07T09:44:25Z</time>
      </trkpt>
      <trkpt lat="61.6226710193" lon="8.63247605972">
        <ele>1345.98</ele>
        <time>2012-08-07T09:44:26Z</time>
      </trkpt>
      <trkpt lat="61.6226706002" lon="8.63247765228">
        <ele>1383.47</ele>
        <time>2012-08-07T09:44:29Z</time>
      </trkpt>
      <trkpt lat="61.6226712707" lon="8.63247614354">
        <ele>1383.47</ele>
        <time>2012-08-07T09:44:30Z</time>
      </trkpt>
      <trkpt lat="61.6226698458" lon="8.63248762675">
        <ele>1383.96</ele>
        <time>2012-08-07T09:45:00Z</time>
      </trkpt>
      <trkpt lat="61.6226972546" lon="8.632449992">
        <ele>1383.96</ele>
        <time>2012-08-07T09:45:34Z</time>
      </trkpt>
      <trkpt lat="61.6226965003" lon="8.63245024346">
        <ele>1384.44</ele>
        <time>2012-08-07T09:45:54Z</time>
      </trkpt>
      <trkpt lat="61.6227066424" lon="8.63244839944">
        <ele>1384.44</ele>
        <time>2012-08-07T09:46:11Z</time>
      </trkpt>
      <trkpt lat="61.6226853523" lon="8.63243230619">
        <ele>1384.44</ele>
        <time>2012-08-07T09:46:30Z</time>
      </trkpt>
      <trkpt lat="61.6227231547" lon="8.63249978051">
        <ele>1384.44</ele>
        <time>2012-08-07T09:46:45Z</time>
      </trkpt>
      <trkpt lat="61.6226818319" lon="8.63241998479">
        <ele>1383.96</ele>
        <time>2012-08-07T09:47:03Z</time>
      </trkpt>
      <trkpt lat="61.6226508189" lon="8.63235468976">
        <ele>1383.96</ele>
        <time>2012-08-07T09:47:12Z</time>
      </trkpt>
      <trkpt lat="61.6225961689" lon="8.6322892271">
        <ele>1383.96</ele>
        <time>2012-08-07T09:47:21Z</time>
      </trkpt>
      <trkpt lat="61.6224870365" lon="8.63210264593">
        <ele>1383.47</ele>
        <time>2012-08-07T09:47:35Z</time>
      </trkpt>
      <trkpt lat="61.6224877909" lon="8.63208211027">
        <ele>1383.47</ele>
        <time>2012-08-07T09:47:41Z</time>
      </trkpt>
      <trkpt lat="61.6225079913" lon="8.63203198649">
        <ele>1383.47</ele>
        <time>2012-08-07T09:47:44Z</time>
      </trkpt>
      <trkpt lat="61.6225074045" lon="8.63194389269">
        <ele>1384.44</ele>
        <time>2012-08-07T09:47:49Z</time>
      </trkpt>
      <trkpt lat="61.6224740446" lon="8.63189502619">
        <ele>1384.44</ele>
        <time>2012-08-07T09:47:52Z</time>
      </trkpt>
      <trkpt lat="61.6223810054" lon="8.63177952357">
        <ele>1383.96</ele>
        <time>2012-08-07T09:48:04Z</time>
      </trkpt>
      <trkpt lat="61.6223364975" lon="8.63165312447">
        <ele>1384.92</ele>
        <time>2012-08-07T09:48:12Z</time>
      </trkpt>
      <trkpt lat="61.6222446319" lon="8.63143519498">
        <ele>1384.92</ele>
        <time>2012-08-07T09:48:26Z</time>
      </trkpt>
      <trkpt lat="61.6221441329" lon="8.63120854832">
        <ele>1384.92</ele>
        <time>2012-08-07T09:48:39Z</time>
      </trkpt>
      <trkpt lat="61.6220593918" lon="8.63100646064">
        <ele>1384.44</ele>
        <time>2012-08-07T09:48:53Z</time>
      </trkpt>
      <trkpt lat="61.6220299713" lon="8.63096044399">
        <ele>1384.44</ele>
        <time>2012-08-07T09:48:57Z</time>
      </trkpt>
      <trkpt lat="61.6220157221" lon="8.63089649007">
        <ele>1384.44</ele>
        <time>2012-08-07T09:49:00Z</time>
      </trkpt>
      <trkpt lat="61.6219080985" lon="8.63073195331">
        <ele>1383.96</ele>
        <time>2012-08-07T09:49:14Z</time>
      </trkpt>
      <trkpt lat="61.6218464915" lon="8.63067537546">
        <ele>1383.96</ele>
        <time>2012-08-07T09:49:30Z</time>
      </trkpt>
      <trkpt lat="61.6218058392" lon="8.63055744208">
        <ele>1384.44</ele>
        <time>2012-08-07T09:49:51Z</time>
      </trkpt>
      <trkpt lat="61.6217071004" lon="8.63038326614">
        <ele>1384.44</ele>
        <time>2012-08-07T09:50:02Z</time>
      </trkpt>
      <trkpt lat="61.6216299031" lon="8.63029005937">
        <ele>1384.92</ele>
        <time>2012-08-07T09:50:10Z</time>
      </trkpt>
      <trkpt lat="61.6216040868" lon="8.63026843406">
        <ele>1384.92</ele>
        <time>2012-08-07T09:50:12Z</time>
      </trkpt>
      <trkpt lat="61.621540552" lon="8.63018193282">
        <ele>1384.44</ele>
        <time>2012-08-07T09:50:21Z</time>
      </trkpt>
      <trkpt lat="61.6214580741" lon="8.63003575243">
        <ele>1384.44</ele>
        <time>2012-08-07T09:50:30Z</time>
      </trkpt>
      <trkpt lat="61.6214531288" lon="8.63001546822">
        <ele>1384.44</ele>
        <time>2012-08-07T09:50:31Z</time>
      </trkpt>
      <trkpt lat="61.6214456689" lon="8.63000021316">
        <ele>1384.92</ele>
        <time>2012-08-07T09:50:32Z</time>
      </trkpt>
      <trkpt lat="61.6214356944" lon="8.62998822704">
        <ele>1384.92</ele>
        <time>2012-08-07T09:50:33Z</time>
      </trkpt>
      <trkpt lat="61.621427564" lon="8.62997406162">
        <ele>1384.92</ele>
        <time>2012-08-07T09:50:34Z</time>
      </trkpt>
      <trkpt lat="61.621419182" lon="8.62995905802">
        <ele>1384.44</ele>
        <time>2012-08-07T09:50:35Z</time>
      </trkpt>
      <trkpt lat="61.621409459" lon="8.62994145602">
        <ele>1384.44</ele>
        <time>2012-08-07T09:50:36Z</time>
      </trkpt>
      <trkpt lat="61.6213998199" lon="8.62992687151">
        <ele>1384.44</ele>
        <time>2012-08-07T09:50:37Z</time>
      </trkpt>
      <trkpt lat="61.6212831438" lon="8.62969100475">
        <ele>1385.4</ele>
        <time>2012-08-07T09:50:52Z</time>
      </trkpt>
      <trkpt lat="61.6212522145" lon="8.62954180688">
        <ele>1383.96</ele>
        <time>2012-08-07T09:51:03Z</time>
      </trkpt>
      <trkpt lat="61.6212253924" lon="8.62945639528">
        <ele>1383.47</ele>
        <time>2012-08-07T09:51:17Z</time>
      </trkpt>
      <trkpt lat="61.6211902723" lon="8.62940928899">
        <ele>1383.96</ele>
        <time>2012-08-07T09:51:21Z</time>
      </trkpt>
      <trkpt lat="61.6211576667" lon="8.62933494151">
        <ele>1384.44</ele>
        <time>2012-08-07T09:51:33Z</time>
      </trkpt>
      <trkpt lat="61.6211541463" lon="8.62933988683">
        <ele>1384.44</ele>
        <time>2012-08-07T09:51:47Z</time>
      </trkpt>
      <trkpt lat="61.6211633664" lon="8.62932085991">
        <ele>1384.44</ele>
        <time>2012-08-07T09:52:18Z</time>
      </trkpt>
      <trkpt lat="61.6211499553" lon="8.62932915799">
        <ele>1383.47</ele>
        <time>2012-08-07T09:52:38Z</time>
      </trkpt>
      <trkpt lat="61.6211257316" lon="8.62936645746">
        <ele>1383.47</ele>
        <time>2012-08-07T09:52:54Z</time>
      </trkpt>
      <trkpt lat="61.6210986581" lon="8.6293371208">
        <ele>1383.96</ele>
        <time>2012-08-07T09:53:11Z</time>
      </trkpt>
      <trkpt lat="61.6210891027" lon="8.62929697149">
        <ele>1383.96</ele>
        <time>2012-08-07T09:53:12Z</time>
      </trkpt>
      <trkpt lat="61.6210711654" lon="8.62924844027">
        <ele>1383.96</ele>
        <time>2012-08-07T09:53:25Z</time>
      </trkpt>
      <trkpt lat="61.6210394818" lon="8.62924458459">
        <ele>1384.44</ele>
        <time>2012-08-07T09:53:40Z</time>
      </trkpt>
      <trkpt lat="61.6209953092" lon="8.62912707031">
        <ele>1384.44</ele>
        <time>2012-08-07T09:53:54Z</time>
      </trkpt>
      <trkpt lat="61.6209904477" lon="8.62910779193">
        <ele>1384.92</ele>
        <time>2012-08-07T09:53:55Z</time>
      </trkpt>
      <trkpt lat="61.6209841613" lon="8.62908071838">
        <ele>1384.92</ele>
        <time>2012-08-07T09:53:56Z</time>
      </trkpt>
      <trkpt lat="61.6209413297" lon="8.62899874337">
        <ele>1384.44</ele>
        <time>2012-08-07T09:54:02Z</time>
      </trkpt>
      <trkpt lat="61.6208941396" lon="8.62888516858">
        <ele>1384.92</ele>
        <time>2012-08-07T09:54:10Z</time>
      </trkpt>
      <trkpt lat="61.6208863445" lon="8.62886597402">
        <ele>1384.92</ele>
        <time>2012-08-07T09:54:11Z</time>
      </trkpt>
      <trkpt lat="61.6208081413" lon="8.62872079946">
        <ele>1385.4</ele>
        <time>2012-08-07T09:54:25Z</time>
      </trkpt>
      <trkpt lat="61.6207612865" lon="8.62868945114">
        <ele>1384.92</ele>
        <time>2012-08-07T09:54:32Z</time>
      </trkpt>
      <trkpt lat="61.6207072232" lon="8.62856078893">
        <ele>1385.4</ele>
        <time>2012-08-07T09:54:44Z</time>
      </trkpt>
      <trkpt lat="61.6206996795" lon="8.62854360603">
        <ele>1385.4</ele>
        <time>2012-08-07T09:54:45Z</time>
      </trkpt>
      <trkpt lat="61.6206243262" lon="8.62851418555">
        <ele>1385.4</ele>
        <time>2012-08-07T09:54:57Z</time>
      </trkpt>
      <trkpt lat="61.6205453686" lon="8.62842441536">
        <ele>1385.88</ele>
        <time>2012-08-07T09:55:11Z</time>
      </trkpt>
      <trkpt lat="61.6204939876" lon="8.62839365378">
        <ele>1385.4</ele>
        <time>2012-08-07T09:55:25Z</time>
      </trkpt>
      <trkpt lat="61.6204010323" lon="8.62824998796">
        <ele>1385.4</ele>
        <time>2012-08-07T09:55:43Z</time>
      </trkpt>
      <trkpt lat="61.6203261819" lon="8.6280977726">
        <ele>1385.4</ele>
        <time>2012-08-07T09:55:59Z</time>
      </trkpt>
      <trkpt lat="61.6203026287" lon="8.62808000296">
        <ele>1385.88</ele>
        <time>2012-08-07T09:56:12Z</time>
      </trkpt>
      <trkpt lat="61.6202421952" lon="8.62810213119">
        <ele>1384.92</ele>
        <time>2012-08-07T09:56:26Z</time>
      </trkpt>
      <trkpt lat="61.6201826837" lon="8.62812451087">
        <ele>1384.44</ele>
        <time>2012-08-07T09:56:38Z</time>
      </trkpt>
      <trkpt lat="61.6201651655" lon="8.62812400796">
        <ele>1384.92</ele>
        <time>2012-08-07T09:56:40Z</time>
      </trkpt>
      <trkpt lat="61.6200952604" lon="8.62817161717">
        <ele>1384.92</ele>
        <time>2012-08-07T09:56:52Z</time>
      </trkpt>
      <trkpt lat="61.6200791672" lon="8.62817094661">
        <ele>1385.88</ele>
        <time>2012-08-07T09:57:05Z</time>
      </trkpt>
      <trkpt lat="61.6200187337" lon="8.62814730965">
        <ele>1385.88</ele>
        <time>2012-08-07T09:57:17Z</time>
      </trkpt>
      <trkpt lat="61.6199733038" lon="8.62815158442">
        <ele>1384.92</ele>
        <time>2012-08-07T09:57:28Z</time>
      </trkpt>
      <trkpt lat="61.6199515946" lon="8.62811109982">
        <ele>1385.4</ele>
        <time>2012-08-07T09:57:41Z</time>
      </trkpt>
      <trkpt lat="61.6198821086" lon="8.62803725526">
        <ele>1385.4</ele>
        <time>2012-08-07T09:57:54Z</time>
      </trkpt>
      <trkpt lat="61.6197777539" lon="8.62793885171">
        <ele>1384.44</ele>
        <time>2012-08-07T09:58:06Z</time>
      </trkpt>
      <trkpt lat="61.6197446454" lon="8.62791504711">
        <ele>1385.4</ele>
        <time>2012-08-07T09:58:16Z</time>
      </trkpt>
      <trkpt lat="61.61972587" lon="8.62790079787">
        <ele>1385.4</ele>
        <time>2012-08-07T09:58:17Z</time>
      </trkpt>
      <trkpt lat="61.6197075974" lon="8.6278674379">
        <ele>1384.92</ele>
        <time>2012-08-07T09:58:18Z</time>
      </trkpt>
      <trkpt lat="61.619688319" lon="8.62784514204">
        <ele>1385.4</ele>
        <time>2012-08-07T09:58:19Z</time>
      </trkpt>
      <trkpt lat="61.6196691245" lon="8.62784237601">
        <ele>1385.4</ele>
        <time>2012-08-07T09:58:20Z</time>
      </trkpt>
      <trkpt lat="61.6196563002" lon="8.62784874626">
        <ele>1385.4</ele>
        <time>2012-08-07T09:58:21Z</time>
      </trkpt>
      <trkpt lat="61.6196070146" lon="8.62780733965">
        <ele>1385.88</ele>
        <time>2012-08-07T09:58:29Z</time>
      </trkpt>
      <trkpt lat="61.6195915919" lon="8.62778445706">
        <ele>1385.88</ele>
        <time>2012-08-07T09:58:30Z</time>
      </trkpt>
      <trkpt lat="61.6195717268" lon="8.62776140682">
        <ele>1385.88</ele>
        <time>2012-08-07T09:58:31Z</time>
      </trkpt>
      <trkpt lat="61.6195486765" lon="8.62774916925">
        <ele>1385.88</ele>
        <time>2012-08-07T09:58:32Z</time>
      </trkpt>
      <trkpt lat="61.6195236146" lon="8.6277370993">
        <ele>1385.4</ele>
        <time>2012-08-07T09:58:33Z</time>
      </trkpt>
      <trkpt lat="61.6194976307" lon="8.6277150549">
        <ele>1385.4</ele>
        <time>2012-08-07T09:58:34Z</time>
      </trkpt>
      <trkpt lat="61.6194770113" lon="8.62769410014">
        <ele>1385.4</ele>
        <time>2012-08-07T09:58:35Z</time>
      </trkpt>
      <trkpt lat="61.619455805" lon="8.62767842598">
        <ele>1385.88</ele>
        <time>2012-08-07T09:58:48Z</time>
      </trkpt>
      <trkpt lat="61.6194688808" lon="8.62768613733">
        <ele>1385.4</ele>
        <time>2012-08-07T09:59:03Z</time>
      </trkpt>
      <trkpt lat="61.6194608342" lon="8.62770063803">
        <ele>1385.4</ele>
        <time>2012-08-07T09:59:28Z</time>
      </trkpt>
      <trkpt lat="61.6194375325" lon="8.62762637436">
        <ele>1386.36</ele>
        <time>2012-08-07T09:59:49Z</time>
      </trkpt>
      <trkpt lat="61.6193988081" lon="8.62761103548">
        <ele>1385.88</ele>
        <time>2012-08-07T09:59:52Z</time>
      </trkpt>
      <trkpt lat="61.6193839721" lon="8.62761279568">
        <ele>1385.4</ele>
        <time>2012-08-07T09:59:53Z</time>
      </trkpt>
      <trkpt lat="61.6193734109" lon="8.62762142904">
        <ele>1384.92</ele>
        <time>2012-08-07T09:59:54Z</time>
      </trkpt>
      <trkpt lat="61.619360419" lon="8.62762972713">
        <ele>1384.92</ele>
        <time>2012-08-07T09:59:55Z</time>
      </trkpt>
      <trkpt lat="61.61934793" lon="8.62763073295">
        <ele>1385.4</ele>
        <time>2012-08-07T09:59:56Z</time>
      </trkpt>
      <trkpt lat="61.6193343513" lon="8.62762964331">
        <ele>1385.4</ele>
        <time>2012-08-07T09:59:57Z</time>
      </trkpt>
      <trkpt lat="61.6193201859" lon="8.62762176432">
        <ele>1384.92</ele>
        <time>2012-08-07T09:59:58Z</time>
      </trkpt>
      <trkpt lat="61.619283976" lon="8.62761656754">
        <ele>1385.88</ele>
        <time>2012-08-07T10:00:05Z</time>
      </trkpt>
      <trkpt lat="61.6192284878" lon="8.62758941017">
        <ele>1384.92</ele>
        <time>2012-08-07T10:00:16Z</time>
      </trkpt>
      <trkpt lat="61.6191983968" lon="8.62753836438">
        <ele>1384.44</ele>
        <time>2012-08-07T10:00:36Z</time>
      </trkpt>
      <trkpt lat="61.6191495303" lon="8.627572814">
        <ele>1383.47</ele>
        <time>2012-08-07T10:00:44Z</time>
      </trkpt>
      <trkpt lat="61.6190749314" lon="8.62761472352">
        <ele>1383.47</ele>
        <time>2012-08-07T10:00:57Z</time>
      </trkpt>
      <trkpt lat="61.6190647893" lon="8.62760223448">
        <ele>1383.47</ele>
        <time>2012-08-07T10:00:58Z</time>
      </trkpt>
      <trkpt lat="61.6190535575" lon="8.62759259529">
        <ele>1382.99</ele>
        <time>2012-08-07T10:00:59Z</time>
      </trkpt>
      <trkpt lat="61.6190419067" lon="8.62758245319">
        <ele>1382.51</ele>
        <time>2012-08-07T10:01:00Z</time>
      </trkpt>
      <trkpt lat="61.6190315969" lon="8.62757574767">
        <ele>1382.51</ele>
        <time>2012-08-07T10:01:01Z</time>
      </trkpt>
      <trkpt lat="61.6189320199" lon="8.62756988034">
        <ele>1383.47</ele>
        <time>2012-08-07T10:01:13Z</time>
      </trkpt>
      <trkpt lat="61.6188216303" lon="8.6275023222">
        <ele>1383.47</ele>
        <time>2012-08-07T10:01:26Z</time>
      </trkpt>
      <trkpt lat="61.6187107377" lon="8.62744322978">
        <ele>1383.47</ele>
        <time>2012-08-07T10:01:40Z</time>
      </trkpt>
      <trkpt lat="61.6186859272" lon="8.62745747901">
        <ele>1383.47</ele>
        <time>2012-08-07T10:01:42Z</time>
      </trkpt>
      <trkpt lat="61.6186738573" lon="8.62746016122">
        <ele>1383.47</ele>
        <time>2012-08-07T10:01:43Z</time>
      </trkpt>
      <trkpt lat="61.618661955" lon="8.62745831721">
        <ele>1383.47</ele>
        <time>2012-08-07T10:01:44Z</time>
      </trkpt>
      <trkpt lat="61.6186356358" lon="8.62744708546">
        <ele>1383.47</ele>
        <time>2012-08-07T10:01:46Z</time>
      </trkpt>
      <trkpt lat="61.6186224762" lon="8.62744540907">
        <ele>1383.47</ele>
        <time>2012-08-07T10:01:47Z</time>
      </trkpt>
      <trkpt lat="61.6185964923" lon="8.62742839381">
        <ele>1383.47</ele>
        <time>2012-08-07T10:01:49Z</time>
      </trkpt>
      <trkpt lat="61.6185835842" lon="8.62741808407">
        <ele>1382.99</ele>
        <time>2012-08-07T10:01:50Z</time>
      </trkpt>
      <trkpt lat="61.6185681615" lon="8.62741615623">
        <ele>1382.99</ele>
        <time>2012-08-07T10:01:51Z</time>
      </trkpt>
      <trkpt lat="61.6185399145" lon="8.62740484066">
        <ele>1384.44</ele>
        <time>2012-08-07T10:02:06Z</time>
      </trkpt>
      <trkpt lat="61.6184948198" lon="8.62744758837">
        <ele>1382.99</ele>
        <time>2012-08-07T10:02:18Z</time>
      </trkpt>
      <trkpt lat="61.6183995176" lon="8.62740282901">
        <ele>1382.03</ele>
        <time>2012-08-07T10:02:30Z</time>
      </trkpt>
      <trkpt lat="61.618358111" lon="8.62733518705">
        <ele>1382.03</ele>
        <time>2012-08-07T10:02:34Z</time>
      </trkpt>
      <trkpt lat="61.618335899" lon="8.62729788758">
        <ele>1382.03</ele>
        <time>2012-08-07T10:02:37Z</time>
      </trkpt>
      <trkpt lat="61.6183254216" lon="8.62729026005">
        <ele>1382.51</ele>
        <time>2012-08-07T10:02:38Z</time>
      </trkpt>
      <trkpt lat="61.6183135193" lon="8.62729126588">
        <ele>1382.03</ele>
        <time>2012-08-07T10:02:39Z</time>
      </trkpt>
      <trkpt lat="61.6182457097" lon="8.62729948014">
        <ele>1382.03</ele>
        <time>2012-08-07T10:02:48Z</time>
      </trkpt>
      <trkpt lat="61.6181372479" lon="8.62718255259">
        <ele>1382.51</ele>
        <time>2012-08-07T10:03:00Z</time>
      </trkpt>
      <trkpt lat="61.618086705" lon="8.62719026394">
        <ele>1382.99</ele>
        <time>2012-08-07T10:03:10Z</time>
      </trkpt>
      <trkpt lat="61.6180763114" lon="8.627186995">
        <ele>1382.99</ele>
        <time>2012-08-07T10:03:11Z</time>
      </trkpt>
      <trkpt lat="61.6179293767" lon="8.62706084736">
        <ele>1382.03</ele>
        <time>2012-08-07T10:03:24Z</time>
      </trkpt>
      <trkpt lat="61.6179111041" lon="8.62704450265">
        <ele>1382.99</ele>
        <time>2012-08-07T10:03:37Z</time>
      </trkpt>
      <trkpt lat="61.6178836115" lon="8.62701793201">
        <ele>1382.99</ele>
        <time>2012-08-07T10:03:41Z</time>
      </trkpt>
      <trkpt lat="61.6178691108" lon="8.62701290287">
        <ele>1382.51</ele>
        <time>2012-08-07T10:03:42Z</time>
      </trkpt>
      <trkpt lat="61.6178556159" lon="8.62700594589">
        <ele>1382.51</ele>
        <time>2012-08-07T10:03:43Z</time>
      </trkpt>
      <trkpt lat="61.6177981999" lon="8.62696110271">
        <ele>1381.07</ele>
        <time>2012-08-07T10:03:49Z</time>
      </trkpt>
      <trkpt lat="61.617773138" lon="8.62696588039">
        <ele>1381.07</ele>
        <time>2012-08-07T10:03:52Z</time>
      </trkpt>
      <trkpt lat="61.6176775843" lon="8.62685875967">
        <ele>1381.07</ele>
        <time>2012-08-07T10:04:04Z</time>
      </trkpt>
      <trkpt lat="61.6176284663" lon="8.62685079686">
        <ele>1381.07</ele>
        <time>2012-08-07T10:04:11Z</time>
      </trkpt>
      <trkpt lat="61.6176178213" lon="8.6268566642">
        <ele>1380.59</ele>
        <time>2012-08-07T10:04:12Z</time>
      </trkpt>
      <trkpt lat="61.6176044941" lon="8.62686010078">
        <ele>1381.07</ele>
        <time>2012-08-07T10:04:13Z</time>
      </trkpt>
      <trkpt lat="61.6175912507" lon="8.62685632892">
        <ele>1380.59</ele>
        <time>2012-08-07T10:04:14Z</time>
      </trkpt>
      <trkpt lat="61.6175803542" lon="8.62684300169">
        <ele>1381.07</ele>
        <time>2012-08-07T10:04:15Z</time>
      </trkpt>
      <trkpt lat="61.6175157297" lon="8.62677996978">
        <ele>1380.11</ele>
        <time>2012-08-07T10:04:24Z</time>
      </trkpt>
      <trkpt lat="61.6174251214" lon="8.62676706165">
        <ele>1379.63</ele>
        <time>2012-08-07T10:04:33Z</time>
      </trkpt>
      <trkpt lat="61.6173459124" lon="8.62673839554">
        <ele>1380.11</ele>
        <time>2012-08-07T10:04:41Z</time>
      </trkpt>
      <trkpt lat="61.617334513" lon="8.62673730589">
        <ele>1380.59</ele>
        <time>2012-08-07T10:04:42Z</time>
      </trkpt>
      <trkpt lat="61.6173232812" lon="8.62673772499">
        <ele>1380.11</ele>
        <time>2012-08-07T10:04:43Z</time>
      </trkpt>
      <trkpt lat="61.6173126362" lon="8.62673680298">
        <ele>1380.59</ele>
        <time>2012-08-07T10:04:44Z</time>
      </trkpt>
      <trkpt lat="61.6173005663" lon="8.62672967836">
        <ele>1380.59</ele>
        <time>2012-08-07T10:04:45Z</time>
      </trkpt>
      <trkpt lat="61.6172800306" lon="8.62672255374">
        <ele>1380.11</ele>
        <time>2012-08-07T10:04:47Z</time>
      </trkpt>
      <trkpt lat="61.6172625963" lon="8.62672967836">
        <ele>1380.11</ele>
        <time>2012-08-07T10:04:49Z</time>
      </trkpt>
      <trkpt lat="61.6171615943" lon="8.62666798756">
        <ele>1382.03</ele>
        <time>2012-08-07T10:05:05Z</time>
      </trkpt>
      <trkpt lat="61.6171036754" lon="8.62661870196">
        <ele>1382.03</ele>
        <time>2012-08-07T10:05:18Z</time>
      </trkpt>
      <trkpt lat="61.6171031725" lon="8.62657637335">
        <ele>1383.47</ele>
        <time>2012-08-07T10:05:32Z</time>
      </trkpt>
      <trkpt lat="61.6170554794" lon="8.62651174888">
        <ele>1382.99</ele>
        <time>2012-08-07T10:05:43Z</time>
      </trkpt>
      <trkpt lat="61.6170171741" lon="8.62652432173">
        <ele>1383.96</ele>
        <time>2012-08-07T10:05:49Z</time>
      </trkpt>
      <trkpt lat="61.6170071159" lon="8.62651593983">
        <ele>1383.96</ele>
        <time>2012-08-07T10:05:50Z</time>
      </trkpt>
      <trkpt lat="61.6169941239" lon="8.62651376054">
        <ele>1383.47</ele>
        <time>2012-08-07T10:05:51Z</time>
      </trkpt>
      <trkpt lat="61.6169818863" lon="8.62651585601">
        <ele>1383.96</ele>
        <time>2012-08-07T10:05:53Z</time>
      </trkpt>
      <trkpt lat="61.6169695649" lon="8.62653362565">
        <ele>1384.44</ele>
        <time>2012-08-07T10:05:54Z</time>
      </trkpt>
      <trkpt lat="61.6169148311" lon="8.62654712051">
        <ele>1385.88</ele>
        <time>2012-08-07T10:06:05Z</time>
      </trkpt>
      <trkpt lat="61.6168040223" lon="8.62646539696">
        <ele>1384.92</ele>
        <time>2012-08-07T10:06:15Z</time>
      </trkpt>
      <trkpt lat="61.6167906951" lon="8.62646698952">
        <ele>1384.92</ele>
        <time>2012-08-07T10:06:16Z</time>
      </trkpt>
      <trkpt lat="61.6167851631" lon="8.62647562288">
        <ele>1385.4</ele>
        <time>2012-08-07T10:06:25Z</time>
      </trkpt>
      <trkpt lat="61.6167839058" lon="8.62646128982">
        <ele>1385.88</ele>
        <time>2012-08-07T10:06:26Z</time>
      </trkpt>
      <trkpt lat="61.6167525575" lon="8.62643086351">
        <ele>1385.88</ele>
        <time>2012-08-07T10:06:29Z</time>
      </trkpt>
      <trkpt lat="61.6166993324" lon="8.62646204419">
        <ele>1385.88</ele>
        <time>2012-08-07T10:06:44Z</time>
      </trkpt>
      <trkpt lat="61.616655495" lon="8.62645508721">
        <ele>1385.88</ele>
        <time>2012-08-07T10:07:04Z</time>
      </trkpt>
      <trkpt lat="61.6166233923" lon="8.62643748522">
        <ele>1385.88</ele>
        <time>2012-08-07T10:07:08Z</time>
      </trkpt>
      <trkpt lat="61.61656891" lon="8.62642340362">
        <ele>1385.4</ele>
        <time>2012-08-07T10:07:15Z</time>
      </trkpt>
      <trkpt lat="61.6164757032" lon="8.62635316327">
        <ele>1385.88</ele>
        <time>2012-08-07T10:07:27Z</time>
      </trkpt>
      <trkpt lat="61.6164538264" lon="8.62634679303">
        <ele>1385.88</ele>
        <time>2012-08-07T10:07:31Z</time>
      </trkpt>
      <trkpt lat="61.6164014395" lon="8.62633396871">
        <ele>1384.92</ele>
        <time>2012-08-07T10:07:35Z</time>
      </trkpt>
      <trkpt lat="61.6163855977" lon="8.6263369862">
        <ele>1385.4</ele>
        <time>2012-08-07T10:07:36Z</time>
      </trkpt>
      <trkpt lat="61.6163075622" lon="8.62633983605">
        <ele>1383.96</ele>
        <time>2012-08-07T10:07:45Z</time>
      </trkpt>
      <trkpt lat="61.6162728611" lon="8.62637596205">
        <ele>1384.44</ele>
        <time>2012-08-07T10:07:54Z</time>
      </trkpt>
      <trkpt lat="61.6162563488" lon="8.62637738697">
        <ele>1384.44</ele>
        <time>2012-08-07T10:07:55Z</time>
      </trkpt>
      <trkpt lat="61.6161870304" lon="8.62637428567">
        <ele>1384.92</ele>
        <time>2012-08-07T10:08:00Z</time>
      </trkpt>
      <trkpt lat="61.6161739547" lon="8.62637193874">
        <ele>1385.4</ele>
        <time>2012-08-07T10:08:01Z</time>
      </trkpt>
      <trkpt lat="61.6161621362" lon="8.62637210637">
        <ele>1385.88</ele>
        <time>2012-08-07T10:08:02Z</time>
      </trkpt>
      <trkpt lat="61.6161490604" lon="8.62637202255">
        <ele>1385.88</ele>
        <time>2012-08-07T10:08:03Z</time>
      </trkpt>
      <trkpt lat="61.6161365714" lon="8.62636816688">
        <ele>1385.88</ele>
        <time>2012-08-07T10:08:04Z</time>
      </trkpt>
      <trkpt lat="61.6161219869" lon="8.62637084909">
        <ele>1386.36</ele>
        <time>2012-08-07T10:08:05Z</time>
      </trkpt>
      <trkpt lat="61.6159458831" lon="8.62636841834">
        <ele>1385.4</ele>
        <time>2012-08-07T10:08:21Z</time>
      </trkpt>
      <trkpt lat="61.6159383394" lon="8.62635249272">
        <ele>1384.92</ele>
        <time>2012-08-07T10:08:22Z</time>
      </trkpt>
      <trkpt lat="61.6159270238" lon="8.62627001479">
        <ele>1386.84</ele>
        <time>2012-08-07T10:08:32Z</time>
      </trkpt>
      <trkpt lat="61.6159193125" lon="8.62627546303">
        <ele>1386.84</ele>
        <time>2012-08-07T10:08:34Z</time>
      </trkpt>
      <trkpt lat="61.6158780735" lon="8.62628334202">
        <ele>1386.84</ele>
        <time>2012-08-07T10:08:47Z</time>
      </trkpt>
      <trkpt lat="61.6158284526" lon="8.626335226">
        <ele>1385.4</ele>
        <time>2012-08-07T10:08:59Z</time>
      </trkpt>
      <trkpt lat="61.6158114374" lon="8.62624528818">
        <ele>1386.36</ele>
        <time>2012-08-07T10:09:12Z</time>
      </trkpt>
      <trkpt lat="61.6158454679" lon="8.62627370283">
        <ele>1385.88</ele>
        <time>2012-08-07T10:09:32Z</time>
      </trkpt>
      <trkpt lat="61.6158381756" lon="8.62627194263">
        <ele>1385.4</ele>
        <time>2012-08-07T10:09:53Z</time>
      </trkpt>
      <trkpt lat="61.6158463061" lon="8.62625677139">
        <ele>1386.36</ele>
        <time>2012-08-07T10:10:17Z</time>
      </trkpt>
      <trkpt lat="61.61582225" lon="8.62628736533">
        <ele>1387.32</ele>
        <time>2012-08-07T10:10:28Z</time>
      </trkpt>
      <trkpt lat="61.6157679353" lon="8.62626196817">
        <ele>1387.32</ele>
        <time>2012-08-07T10:10:38Z</time>
      </trkpt>
      <trkpt lat="61.6156582162" lon="8.62618921325">
        <ele>1387.32</ele>
        <time>2012-08-07T10:10:50Z</time>
      </trkpt>
      <trkpt lat="61.6154640913" lon="8.62609189935">
        <ele>1386.36</ele>
        <time>2012-08-07T10:11:06Z</time>
      </trkpt>
      <trkpt lat="61.6153156478" lon="8.62598519772">
        <ele>1385.4</ele>
        <time>2012-08-07T10:11:21Z</time>
      </trkpt>
      <trkpt lat="61.6152135562" lon="8.62589810975">
        <ele>1385.88</ele>
        <time>2012-08-07T10:11:34Z</time>
      </trkpt>
      <trkpt lat="61.615090929" lon="8.62588344142">
        <ele>1386.84</ele>
        <time>2012-08-07T10:11:49Z</time>
      </trkpt>
      <trkpt lat="61.6149606742" lon="8.62578235567">
        <ele>1386.84</ele>
        <time>2012-08-07T10:12:05Z</time>
      </trkpt>
      <trkpt lat="61.6148880031" lon="8.62573147751">
        <ele>1386.84</ele>
        <time>2012-08-07T10:12:18Z</time>
      </trkpt>
      <trkpt lat="61.6148154158" lon="8.62568730488">
        <ele>1388.28</ele>
        <time>2012-08-07T10:12:36Z</time>
      </trkpt>
      <trkpt lat="61.6147470195" lon="8.62561102957">
        <ele>1388.28</ele>
        <time>2012-08-07T10:12:49Z</time>
      </trkpt>
      <trkpt lat="61.6146716662" lon="8.62548756413">
        <ele>1388.28</ele>
        <time>2012-08-07T10:13:03Z</time>
      </trkpt>
      <trkpt lat="61.6146325227" lon="8.62546510063">
        <ele>1388.28</ele>
        <time>2012-08-07T10:13:10Z</time>
      </trkpt>
      <trkpt lat="61.6145759448" lon="8.62540760078">
        <ele>1388.28</ele>
        <time>2012-08-07T10:13:16Z</time>
      </trkpt>
      <trkpt lat="61.6144803073" lon="8.62537432462">
        <ele>1388.28</ele>
        <time>2012-08-07T10:13:30Z</time>
      </trkpt>
      <trkpt lat="61.614363296" lon="8.62533325329">
        <ele>1387.8</ele>
        <time>2012-08-07T10:13:44Z</time>
      </trkpt>
      <trkpt lat="61.6142810695" lon="8.62532470375">
        <ele>1388.28</ele>
        <time>2012-08-07T10:13:53Z</time>
      </trkpt>
      <trkpt lat="61.6141895391" lon="8.62527474761">
        <ele>1387.8</ele>
        <time>2012-08-07T10:14:06Z</time>
      </trkpt>
      <trkpt lat="61.6141172033" lon="8.62528983504">
        <ele>1387.8</ele>
        <time>2012-08-07T10:14:18Z</time>
      </trkpt>
      <trkpt lat="61.6140806582" lon="8.62530919723">
        <ele>1388.76</ele>
        <time>2012-08-07T10:14:31Z</time>
      </trkpt>
      <trkpt lat="61.613889467" lon="8.62524515949">
        <ele>1388.28</ele>
        <time>2012-08-07T10:14:48Z</time>
      </trkpt>
      <trkpt lat="61.6138125211" lon="8.62520894967">
        <ele>1388.28</ele>
        <time>2012-08-07T10:14:54Z</time>
      </trkpt>
      <trkpt lat="61.6137427837" lon="8.62522998825">
        <ele>1390.2</ele>
        <time>2012-08-07T10:15:08Z</time>
      </trkpt>
      <trkpt lat="61.6137217451" lon="8.62522034906">
        <ele>1390.68</ele>
        <time>2012-08-07T10:15:10Z</time>
      </trkpt>
      <trkpt lat="61.613655109" lon="8.6252165772">
        <ele>1390.68</ele>
        <time>2012-08-07T10:15:25Z</time>
      </trkpt>
      <trkpt lat="61.6136445478" lon="8.6252284795">
        <ele>1390.2</ele>
        <time>2012-08-07T10:15:44Z</time>
      </trkpt>
      <trkpt lat="61.6136192344" lon="8.62523501739">
        <ele>1391.17</ele>
        <time>2012-08-07T10:16:10Z</time>
      </trkpt>
      <trkpt lat="61.6135890596" lon="8.62518162467">
        <ele>1391.17</ele>
        <time>2012-08-07T10:16:29Z</time>
      </trkpt>
      <trkpt lat="61.6135283746" lon="8.62506411038">
        <ele>1391.17</ele>
        <time>2012-08-07T10:16:42Z</time>
      </trkpt>
      <trkpt lat="61.6135101859" lon="8.62505606376">
        <ele>1391.17</ele>
        <time>2012-08-07T10:16:46Z</time>
      </trkpt>
      <trkpt lat="61.6134495009" lon="8.62501063384">
        <ele>1391.65</ele>
        <time>2012-08-07T10:16:58Z</time>
      </trkpt>
      <trkpt lat="61.6134333238" lon="8.62499462441">
        <ele>1391.17</ele>
        <time>2012-08-07T10:17:01Z</time>
      </trkpt>
      <trkpt lat="61.6133659333" lon="8.62491600215">
        <ele>1392.13</ele>
        <time>2012-08-07T10:17:08Z</time>
      </trkpt>
      <trkpt lat="61.6133173183" lon="8.62490393221">
        <ele>1391.65</ele>
        <time>2012-08-07T10:17:13Z</time>
      </trkpt>
      <trkpt lat="61.6131966189" lon="8.6247373838">
        <ele>1391.17</ele>
        <time>2012-08-07T10:17:29Z</time>
      </trkpt>
      <trkpt lat="61.6131741554" lon="8.62472238019">
        <ele>1391.17</ele>
        <time>2012-08-07T10:17:31Z</time>
      </trkpt>
      <trkpt lat="61.6130917612" lon="8.6246383097">
        <ele>1391.65</ele>
        <time>2012-08-07T10:17:46Z</time>
      </trkpt>
      <trkpt lat="61.6130770091" lon="8.62461073324">
        <ele>1391.17</ele>
        <time>2012-08-07T10:17:48Z</time>
      </trkpt>
      <trkpt lat="61.6130471695" lon="8.62458910793">
        <ele>1391.17</ele>
        <time>2012-08-07T10:17:51Z</time>
      </trkpt>
      <trkpt lat="61.6129636858" lon="8.62440261059">
        <ele>1392.61</ele>
        <time>2012-08-07T10:18:05Z</time>
      </trkpt>
      <trkpt lat="61.6128214449" lon="8.62421745434">
        <ele>1392.61</ele>
        <time>2012-08-07T10:18:22Z</time>
      </trkpt>
      <trkpt lat="61.6127817985" lon="8.62418811768">
        <ele>1394.05</ele>
        <time>2012-08-07T10:18:39Z</time>
      </trkpt>
      <trkpt lat="61.6127785295" lon="8.62418543547">
        <ele>1394.53</ele>
        <time>2012-08-07T10:18:40Z</time>
      </trkpt>
      <trkpt lat="61.6127003264" lon="8.62414377742">
        <ele>1394.05</ele>
        <time>2012-08-07T10:18:53Z</time>
      </trkpt>
      <trkpt lat="61.6126533877" lon="8.62409641966">
        <ele>1393.57</ele>
        <time>2012-08-07T10:19:08Z</time>
      </trkpt>
      <trkpt lat="61.6126268171" lon="8.62404369749">
        <ele>1395.01</ele>
        <time>2012-08-07T10:19:40Z</time>
      </trkpt>
      <trkpt lat="61.6125538945" lon="8.62405115739">
        <ele>1394.53</ele>
        <time>2012-08-07T10:19:52Z</time>
      </trkpt>
      <trkpt lat="61.6125103924" lon="8.62398837693">
        <ele>1395.01</ele>
        <time>2012-08-07T10:20:05Z</time>
      </trkpt>
      <trkpt lat="61.6124865878" lon="8.62400933169">
        <ele>1395.49</ele>
        <time>2012-08-07T10:20:16Z</time>
      </trkpt>
      <trkpt lat="61.6124872584" lon="8.62404763699">
        <ele>1395.49</ele>
        <time>2012-08-07T10:20:45Z</time>
      </trkpt>
      <trkpt lat="61.6124896053" lon="8.62399843521">
        <ele>1395.49</ele>
        <time>2012-08-07T10:21:05Z</time>
      </trkpt>
      <trkpt lat="61.6124632861" lon="8.62403967418">
        <ele>1394.05</ele>
        <time>2012-08-07T10:21:21Z</time>
      </trkpt>
      <trkpt lat="61.6124693211" lon="8.6239965912">
        <ele>1395.49</ele>
        <time>2012-08-07T10:21:37Z</time>
      </trkpt>
      <trkpt lat="61.6124699079" lon="8.62400036305">
        <ele>1395.01</ele>
        <time>2012-08-07T10:22:04Z</time>
      </trkpt>
      <trkpt lat="61.6124324407" lon="8.62403573468">
        <ele>1395.49</ele>
        <time>2012-08-07T10:22:17Z</time>
      </trkpt>
      <trkpt lat="61.6124250647" lon="8.62403556705">
        <ele>1395.49</ele>
        <time>2012-08-07T10:22:18Z</time>
      </trkpt>
      <trkpt lat="61.6124020983" lon="8.62403397448">
        <ele>1395.49</ele>
        <time>2012-08-07T10:22:20Z</time>
      </trkpt>
      <trkpt lat="61.6123573389" lon="8.62401645631">
        <ele>1395.49</ele>
        <time>2012-08-07T10:22:31Z</time>
      </trkpt>
      <trkpt lat="61.6122574266" lon="8.62401603721">
        <ele>1395.49</ele>
        <time>2012-08-07T10:22:43Z</time>
      </trkpt>
      <trkpt lat="61.6122064646" lon="8.62397563644">
        <ele>1395.97</ele>
        <time>2012-08-07T10:22:50Z</time>
      </trkpt>
      <trkpt lat="61.6120896209" lon="8.62383054569">
        <ele>1396.45</ele>
        <time>2012-08-07T10:23:06Z</time>
      </trkpt>
      <trkpt lat="61.6120626312" lon="8.62377882935">
        <ele>1396.93</ele>
        <time>2012-08-07T10:23:20Z</time>
      </trkpt>
      <trkpt lat="61.612021476" lon="8.62372644246">
        <ele>1396.93</ele>
        <time>2012-08-07T10:23:24Z</time>
      </trkpt>
      <trkpt lat="61.6119909659" lon="8.62364061177">
        <ele>1397.89</ele>
        <time>2012-08-07T10:23:35Z</time>
      </trkpt>
      <trkpt lat="61.6119588632" lon="8.62357456237">
        <ele>1396.93</ele>
        <time>2012-08-07T10:23:50Z</time>
      </trkpt>
      <trkpt lat="61.6119346395" lon="8.6235187389">
        <ele>1396.93</ele>
        <time>2012-08-07T10:23:52Z</time>
      </trkpt>
      <trkpt lat="61.6118970048" lon="8.62347112969">
        <ele>1396.93</ele>
        <time>2012-08-07T10:23:54Z</time>
      </trkpt>
      <trkpt lat="61.6118878685" lon="8.62345411442">
        <ele>1397.41</ele>
        <time>2012-08-07T10:23:55Z</time>
      </trkpt>
      <trkpt lat="61.6118853539" lon="8.62344405614">
        <ele>1396.45</ele>
        <time>2012-08-07T10:24:07Z</time>
      </trkpt>
      <trkpt lat="61.6118877009" lon="8.62342159264">
        <ele>1396.45</ele>
        <time>2012-08-07T10:24:21Z</time>
      </trkpt>
      <trkpt lat="61.6118903831" lon="8.62341622822">
        <ele>1396.45</ele>
        <time>2012-08-07T10:24:39Z</time>
      </trkpt>
      <trkpt lat="61.6119036265" lon="8.62348537892">
        <ele>1397.41</ele>
        <time>2012-08-07T10:24:51Z</time>
      </trkpt>
      <trkpt lat="61.611920977" lon="8.62342293374">
        <ele>1396.93</ele>
        <time>2012-08-07T10:25:02Z</time>
      </trkpt>
      <trkpt lat="61.6118980944" lon="8.62340214662">
        <ele>1397.41</ele>
        <time>2012-08-07T10:25:08Z</time>
      </trkpt>
      <trkpt lat="61.6118859407" lon="8.62341916189">
        <ele>1396.93</ele>
        <time>2012-08-07T10:25:19Z</time>
      </trkpt>
      <trkpt lat="61.6118567716" lon="8.6233817786">
        <ele>1396.93</ele>
        <time>2012-08-07T10:25:24Z</time>
      </trkpt>
      <trkpt lat="61.6118347272" lon="8.6232518591">
        <ele>1397.41</ele>
        <time>2012-08-07T10:25:37Z</time>
      </trkpt>
      <trkpt lat="61.6117853578" lon="8.62324632704">
        <ele>1397.41</ele>
        <time>2012-08-07T10:25:56Z</time>
      </trkpt>
      <trkpt lat="61.6117169615" lon="8.62313929014">
        <ele>1397.41</ele>
        <time>2012-08-07T10:26:07Z</time>
      </trkpt>
      <trkpt lat="61.611650493" lon="8.62305421382">
        <ele>1397.41</ele>
        <time>2012-08-07T10:26:19Z</time>
      </trkpt>
      <trkpt lat="61.6115683503" lon="8.62290828489">
        <ele>1397.41</ele>
        <time>2012-08-07T10:26:32Z</time>
      </trkpt>
      <trkpt lat="61.6115653329" lon="8.62290300429">
        <ele>1397.89</ele>
        <time>2012-08-07T10:26:33Z</time>
      </trkpt>
      <trkpt lat="61.611550916" lon="8.62288355827">
        <ele>1397.89</ele>
        <time>2012-08-07T10:26:35Z</time>
      </trkpt>
      <trkpt lat="61.6114991996" lon="8.62282807007">
        <ele>1397.41</ele>
        <time>2012-08-07T10:26:46Z</time>
      </trkpt>
      <trkpt lat="61.6114333179" lon="8.62281097099">
        <ele>1398.37</ele>
        <time>2012-08-07T10:26:59Z</time>
      </trkpt>
      <trkpt lat="61.6113877203" lon="8.62276981585">
        <ele>1398.86</ele>
        <time>2012-08-07T10:27:09Z</time>
      </trkpt>
      <trkpt lat="61.6113383509" lon="8.62270862795">
        <ele>1398.86</ele>
        <time>2012-08-07T10:27:20Z</time>
      </trkpt>
      <trkpt lat="61.6113236826" lon="8.62269261852">
        <ele>1399.34</ele>
        <time>2012-08-07T10:27:36Z</time>
      </trkpt>
      <trkpt lat="61.61131748" lon="8.62269186415">
        <ele>1399.34</ele>
        <time>2012-08-07T10:27:59Z</time>
      </trkpt>
      <trkpt lat="61.6112526879" lon="8.6226696521">
        <ele>1399.34</ele>
        <time>2012-08-07T10:28:12Z</time>
      </trkpt>
      <trkpt lat="61.6112198308" lon="8.62264635041">
        <ele>1399.34</ele>
        <time>2012-08-07T10:28:29Z</time>
      </trkpt>
      <trkpt lat="61.6110763326" lon="8.62255959772">
        <ele>1400.3</ele>
        <time>2012-08-07T10:28:46Z</time>
      </trkpt>
      <trkpt lat="61.6109683737" lon="8.62245574594">
        <ele>1400.78</ele>
        <time>2012-08-07T10:28:59Z</time>
      </trkpt>
      <trkpt lat="61.6109314095" lon="8.62240277231">
        <ele>1400.78</ele>
        <time>2012-08-07T10:29:06Z</time>
      </trkpt>
      <trkpt lat="61.6108976305" lon="8.62241710536">
        <ele>1402.22</ele>
        <time>2012-08-07T10:29:19Z</time>
      </trkpt>
      <trkpt lat="61.6108415555" lon="8.62236128189">
        <ele>1401.74</ele>
        <time>2012-08-07T10:29:24Z</time>
      </trkpt>
      <trkpt lat="61.6107303277" lon="8.62226044759">
        <ele>1402.7</ele>
        <time>2012-08-07T10:29:38Z</time>
      </trkpt>
      <trkpt lat="61.6106675472" lon="8.62226639874">
        <ele>1402.22</ele>
        <time>2012-08-07T10:29:43Z</time>
      </trkpt>
      <trkpt lat="61.6105440818" lon="8.62221543677">
        <ele>1404.14</ele>
        <time>2012-08-07T10:29:57Z</time>
      </trkpt>
      <trkpt lat="61.6103989072" lon="8.62214108929">
        <ele>1403.66</ele>
        <time>2012-08-07T10:30:13Z</time>
      </trkpt>
      <trkpt lat="61.6102896072" lon="8.62207680009">
        <ele>1404.14</ele>
        <time>2012-08-07T10:30:26Z</time>
      </trkpt>
      <trkpt lat="61.6101984959" lon="8.62202097662">
        <ele>1404.14</ele>
        <time>2012-08-07T10:30:39Z</time>
      </trkpt>
      <trkpt lat="61.6101230588" lon="8.62191930413">
        <ele>1405.58</ele>
        <time>2012-08-07T10:30:54Z</time>
      </trkpt>
      <trkpt lat="61.6100922134" lon="8.62186943181">
        <ele>1406.07</ele>
        <time>2012-08-07T10:31:07Z</time>
      </trkpt>
      <trkpt lat="61.6100211348" lon="8.62175644375">
        <ele>1406.55</ele>
        <time>2012-08-07T10:31:19Z</time>
      </trkpt>
      <trkpt lat="61.6099662334" lon="8.62160280347">
        <ele>1407.03</ele>
        <time>2012-08-07T10:31:30Z</time>
      </trkpt>
      <trkpt lat="61.6098858509" lon="8.62147229724">
        <ele>1407.51</ele>
        <time>2012-08-07T10:31:43Z</time>
      </trkpt>
      <trkpt lat="61.6098393314" lon="8.62140348181">
        <ele>1407.99</ele>
        <time>2012-08-07T10:31:57Z</time>
      </trkpt>
      <trkpt lat="61.6097794846" lon="8.62134614959">
        <ele>1408.47</ele>
        <time>2012-08-07T10:32:15Z</time>
      </trkpt>
      <trkpt lat="61.6096793208" lon="8.62124330364">
        <ele>1409.43</ele>
        <time>2012-08-07T10:32:29Z</time>
      </trkpt>
      <trkpt lat="61.6095733736" lon="8.62113232724">
        <ele>1410.87</ele>
        <time>2012-08-07T10:32:42Z</time>
      </trkpt>
      <trkpt lat="61.6094556917" lon="8.62099494785">
        <ele>1411.83</ele>
        <time>2012-08-07T10:32:58Z</time>
      </trkpt>
      <trkpt lat="61.609346224" lon="8.6209145654">
        <ele>1412.79</ele>
        <time>2012-08-07T10:33:12Z</time>
      </trkpt>
      <trkpt lat="61.6093118582" lon="8.62081222236">
        <ele>1413.28</ele>
        <time>2012-08-07T10:33:19Z</time>
      </trkpt>
      <trkpt lat="61.6092013009" lon="8.6207071133">
        <ele>1414.24</ele>
        <time>2012-08-07T10:33:33Z</time>
      </trkpt>
      <trkpt lat="61.6091590561" lon="8.62067635171">
        <ele>1414.72</ele>
        <time>2012-08-07T10:33:42Z</time>
      </trkpt>
      <trkpt lat="61.6091279592" lon="8.62064877525">
        <ele>1414.72</ele>
        <time>2012-08-07T10:33:50Z</time>
      </trkpt>
      <trkpt lat="61.609116476" lon="8.62063595094">
        <ele>1414.72</ele>
        <time>2012-08-07T10:33:51Z</time>
      </trkpt>
      <trkpt lat="61.6091107763" lon="8.62061792985">
        <ele>1415.2</ele>
        <time>2012-08-07T10:33:52Z</time>
      </trkpt>
      <trkpt lat="61.609104909" lon="8.62059538253">
        <ele>1415.2</ele>
        <time>2012-08-07T10:33:53Z</time>
      </trkpt>
      <trkpt lat="61.6090992093" lon="8.62057660706">
        <ele>1415.68</ele>
        <time>2012-08-07T10:33:54Z</time>
      </trkpt>
      <trkpt lat="61.6090664361" lon="8.62053209916">
        <ele>1416.64</ele>
        <time>2012-08-07T10:33:58Z</time>
      </trkpt>
      <trkpt lat="61.6090589762" lon="8.62049513496">
        <ele>1416.16</ele>
        <time>2012-08-07T10:34:00Z</time>
      </trkpt>
      <trkpt lat="61.6090587247" lon="8.62047543749">
        <ele>1417.12</ele>
        <time>2012-08-07T10:34:01Z</time>
      </trkpt>
      <trkpt lat="61.6090464033" lon="8.62048122101">
        <ele>1416.64</ele>
        <time>2012-08-07T10:34:09Z</time>
      </trkpt>
      <trkpt lat="61.6090226825" lon="8.62048666924">
        <ele>1417.12</ele>
        <time>2012-08-07T10:34:20Z</time>
      </trkpt>
      <trkpt lat="61.6090155579" lon="8.62046822906">
        <ele>1416.64</ele>
        <time>2012-08-07T10:34:23Z</time>
      </trkpt>
      <trkpt lat="61.6089821141" lon="8.62044702284">
        <ele>1417.12</ele>
        <time>2012-08-07T10:34:27Z</time>
      </trkpt>
      <trkpt lat="61.6089728102" lon="8.62043478526">
        <ele>1416.64</ele>
        <time>2012-08-07T10:34:28Z</time>
      </trkpt>
      <trkpt lat="61.6088814475" lon="8.6203362979">
        <ele>1417.6</ele>
        <time>2012-08-07T10:34:41Z</time>
      </trkpt>
      <trkpt lat="61.6088012327" lon="8.62015575171">
        <ele>1419.04</ele>
        <time>2012-08-07T10:34:54Z</time>
      </trkpt>
      <trkpt lat="61.6087336745" lon="8.62002130598">
        <ele>1419.04</ele>
        <time>2012-08-07T10:35:07Z</time>
      </trkpt>
      <trkpt lat="61.6087641846" lon="8.61997134984">
        <ele>1419.04</ele>
        <time>2012-08-07T10:35:23Z</time>
      </trkpt>
      <trkpt lat="61.6087475885" lon="8.61997394823">
        <ele>1420</ele>
        <time>2012-08-07T10:35:43Z</time>
      </trkpt>
      <trkpt lat="61.6087518632" lon="8.619969422">
        <ele>1420</ele>
        <time>2012-08-07T10:36:01Z</time>
      </trkpt>
      <trkpt lat="61.6087411344" lon="8.61996095628">
        <ele>1419.52</ele>
        <time>2012-08-07T10:36:23Z</time>
      </trkpt>
      <trkpt lat="61.6087553836" lon="8.61995483749">
        <ele>1420</ele>
        <time>2012-08-07T10:36:42Z</time>
      </trkpt>
      <trkpt lat="61.6087652743" lon="8.61998652108">
        <ele>1420</ele>
        <time>2012-08-07T10:36:59Z</time>
      </trkpt>
      <trkpt lat="61.6087530367" lon="8.61997017637">
        <ele>1420</ele>
        <time>2012-08-07T10:37:28Z</time>
      </trkpt>
      <trkpt lat="61.6087512765" lon="8.61996162683">
        <ele>1420</ele>
        <time>2012-08-07T10:37:54Z</time>
      </trkpt>
      <trkpt lat="61.6087776795" lon="8.61997872591">
        <ele>1420.49</ele>
        <time>2012-08-07T10:38:21Z</time>
      </trkpt>
      <trkpt lat="61.6087610833" lon="8.61998392269">
        <ele>1420</ele>
        <time>2012-08-07T10:38:45Z</time>
      </trkpt>
      <trkpt lat="61.6087433137" lon="8.61997143365">
        <ele>1419.52</ele>
        <time>2012-08-07T10:39:11Z</time>
      </trkpt>
      <trkpt lat="61.6087511927" lon="8.61996958964">
        <ele>1419.52</ele>
        <time>2012-08-07T10:39:41Z</time>
      </trkpt>
      <trkpt lat="61.6087543778" lon="8.6199584417">
        <ele>1420.49</ele>
        <time>2012-08-07T10:39:58Z</time>
      </trkpt>
      <trkpt lat="61.6087439843" lon="8.61993614584">
        <ele>1420</ele>
        <time>2012-08-07T10:40:21Z</time>
      </trkpt>
      <trkpt lat="61.6087604128" lon="8.61996690743">
        <ele>1420</ele>
        <time>2012-08-07T10:40:39Z</time>
      </trkpt>
      <trkpt lat="61.6087521985" lon="8.61993019469">
        <ele>1420.49</ele>
        <time>2012-08-07T10:40:57Z</time>
      </trkpt>
      <trkpt lat="61.608744571" lon="8.61987043172">
        <ele>1419.04</ele>
        <time>2012-08-07T10:41:01Z</time>
      </trkpt>
      <trkpt lat="61.6087521985" lon="8.61982843839">
        <ele>1420.97</ele>
        <time>2012-08-07T10:41:02Z</time>
      </trkpt>
      <trkpt lat="61.6087597422" lon="8.61976708286">
        <ele>1419.04</ele>
        <time>2012-08-07T10:41:03Z</time>
      </trkpt>
      <trkpt lat="61.6087608319" lon="8.61970949918">
        <ele>1420.97</ele>
        <time>2012-08-07T10:41:04Z</time>
      </trkpt>
      <trkpt lat="61.6087573115" lon="8.61964856274">
        <ele>1420.97</ele>
        <time>2012-08-07T10:41:05Z</time>
      </trkpt>
      <trkpt lat="61.6087516118" lon="8.61958703957">
        <ele>1420</ele>
        <time>2012-08-07T10:41:06Z</time>
      </trkpt>
      <trkpt lat="61.608737614" lon="8.61953456886">
        <ele>1420</ele>
        <time>2012-08-07T10:41:07Z</time>
      </trkpt>
      <trkpt lat="61.6087129712" lon="8.61950254999">
        <ele>1421.45</ele>
        <time>2012-08-07T10:41:08Z</time>
      </trkpt>
      <trkpt lat="61.6086814553" lon="8.61948419362">
        <ele>1420</ele>
        <time>2012-08-07T10:41:09Z</time>
      </trkpt>
      <trkpt lat="61.6085730772" lon="8.61942753196">
        <ele>1420.97</ele>
        <time>2012-08-07T10:41:13Z</time>
      </trkpt>
      <trkpt lat="61.6085614264" lon="8.6193788331">
        <ele>1420.97</ele>
        <time>2012-08-07T10:41:14Z</time>
      </trkpt>
      <trkpt lat="61.6085388791" lon="8.61909736879">
        <ele>1423.37</ele>
        <time>2012-08-07T10:41:23Z</time>
      </trkpt>
      <trkpt lat="61.6085267253" lon="8.61913165078">
        <ele>1423.37</ele>
        <time>2012-08-07T10:41:44Z</time>
      </trkpt>
      <trkpt lat="61.6085473448" lon="8.61913600937">
        <ele>1423.37</ele>
        <time>2012-08-07T10:42:04Z</time>
      </trkpt>
      <trkpt lat="61.6085387953" lon="8.61908932216">
        <ele>1423.37</ele>
        <time>2012-08-07T10:42:20Z</time>
      </trkpt>
      <trkpt lat="61.6085244622" lon="8.61909971572">
        <ele>1423.85</ele>
        <time>2012-08-07T10:42:45Z</time>
      </trkpt>
      <trkpt lat="61.608510213" lon="8.61906266771">
        <ele>1424.33</ele>
        <time>2012-08-07T10:42:55Z</time>
      </trkpt>
      <trkpt lat="61.6084921081" lon="8.61897666939">
        <ele>1424.81</ele>
        <time>2012-08-07T10:43:00Z</time>
      </trkpt>
      <trkpt lat="61.6084853187" lon="8.61895529553">
        <ele>1424.81</ele>
        <time>2012-08-07T10:43:01Z</time>
      </trkpt>
      <trkpt lat="61.6084465105" lon="8.61881892197">
        <ele>1425.29</ele>
        <time>2012-08-07T10:43:09Z</time>
      </trkpt>
      <trkpt lat="61.6084367037" lon="8.61880383454">
        <ele>1425.77</ele>
        <time>2012-08-07T10:43:10Z</time>
      </trkpt>
      <trkpt lat="61.6084276512" lon="8.61878707074">
        <ele>1425.29</ele>
        <time>2012-08-07T10:43:11Z</time>
      </trkpt>
      <trkpt lat="61.6083796229" lon="8.61861742102">
        <ele>1426.73</ele>
        <time>2012-08-07T10:43:22Z</time>
      </trkpt>
      <trkpt lat="61.6083501186" lon="8.61830796115">
        <ele>1427.21</ele>
        <time>2012-08-07T10:43:37Z</time>
      </trkpt>
      <trkpt lat="61.6083393898" lon="8.61823562533">
        <ele>1427.7</ele>
        <time>2012-08-07T10:43:41Z</time>
      </trkpt>
      <trkpt lat="61.6082818061" lon="8.61803588457">
        <ele>1429.14</ele>
        <time>2012-08-07T10:43:55Z</time>
      </trkpt>
      <trkpt lat="61.6082435846" lon="8.618023647">
        <ele>1430.58</ele>
        <time>2012-08-07T10:44:05Z</time>
      </trkpt>
      <trkpt lat="61.6082410701" lon="8.61798743717">
        <ele>1428.66</ele>
        <time>2012-08-07T10:44:07Z</time>
      </trkpt>
      <trkpt lat="61.6082323529" lon="8.6179505568">
        <ele>1430.1</ele>
        <time>2012-08-07T10:44:08Z</time>
      </trkpt>
      <trkpt lat="61.6081600171" lon="8.61775190569">
        <ele>1432.02</ele>
        <time>2012-08-07T10:44:18Z</time>
      </trkpt>
      <trkpt lat="61.6081567481" lon="8.61772784963">
        <ele>1432.5</ele>
        <time>2012-08-07T10:44:19Z</time>
      </trkpt>
      <trkpt lat="61.6081201192" lon="8.61758275889">
        <ele>1433.94</ele>
        <time>2012-08-07T10:44:29Z</time>
      </trkpt>
      <trkpt lat="61.6080949735" lon="8.61752727069">
        <ele>1433.46</ele>
        <time>2012-08-07T10:44:42Z</time>
      </trkpt>
      <trkpt lat="61.6080948059" lon="8.61754730344">
        <ele>1433.46</ele>
        <time>2012-08-07T10:45:20Z</time>
      </trkpt>
      <trkpt lat="61.6080980748" lon="8.6175281927">
        <ele>1433.46</ele>
        <time>2012-08-07T10:45:54Z</time>
      </trkpt>
      <trkpt lat="61.6081046127" lon="8.61750237644">
        <ele>1434.42</ele>
        <time>2012-08-07T10:46:04Z</time>
      </trkpt>
      <trkpt lat="61.6081043612" lon="8.61747253686">
        <ele>1434.42</ele>
        <time>2012-08-07T10:46:08Z</time>
      </trkpt>
      <trkpt lat="61.6080427542" lon="8.61726357602">
        <ele>1433.94</ele>
        <time>2012-08-07T10:46:22Z</time>
      </trkpt>
      <trkpt lat="61.608042419" lon="8.61722107977">
        <ele>1435.87</ele>
        <time>2012-08-07T10:46:24Z</time>
      </trkpt>
      <trkpt lat="61.6079723462" lon="8.61698487774">
        <ele>1437.31</ele>
        <time>2012-08-07T10:46:39Z</time>
      </trkpt>
      <trkpt lat="61.6078893654" lon="8.61679393798">
        <ele>1437.31</ele>
        <time>2012-08-07T10:46:53Z</time>
      </trkpt>
      <trkpt lat="61.6077997629" lon="8.61665312201">
        <ele>1438.27</ele>
        <time>2012-08-07T10:47:04Z</time>
      </trkpt>
      <trkpt lat="61.6077539138" lon="8.61656226218">
        <ele>1442.6</ele>
        <time>2012-08-07T10:47:14Z</time>
      </trkpt>
      <trkpt lat="61.6076735314" lon="8.61647861078">
        <ele>1442.6</ele>
        <time>2012-08-07T10:47:26Z</time>
      </trkpt>
      <trkpt lat="61.6076643113" lon="8.61642748117">
        <ele>1441.63</ele>
        <time>2012-08-07T10:47:39Z</time>
      </trkpt>
      <trkpt lat="61.6076622158" lon="8.61641591415">
        <ele>1441.63</ele>
        <time>2012-08-07T10:47:40Z</time>
      </trkpt>
      <trkpt lat="61.6076530796" lon="8.61639906652">
        <ele>1441.63</ele>
        <time>2012-08-07T10:47:41Z</time>
      </trkpt>
      <trkpt lat="61.6076429375" lon="8.61638582312">
        <ele>1441.63</ele>
        <time>2012-08-07T10:47:42Z</time>
      </trkpt>
      <trkpt lat="61.6075951606" lon="8.61633352004">
        <ele>1442.11</ele>
        <time>2012-08-07T10:47:53Z</time>
      </trkpt>
      <trkpt lat="61.607576469" lon="8.61627836712">
        <ele>1442.6</ele>
        <time>2012-08-07T10:47:56Z</time>
      </trkpt>
      <trkpt lat="61.607555598" lon="8.61621340737">
        <ele>1443.56</ele>
        <time>2012-08-07T10:48:00Z</time>
      </trkpt>
      <trkpt lat="61.6075483896" lon="8.61619144678">
        <ele>1443.56</ele>
        <time>2012-08-07T10:48:01Z</time>
      </trkpt>
      <trkpt lat="61.6075406782" lon="8.61617007293">
        <ele>1443.56</ele>
        <time>2012-08-07T10:48:02Z</time>
      </trkpt>
      <trkpt lat="61.6074469686" lon="8.61599807627">
        <ele>1445.48</ele>
        <time>2012-08-07T10:48:17Z</time>
      </trkpt>
      <trkpt lat="61.6074281931" lon="8.61594879068">
        <ele>1446.92</ele>
        <time>2012-08-07T10:48:21Z</time>
      </trkpt>
      <trkpt lat="61.6073918156" lon="8.61594870687">
        <ele>1446.44</ele>
        <time>2012-08-07T10:48:37Z</time>
      </trkpt>
      <trkpt lat="61.6073933244" lon="8.6159373913">
        <ele>1446.44</ele>
        <time>2012-08-07T10:49:05Z</time>
      </trkpt>
      <trkpt lat="61.6073794104" lon="8.61593496054">
        <ele>1446.92</ele>
        <time>2012-08-07T10:49:30Z</time>
      </trkpt>
      <trkpt lat="61.6073480621" lon="8.61574796028">
        <ele>1447.4</ele>
        <time>2012-08-07T10:49:42Z</time>
      </trkpt>
      <trkpt lat="61.6073440388" lon="8.61571250483">
        <ele>1447.88</ele>
        <time>2012-08-07T10:49:44Z</time>
      </trkpt>
      <trkpt lat="61.6072862875" lon="8.61561879516">
        <ele>1448.36</ele>
        <time>2012-08-07T10:49:57Z</time>
      </trkpt>
      <trkpt lat="61.6072592139" lon="8.61561980098">
        <ele>1448.36</ele>
        <time>2012-08-07T10:50:18Z</time>
      </trkpt>
      <trkpt lat="61.607253598" lon="8.61558912322">
        <ele>1448.84</ele>
        <time>2012-08-07T10:50:21Z</time>
      </trkpt>
      <trkpt lat="61.6072432045" lon="8.61554687843">
        <ele>1449.32</ele>
        <time>2012-08-07T10:50:24Z</time>
      </trkpt>
      <trkpt lat="61.6072337329" lon="8.61553187482">
        <ele>1448.84</ele>
        <time>2012-08-07T10:50:25Z</time>
      </trkpt>
      <trkpt lat="61.6071802564" lon="8.6154366564">
        <ele>1449.81</ele>
        <time>2012-08-07T10:50:34Z</time>
      </trkpt>
      <trkpt lat="61.607122086" lon="8.61534177326">
        <ele>1449.81</ele>
        <time>2012-08-07T10:50:43Z</time>
      </trkpt>
      <trkpt lat="61.6070954315" lon="8.61517111771">
        <ele>1451.25</ele>
        <time>2012-08-07T10:50:55Z</time>
      </trkpt>
      <trkpt lat="61.6070189886" lon="8.61501303501">
        <ele>1454.13</ele>
        <time>2012-08-07T10:51:09Z</time>
      </trkpt>
      <trkpt lat="61.6070049908" lon="8.61503482796">
        <ele>1455.09</ele>
        <time>2012-08-07T10:51:26Z</time>
      </trkpt>
      <trkpt lat="61.6070151329" lon="8.61501546577">
        <ele>1455.57</ele>
        <time>2012-08-07T10:51:45Z</time>
      </trkpt>
      <trkpt lat="61.6069807671" lon="8.61494698562">
        <ele>1455.57</ele>
        <time>2012-08-07T10:52:02Z</time>
      </trkpt>
      <trkpt lat="61.6070080083" lon="8.61495813355">
        <ele>1454.61</ele>
        <time>2012-08-07T10:52:19Z</time>
      </trkpt>
      <trkpt lat="61.6069985367" lon="8.61494497396">
        <ele>1455.09</ele>
        <time>2012-08-07T10:52:46Z</time>
      </trkpt>
      <trkpt lat="61.6069820244" lon="8.61493659206">
        <ele>1455.09</ele>
        <time>2012-08-07T10:53:09Z</time>
      </trkpt>
      <trkpt lat="61.606963668" lon="8.61485562287">
        <ele>1455.57</ele>
        <time>2012-08-07T10:53:14Z</time>
      </trkpt>
      <trkpt lat="61.6068852972" lon="8.61470550299">
        <ele>1456.53</ele>
        <time>2012-08-07T10:53:29Z</time>
      </trkpt>
      <trkpt lat="61.6068254504" lon="8.61460240558">
        <ele>1457.98</ele>
        <time>2012-08-07T10:53:46Z</time>
      </trkpt>
      <trkpt lat="61.6067513544" lon="8.61441590823">
        <ele>1457.5</ele>
        <time>2012-08-07T10:53:59Z</time>
      </trkpt>
      <trkpt lat="61.6067495104" lon="8.61437098123">
        <ele>1458.46</ele>
        <time>2012-08-07T10:54:02Z</time>
      </trkpt>
      <trkpt lat="61.6067355964" lon="8.6141748447">
        <ele>1458.94</ele>
        <time>2012-08-07T10:54:14Z</time>
      </trkpt>
      <trkpt lat="61.6066969559" lon="8.61398189329">
        <ele>1458.94</ele>
        <time>2012-08-07T10:54:26Z</time>
      </trkpt>
      <trkpt lat="61.60669595" lon="8.61394610256">
        <ele>1459.42</ele>
        <time>2012-08-07T10:54:28Z</time>
      </trkpt>
      <trkpt lat="61.6066935193" lon="8.6139220465">
        <ele>1459.42</ele>
        <time>2012-08-07T10:54:29Z</time>
      </trkpt>
      <trkpt lat="61.6066413838" lon="8.6137036141">
        <ele>1460.38</ele>
        <time>2012-08-07T10:54:43Z</time>
      </trkpt>
      <trkpt lat="61.6066264641" lon="8.61362876371">
        <ele>1460.38</ele>
        <time>2012-08-07T10:54:59Z</time>
      </trkpt>
      <trkpt lat="61.6066326667" lon="8.61360437237">
        <ele>1460.86</ele>
        <time>2012-08-07T10:55:14Z</time>
      </trkpt>
      <trkpt lat="61.6066053417" lon="8.6134926416">
        <ele>1461.34</ele>
        <time>2012-08-07T10:55:28Z</time>
      </trkpt>
      <trkpt lat="61.6065791063" lon="8.61342189834">
        <ele>1462.3</ele>
        <time>2012-08-07T10:55:33Z</time>
      </trkpt>
      <trkpt lat="61.6065698862" lon="8.61340530217">
        <ele>1461.82</ele>
        <time>2012-08-07T10:55:34Z</time>
      </trkpt>
      <trkpt lat="61.6064998135" lon="8.6131790746">
        <ele>1463.26</ele>
        <time>2012-08-07T10:55:48Z</time>
      </trkpt>
      <trkpt lat="61.606400907" lon="8.61295100302">
        <ele>1463.74</ele>
        <time>2012-08-07T10:56:02Z</time>
      </trkpt>
      <trkpt lat="61.6063927766" lon="8.61293549649">
        <ele>1463.74</ele>
        <time>2012-08-07T10:56:03Z</time>
      </trkpt>
      <trkpt lat="61.6063783597" lon="8.61292216927">
        <ele>1463.74</ele>
        <time>2012-08-07T10:56:04Z</time>
      </trkpt>
      <trkpt lat="61.6063721571" lon="8.61290716566">
        <ele>1463.26</ele>
        <time>2012-08-07T10:56:05Z</time>
      </trkpt>
      <trkpt lat="61.6063465085" lon="8.61286366358">
        <ele>1463.74</ele>
        <time>2012-08-07T10:56:09Z</time>
      </trkpt>
      <trkpt lat="61.6063108854" lon="8.61282787286">
        <ele>1462.78</ele>
        <time>2012-08-07T10:56:13Z</time>
      </trkpt>
      <trkpt lat="61.6063040122" lon="8.61280574463">
        <ele>1462.78</ele>
        <time>2012-08-07T10:56:14Z</time>
      </trkpt>
      <trkpt lat="61.606236035" lon="8.61248999834">
        <ele>1463.26</ele>
        <time>2012-08-07T10:56:28Z</time>
      </trkpt>
      <trkpt lat="61.6061502881" lon="8.61226502806">
        <ele>1464.23</ele>
        <time>2012-08-07T10:56:41Z</time>
      </trkpt>
      <trkpt lat="61.6061433312" lon="8.61225337721">
        <ele>1464.71</ele>
        <time>2012-08-07T10:56:42Z</time>
      </trkpt>
      <trkpt lat="61.6061338596" lon="8.61223342828">
        <ele>1464.71</ele>
        <time>2012-08-07T10:56:43Z</time>
      </trkpt>
      <trkpt lat="61.6061160062" lon="8.61211583018">
        <ele>1464.71</ele>
        <time>2012-08-07T10:56:49Z</time>
      </trkpt>
      <trkpt lat="61.606060015" lon="8.61189312302">
        <ele>1465.19</ele>
        <time>2012-08-07T10:57:02Z</time>
      </trkpt>
      <trkpt lat="61.6060552374" lon="8.61187392846">
        <ele>1465.19</ele>
        <time>2012-08-07T10:57:03Z</time>
      </trkpt>
      <trkpt lat="61.606047526" lon="8.61185540445">
        <ele>1465.19</ele>
        <time>2012-08-07T10:57:04Z</time>
      </trkpt>
      <trkpt lat="61.6060402337" lon="8.61183520406">
        <ele>1465.19</ele>
        <time>2012-08-07T10:57:05Z</time>
      </trkpt>
      <trkpt lat="61.6060332768" lon="8.61181139946">
        <ele>1465.67</ele>
        <time>2012-08-07T10:57:07Z</time>
      </trkpt>
      <trkpt lat="61.6060157586" lon="8.61171199009">
        <ele>1465.19</ele>
        <time>2012-08-07T10:57:20Z</time>
      </trkpt>
      <trkpt lat="61.6060207877" lon="8.6117279157">
        <ele>1465.19</ele>
        <time>2012-08-07T10:57:46Z</time>
      </trkpt>
      <trkpt lat="61.6059993301" lon="8.61174124293">
        <ele>1464.71</ele>
        <time>2012-08-07T10:58:09Z</time>
      </trkpt>
      <trkpt lat="61.6060082987" lon="8.61174652353">
        <ele>1464.71</ele>
        <time>2012-08-07T10:58:34Z</time>
      </trkpt>
      <trkpt lat="61.6060165968" lon="8.61175876111">
        <ele>1465.19</ele>
        <time>2012-08-07T10:59:07Z</time>
      </trkpt>
      <trkpt lat="61.6060276609" lon="8.61175616272">
        <ele>1465.67</ele>
        <time>2012-08-07T10:59:29Z</time>
      </trkpt>
      <trkpt lat="61.6060069576" lon="8.61159397289">
        <ele>1465.67</ele>
        <time>2012-08-07T10:59:48Z</time>
      </trkpt>
      <trkpt lat="61.6059989948" lon="8.6115710903">
        <ele>1465.67</ele>
        <time>2012-08-07T10:59:49Z</time>
      </trkpt>
      <trkpt lat="61.60599011" lon="8.61154678278">
        <ele>1465.67</ele>
        <time>2012-08-07T10:59:50Z</time>
      </trkpt>
      <trkpt lat="61.6059707478" lon="8.61145173199">
        <ele>1465.67</ele>
        <time>2012-08-07T10:59:55Z</time>
      </trkpt>
      <trkpt lat="61.6059216298" lon="8.6112385802">
        <ele>1464.71</ele>
        <time>2012-08-07T11:00:07Z</time>
      </trkpt>
      <trkpt lat="61.6058799718" lon="8.6111980956">
        <ele>1464.23</ele>
        <time>2012-08-07T11:00:19Z</time>
      </trkpt>
      <trkpt lat="61.6058848333" lon="8.61117873341">
        <ele>1464.23</ele>
        <time>2012-08-07T11:00:39Z</time>
      </trkpt>
      <trkpt lat="61.6058771219" lon="8.61114914529">
        <ele>1464.23</ele>
        <time>2012-08-07T11:00:51Z</time>
      </trkpt>
      <trkpt lat="61.6058593523" lon="8.61113917083">
        <ele>1464.23</ele>
        <time>2012-08-07T11:01:13Z</time>
      </trkpt>
      <trkpt lat="61.6058808099" lon="8.61118803732">
        <ele>1464.23</ele>
        <time>2012-08-07T11:01:38Z</time>
      </trkpt>
      <trkpt lat="61.6058797203" lon="8.61115559936">
        <ele>1464.23</ele>
        <time>2012-08-07T11:02:01Z</time>
      </trkpt>
      <trkpt lat="61.6058683209" lon="8.61111310311">
        <ele>1464.23</ele>
        <time>2012-08-07T11:02:05Z</time>
      </trkpt>
      <trkpt lat="61.6058704164" lon="8.61107907258">
        <ele>1464.23</ele>
        <time>2012-08-07T11:02:07Z</time>
      </trkpt>
      <trkpt lat="61.6058733501" lon="8.61105602235">
        <ele>1464.71</ele>
        <time>2012-08-07T11:02:08Z</time>
      </trkpt>
      <trkpt lat="61.6058697458" lon="8.6108488217">
        <ele>1465.19</ele>
        <time>2012-08-07T11:02:21Z</time>
      </trkpt>
      <trkpt lat="61.6058615316" lon="8.61075092107">
        <ele>1465.67</ele>
        <time>2012-08-07T11:02:27Z</time>
      </trkpt>
      <trkpt lat="61.6058632918" lon="8.61063022166">
        <ele>1465.67</ele>
        <time>2012-08-07T11:02:39Z</time>
      </trkpt>
      <trkpt lat="61.6058487911" lon="8.61058839597">
        <ele>1465.19</ele>
        <time>2012-08-07T11:02:46Z</time>
      </trkpt>
      <trkpt lat="61.6058119945" lon="8.6103916727">
        <ele>1465.19</ele>
        <time>2012-08-07T11:02:58Z</time>
      </trkpt>
      <trkpt lat="61.6057972424" lon="8.6103207618">
        <ele>1464.71</ele>
        <time>2012-08-07T11:03:04Z</time>
      </trkpt>
      <trkpt lat="61.6057969071" lon="8.61024557613">
        <ele>1465.67</ele>
        <time>2012-08-07T11:03:08Z</time>
      </trkpt>
      <trkpt lat="61.6057906207" lon="8.61006880179">
        <ele>1465.19</ele>
        <time>2012-08-07T11:03:19Z</time>
      </trkpt>
      <trkpt lat="61.6057777125" lon="8.61002722755">
        <ele>1465.67</ele>
        <time>2012-08-07T11:03:22Z</time>
      </trkpt>
      <trkpt lat="61.6057715937" lon="8.60999847762">
        <ele>1465.67</ele>
        <time>2012-08-07T11:03:23Z</time>
      </trkpt>
      <trkpt lat="61.6057655588" lon="8.60995681956">
        <ele>1464.71</ele>
        <time>2012-08-07T11:03:24Z</time>
      </trkpt>
      <trkpt lat="61.6057597753" lon="8.60990376212">
        <ele>1464.71</ele>
        <time>2012-08-07T11:03:25Z</time>
      </trkpt>
      <trkpt lat="61.6057521477" lon="8.6098530516">
        <ele>1465.67</ele>
        <time>2012-08-07T11:03:26Z</time>
      </trkpt>
      <trkpt lat="61.6057428438" lon="8.60981717706">
        <ele>1465.19</ele>
        <time>2012-08-07T11:03:27Z</time>
      </trkpt>
      <trkpt lat="61.6057322826" lon="8.60978700221">
        <ele>1465.19</ele>
        <time>2012-08-07T11:03:28Z</time>
      </trkpt>
      <trkpt lat="61.6057263315" lon="8.60975096002">
        <ele>1465.19</ele>
        <time>2012-08-07T11:03:29Z</time>
      </trkpt>
      <trkpt lat="61.6057244875" lon="8.60971173272">
        <ele>1464.71</ele>
        <time>2012-08-07T11:03:30Z</time>
      </trkpt>
      <trkpt lat="61.605723314" lon="8.60968071967">
        <ele>1464.71</ele>
        <time>2012-08-07T11:03:31Z</time>
      </trkpt>
      <trkpt lat="61.605723314" lon="8.60956203192">
        <ele>1465.67</ele>
        <time>2012-08-07T11:03:44Z</time>
      </trkpt>
      <trkpt lat="61.6057140101" lon="8.6094910372">
        <ele>1465.67</ele>
        <time>2012-08-07T11:03:49Z</time>
      </trkpt>
      <trkpt lat="61.6057083942" lon="8.60946605913">
        <ele>1465.67</ele>
        <time>2012-08-07T11:03:50Z</time>
      </trkpt>
      <trkpt lat="61.6056943126" lon="8.60930521041">
        <ele>1466.15</ele>
        <time>2012-08-07T11:04:02Z</time>
      </trkpt>
      <trkpt lat="61.6056998447" lon="8.60923622735">
        <ele>1466.63</ele>
        <time>2012-08-07T11:04:15Z</time>
      </trkpt>
      <trkpt lat="61.6056726035" lon="8.6092386581">
        <ele>1467.11</ele>
        <time>2012-08-07T11:04:42Z</time>
      </trkpt>
      <trkpt lat="61.6056601144" lon="8.60903497785">
        <ele>1467.11</ele>
        <time>2012-08-07T11:04:53Z</time>
      </trkpt>
      <trkpt lat="61.6056516487" lon="8.60891369171">
        <ele>1466.15</ele>
        <time>2012-08-07T11:05:05Z</time>
      </trkpt>
      <trkpt lat="61.6056436859" lon="8.60889852047">
        <ele>1466.15</ele>
        <time>2012-08-07T11:05:06Z</time>
      </trkpt>
      <trkpt lat="61.6056311131" lon="8.60867329873">
        <ele>1467.11</ele>
        <time>2012-08-07T11:05:20Z</time>
      </trkpt>
      <trkpt lat="61.6056052968" lon="8.60855452716">
        <ele>1467.59</ele>
        <time>2012-08-07T11:05:37Z</time>
      </trkpt>
      <trkpt lat="61.6056156904" lon="8.60827029683">
        <ele>1467.59</ele>
        <time>2012-08-07T11:05:50Z</time>
      </trkpt>
      <trkpt lat="61.6055901255" lon="8.60812168568">
        <ele>1467.59</ele>
        <time>2012-08-07T11:06:05Z</time>
      </trkpt>
      <trkpt lat="61.6055880301" lon="8.6080737412">
        <ele>1468.07</ele>
        <time>2012-08-07T11:06:08Z</time>
      </trkpt>
      <trkpt lat="61.6055804864" lon="8.60805488192">
        <ele>1467.59</ele>
        <time>2012-08-07T11:06:09Z</time>
      </trkpt>
      <trkpt lat="61.6055810731" lon="8.60798925161">
        <ele>1467.11</ele>
        <time>2012-08-07T11:06:12Z</time>
      </trkpt>
      <trkpt lat="61.6055730265" lon="8.60778221861">
        <ele>1467.11</ele>
        <time>2012-08-07T11:06:26Z</time>
      </trkpt>
      <trkpt lat="61.6055775527" lon="8.60772245564">
        <ele>1467.59</ele>
        <time>2012-08-07T11:06:41Z</time>
      </trkpt>
      <trkpt lat="61.6055668239" lon="8.60756210983">
        <ele>1468.07</ele>
        <time>2012-08-07T11:06:54Z</time>
      </trkpt>
      <trkpt lat="61.6055726074" lon="8.60744819976">
        <ele>1469.03</ele>
        <time>2012-08-07T11:07:06Z</time>
      </trkpt>
      <trkpt lat="61.605571853" lon="8.60743135214">
        <ele>1469.03</ele>
        <time>2012-08-07T11:07:07Z</time>
      </trkpt>
      <trkpt lat="61.6055194661" lon="8.60723177902">
        <ele>1468.07</ele>
        <time>2012-08-07T11:07:20Z</time>
      </trkpt>
      <trkpt lat="61.6055201367" lon="8.60703388229">
        <ele>1467.11</ele>
        <time>2012-08-07T11:07:35Z</time>
      </trkpt>
      <trkpt lat="61.6055156942" lon="8.6070017796">
        <ele>1467.11</ele>
        <time>2012-08-07T11:07:37Z</time>
      </trkpt>
      <trkpt lat="61.6055168677" lon="8.60696833581">
        <ele>1467.59</ele>
        <time>2012-08-07T11:07:38Z</time>
      </trkpt>
      <trkpt lat="61.6055166163" lon="8.6069322098">
        <ele>1468.07</ele>
        <time>2012-08-07T11:07:39Z</time>
      </trkpt>
      <trkpt lat="61.6055310331" lon="8.60675057396">
        <ele>1469.03</ele>
        <time>2012-08-07T11:07:52Z</time>
      </trkpt>
      <trkpt lat="61.6055174544" lon="8.60674085096">
        <ele>1469.03</ele>
        <time>2012-08-07T11:08:03Z</time>
      </trkpt>
      <trkpt lat="61.6055128444" lon="8.60672450624">
        <ele>1469.51</ele>
        <time>2012-08-07T11:08:24Z</time>
      </trkpt>
      <trkpt lat="61.6055323742" lon="8.60672391951">
        <ele>1469.03</ele>
        <time>2012-08-07T11:08:44Z</time>
      </trkpt>
      <trkpt lat="61.6055710986" lon="8.60666683875">
        <ele>1470.95</ele>
        <time>2012-08-07T11:08:56Z</time>
      </trkpt>
      <trkpt lat="61.6055798996" lon="8.6066587083">
        <ele>1470.47</ele>
        <time>2012-08-07T11:09:12Z</time>
      </trkpt>
      <trkpt lat="61.6055789776" lon="8.60668963753">
        <ele>1469.99</ele>
        <time>2012-08-07T11:09:34Z</time>
      </trkpt>
      <trkpt lat="61.6055901255" lon="8.606664408">
        <ele>1469.99</ele>
        <time>2012-08-07T11:09:45Z</time>
      </trkpt>
      <trkpt lat="61.6055879463" lon="8.60666558146">
        <ele>1469.99</ele>
        <time>2012-08-07T11:09:46Z</time>
      </trkpt>
      <trkpt lat="61.6055801511" lon="8.60665996559">
        <ele>1470.47</ele>
        <time>2012-08-07T11:10:11Z</time>
      </trkpt>
      <trkpt lat="61.6055766307" lon="8.60665787011">
        <ele>1470.47</ele>
        <time>2012-08-07T11:10:12Z</time>
      </trkpt>
      <trkpt lat="61.605575541" lon="8.60665761866">
        <ele>1470.47</ele>
        <time>2012-08-07T11:10:13Z</time>
      </trkpt>
      <trkpt lat="61.6055772174" lon="8.60669148155">
        <ele>1470.47</ele>
        <time>2012-08-07T11:10:50Z</time>
      </trkpt>
      <trkpt lat="61.6055972502" lon="8.6066882126">
        <ele>1470.47</ele>
        <time>2012-08-07T11:11:21Z</time>
      </trkpt>
      <trkpt lat="61.6055925563" lon="8.60667170025">
        <ele>1470.95</ele>
        <time>2012-08-07T11:11:26Z</time>
      </trkpt>
      <trkpt lat="61.6055893712" lon="8.60667002387">
        <ele>1470.95</ele>
        <time>2012-08-07T11:11:27Z</time>
      </trkpt>
      <trkpt lat="61.6055656504" lon="8.60651177354">
        <ele>1471.44</ele>
        <time>2012-08-07T11:11:43Z</time>
      </trkpt>
      <trkpt lat="61.6055773851" lon="8.60650707968">
        <ele>1471.44</ele>
        <time>2012-08-07T11:11:50Z</time>
      </trkpt>
      <trkpt lat="61.6055772174" lon="8.60651386902">
        <ele>1471.44</ele>
        <time>2012-08-07T11:11:51Z</time>
      </trkpt>
      <trkpt lat="61.6056014411" lon="8.60643818043">
        <ele>1471.92</ele>
        <time>2012-08-07T11:12:10Z</time>
      </trkpt>
      <trkpt lat="61.6056286823" lon="8.60645134002">
        <ele>1472.88</ele>
        <time>2012-08-07T11:12:24Z</time>
      </trkpt>
      <trkpt lat="61.6056373157" lon="8.60643004999">
        <ele>1473.36</ele>
        <time>2012-08-07T11:12:43Z</time>
      </trkpt>
      <trkpt lat="61.6056493856" lon="8.60646056011">
        <ele>1473.36</ele>
        <time>2012-08-07T11:13:10Z</time>
      </trkpt>
      <trkpt lat="61.6056577675" lon="8.6064635776">
        <ele>1469.51</ele>
        <time>2012-08-07T11:13:29Z</time>
      </trkpt>
      <trkpt lat="61.6056590248" lon="8.60646659508">
        <ele>1475.76</ele>
        <time>2012-08-07T11:13:30Z</time>
      </trkpt>
      <trkpt lat="61.6056620423" lon="8.6064561177">
        <ele>1472.88</ele>
        <time>2012-08-07T11:13:33Z</time>
      </trkpt>
      <trkpt lat="61.6056377348" lon="8.60642845742">
        <ele>1472.88</ele>
        <time>2012-08-07T11:13:50Z</time>
      </trkpt>
      <trkpt lat="61.6056287661" lon="8.60639509745">
        <ele>1472.88</ele>
        <time>2012-08-07T11:14:20Z</time>
      </trkpt>
      <trkpt lat="61.6056549177" lon="8.60639786348">
        <ele>1472.88</ele>
        <time>2012-08-07T11:14:53Z</time>
      </trkpt>
      <trkpt lat="61.6056509782" lon="8.60639434308">
        <ele>1473.36</ele>
        <time>2012-08-07T11:15:18Z</time>
      </trkpt>
      <trkpt lat="61.6056447756" lon="8.60639853403">
        <ele>1473.36</ele>
        <time>2012-08-07T11:15:44Z</time>
      </trkpt>
      <trkpt lat="61.6056430154" lon="8.60639241524">
        <ele>1473.36</ele>
        <time>2012-08-07T11:16:10Z</time>
      </trkpt>
      <trkpt lat="61.6056445241" lon="8.6064028088">
        <ele>1464.71</ele>
        <time>2012-08-07T11:25:04Z</time>
      </trkpt>
      <trkpt lat="61.6053837631" lon="8.60334886238">
        <ele>1464.71</ele>
        <time>2012-08-07T11:25:05Z</time>
      </trkpt>
      <trkpt lat="61.6053857747" lon="8.60334374942">
        <ele>1466.63</ele>
        <time>2012-08-07T11:25:10Z</time>
      </trkpt>
      <trkpt lat="61.6053987667" lon="8.60336906277">
        <ele>1469.99</ele>
        <time>2012-08-07T11:25:29Z</time>
      </trkpt>
      <trkpt lat="61.6054123454" lon="8.60326034948">
        <ele>1470.95</ele>
        <time>2012-08-07T11:25:41Z</time>
      </trkpt>
      <trkpt lat="61.6054162849" lon="8.6029658094">
        <ele>1471.92</ele>
        <time>2012-08-07T11:25:53Z</time>
      </trkpt>
      <trkpt lat="61.6053935699" lon="8.60261368565">
        <ele>1472.4</ele>
        <time>2012-08-07T11:26:06Z</time>
      </trkpt>
      <trkpt lat="61.6054037958" lon="8.60232727602">
        <ele>1472.88</ele>
        <time>2012-08-07T11:26:19Z</time>
      </trkpt>
      <trkpt lat="61.6054054722" lon="8.60228360631">
        <ele>1472.88</ele>
        <time>2012-08-07T11:26:21Z</time>
      </trkpt>
      <trkpt lat="61.6054074001" lon="8.60223038122">
        <ele>1472.88</ele>
        <time>2012-08-07T11:26:24Z</time>
      </trkpt>
      <trkpt lat="61.6054141894" lon="8.60187113285">
        <ele>1473.36</ele>
        <time>2012-08-07T11:26:39Z</time>
      </trkpt>
      <trkpt lat="61.6054233257" lon="8.6016000621">
        <ele>1473.36</ele>
        <time>2012-08-07T11:26:53Z</time>
      </trkpt>
      <trkpt lat="61.6054314561" lon="8.60118909739">
        <ele>1474.8</ele>
        <time>2012-08-07T11:27:10Z</time>
      </trkpt>
      <trkpt lat="61.6054471303" lon="8.6010046117">
        <ele>1474.8</ele>
        <time>2012-08-07T11:27:20Z</time>
      </trkpt>
      <trkpt lat="61.6054529976" lon="8.60091358423">
        <ele>1476.24</ele>
        <time>2012-08-07T11:27:25Z</time>
      </trkpt>
      <trkpt lat="61.6054437775" lon="8.60061384737">
        <ele>1475.76</ele>
        <time>2012-08-07T11:27:37Z</time>
      </trkpt>
      <trkpt lat="61.6054605413" lon="8.60039072111">
        <ele>1475.28</ele>
        <time>2012-08-07T11:27:48Z</time>
      </trkpt>
      <trkpt lat="61.6054492258" lon="8.60024546273">
        <ele>1475.76</ele>
        <time>2012-08-07T11:27:55Z</time>
      </trkpt>
      <trkpt lat="61.60542408" lon="8.60012870282">
        <ele>1475.76</ele>
        <time>2012-08-07T11:28:04Z</time>
      </trkpt>
      <trkpt lat="61.6054182965" lon="8.60000951216">
        <ele>1474.8</ele>
        <time>2012-08-07T11:28:10Z</time>
      </trkpt>
      <trkpt lat="61.6054182127" lon="8.59997120686">
        <ele>1476.72</ele>
        <time>2012-08-07T11:28:12Z</time>
      </trkpt>
      <trkpt lat="61.6053975932" lon="8.59962260351">
        <ele>1475.76</ele>
        <time>2012-08-07T11:28:27Z</time>
      </trkpt>
      <trkpt lat="61.605392145" lon="8.59952704981">
        <ele>1476.24</ele>
        <time>2012-08-07T11:28:31Z</time>
      </trkpt>
      <trkpt lat="61.6053799912" lon="8.59928657301">
        <ele>1475.28</ele>
        <time>2012-08-07T11:28:44Z</time>
      </trkpt>
      <trkpt lat="61.605389379" lon="8.59919571318">
        <ele>1475.28</ele>
        <time>2012-08-07T11:28:48Z</time>
      </trkpt>
      <trkpt lat="61.605378231" lon="8.59909177758">
        <ele>1475.28</ele>
        <time>2012-08-07T11:28:52Z</time>
      </trkpt>
      <trkpt lat="61.6053779796" lon="8.59888122417">
        <ele>1475.76</ele>
        <time>2012-08-07T11:29:02Z</time>
      </trkpt>
      <trkpt lat="61.6053297836" lon="8.5986104887">
        <ele>1474.8</ele>
        <time>2012-08-07T11:29:17Z</time>
      </trkpt>
      <trkpt lat="61.6053117625" lon="8.59848836437">
        <ele>1475.76</ele>
        <time>2012-08-07T11:29:30Z</time>
      </trkpt>
      <trkpt lat="61.605304135" lon="8.59849104658">
        <ele>1475.76</ele>
        <time>2012-08-07T11:29:42Z</time>
      </trkpt>
      <trkpt lat="61.6053100862" lon="8.59814520925">
        <ele>1476.72</ele>
        <time>2012-08-07T11:29:58Z</time>
      </trkpt>
      <trkpt lat="61.6052796599" lon="8.59791663475">
        <ele>1476.24</ele>
        <time>2012-08-07T11:30:10Z</time>
      </trkpt>
      <trkpt lat="61.6052602138" lon="8.59756560065">
        <ele>1476.24</ele>
        <time>2012-08-07T11:30:24Z</time>
      </trkpt>
      <trkpt lat="61.6052576154" lon="8.59741455875">
        <ele>1476.72</ele>
        <time>2012-08-07T11:30:32Z</time>
      </trkpt>
      <trkpt lat="61.60525552" lon="8.59738145024">
        <ele>1476.72</ele>
        <time>2012-08-07T11:30:34Z</time>
      </trkpt>
      <trkpt lat="61.6052614711" lon="8.59729444608">
        <ele>1477.2</ele>
        <time>2012-08-07T11:30:40Z</time>
      </trkpt>
      <trkpt lat="61.6052773129" lon="8.59723166563">
        <ele>1477.2</ele>
        <time>2012-08-07T11:30:44Z</time>
      </trkpt>
      <trkpt lat="61.6052896343" lon="8.59698079526">
        <ele>1477.68</ele>
        <time>2012-08-07T11:30:57Z</time>
      </trkpt>
      <trkpt lat="61.6052867845" lon="8.59696721658">
        <ele>1477.2</ele>
        <time>2012-08-07T11:30:58Z</time>
      </trkpt>
      <trkpt lat="61.6052719485" lon="8.59674325213">
        <ele>1477.2</ele>
        <time>2012-08-07T11:31:11Z</time>
      </trkpt>
      <trkpt lat="61.605254598" lon="8.59650989994">
        <ele>1476.72</ele>
        <time>2012-08-07T11:31:23Z</time>
      </trkpt>
      <trkpt lat="61.6052396782" lon="8.59629046172">
        <ele>1477.68</ele>
        <time>2012-08-07T11:31:37Z</time>
      </trkpt>
      <trkpt lat="61.6052341461" lon="8.59626011923">
        <ele>1477.2</ele>
        <time>2012-08-07T11:31:39Z</time>
      </trkpt>
      <trkpt lat="61.6052175499" lon="8.59615786001">
        <ele>1477.2</ele>
        <time>2012-08-07T11:31:45Z</time>
      </trkpt>
      <trkpt lat="61.6052156221" lon="8.5961067304">
        <ele>1476.72</ele>
        <time>2012-08-07T11:31:48Z</time>
      </trkpt>
      <trkpt lat="61.6052111797" lon="8.59606658109">
        <ele>1476.72</ele>
        <time>2012-08-07T11:31:50Z</time>
      </trkpt>
      <trkpt lat="61.6051975172" lon="8.59583473764">
        <ele>1476.72</ele>
        <time>2012-08-07T11:32:04Z</time>
      </trkpt>
      <trkpt lat="61.6052121855" lon="8.59563818201">
        <ele>1476.24</ele>
        <time>2012-08-07T11:32:15Z</time>
      </trkpt>
      <trkpt lat="61.6051993612" lon="8.59540809877">
        <ele>1477.2</ele>
        <time>2012-08-07T11:32:27Z</time>
      </trkpt>
      <trkpt lat="61.6051616427" lon="8.59522596002">
        <ele>1477.2</ele>
        <time>2012-08-07T11:32:42Z</time>
      </trkpt>
      <trkpt lat="61.6051464714" lon="8.59499973245">
        <ele>1477.68</ele>
        <time>2012-08-07T11:32:53Z</time>
      </trkpt>
      <trkpt lat="61.6051432025" lon="8.59494893812">
        <ele>1478.16</ele>
        <time>2012-08-07T11:32:56Z</time>
      </trkpt>
      <trkpt lat="61.6051478125" lon="8.59474710189">
        <ele>1478.16</ele>
        <time>2012-08-07T11:33:06Z</time>
      </trkpt>
      <trkpt lat="61.6051488183" lon="8.59469823539">
        <ele>1478.16</ele>
        <time>2012-08-07T11:33:08Z</time>
      </trkpt>
      <trkpt lat="61.6051584575" lon="8.59447569586">
        <ele>1478.16</ele>
        <time>2012-08-07T11:33:20Z</time>
      </trkpt>
      <trkpt lat="61.6051463038" lon="8.59412038699">
        <ele>1478.16</ele>
        <time>2012-08-07T11:33:35Z</time>
      </trkpt>
      <trkpt lat="61.6051386762" lon="8.59376658686">
        <ele>1478.65</ele>
        <time>2012-08-07T11:33:51Z</time>
      </trkpt>
      <trkpt lat="61.6051370837" lon="8.59346131794">
        <ele>1479.13</ele>
        <time>2012-08-07T11:34:06Z</time>
      </trkpt>
      <trkpt lat="61.605132306" lon="8.59328580089">
        <ele>1479.13</ele>
        <time>2012-08-07T11:34:15Z</time>
      </trkpt>
      <trkpt lat="61.6051135305" lon="8.59299411066">
        <ele>1478.65</ele>
        <time>2012-08-07T11:34:30Z</time>
      </trkpt>
      <trkpt lat="61.6051076632" lon="8.59265053645">
        <ele>1478.65</ele>
        <time>2012-08-07T11:34:45Z</time>
      </trkpt>
      <trkpt lat="61.6051126085" lon="8.59252765775">
        <ele>1479.61</ele>
        <time>2012-08-07T11:34:54Z</time>
      </trkpt>
      <trkpt lat="61.605095258" lon="8.59225491062">
        <ele>1479.61</ele>
        <time>2012-08-07T11:35:05Z</time>
      </trkpt>
      <trkpt lat="61.6050971858" lon="8.59192374162">
        <ele>1480.57</ele>
        <time>2012-08-07T11:35:20Z</time>
      </trkpt>
      <trkpt lat="61.6050916538" lon="8.59189893119">
        <ele>1481.05</ele>
        <time>2012-08-07T11:35:36Z</time>
      </trkpt>
      <trkpt lat="61.6051317193" lon="8.59182843938">
        <ele>1481.05</ele>
        <time>2012-08-07T11:35:44Z</time>
      </trkpt>
      <trkpt lat="61.6051473096" lon="8.59179952182">
        <ele>1482.97</ele>
        <time>2012-08-07T11:35:46Z</time>
      </trkpt>
      <trkpt lat="61.6051789094" lon="8.59169659205">
        <ele>1482.01</ele>
        <time>2012-08-07T11:35:52Z</time>
      </trkpt>
      <trkpt lat="61.6052649077" lon="8.5915012937">
        <ele>1484.41</ele>
        <time>2012-08-07T11:36:06Z</time>
      </trkpt>
      <trkpt lat="61.6053148638" lon="8.5912383534">
        <ele>1485.37</ele>
        <time>2012-08-07T11:36:19Z</time>
      </trkpt>
      <trkpt lat="61.6053224914" lon="8.59105889685">
        <ele>1484.89</ele>
        <time>2012-08-07T11:36:27Z</time>
      </trkpt>
      <trkpt lat="61.6053632274" lon="8.59089142643">
        <ele>1485.85</ele>
        <time>2012-08-07T11:36:43Z</time>
      </trkpt>
      <trkpt lat="61.6053621378" lon="8.5908441525">
        <ele>1486.82</ele>
        <time>2012-08-07T11:37:00Z</time>
      </trkpt>
      <trkpt lat="61.6053670831" lon="8.59085488133">
        <ele>1475.76</ele>
        <time>2012-08-07T13:12:34Z</time>
      </trkpt>
      <trkpt lat="61.6046786774" lon="8.58980110846">
        <ele>1475.76</ele>
        <time>2012-08-07T13:12:35Z</time>
      </trkpt>
      <trkpt lat="61.6046443116" lon="8.58985517174">
        <ele>1478.16</ele>
        <time>2012-08-07T13:12:59Z</time>
      </trkpt>
      <trkpt lat="61.6046313196" lon="8.58987755142">
        <ele>1480.57</ele>
        <time>2012-08-07T13:13:28Z</time>
      </trkpt>
      <trkpt lat="61.6046449821" lon="8.58989959583">
        <ele>1482.01</ele>
        <time>2012-08-07T13:13:56Z</time>
      </trkpt>
      <trkpt lat="61.6046480834" lon="8.58990185894">
        <ele>1481.53</ele>
        <time>2012-08-07T13:14:13Z</time>
      </trkpt>
      <trkpt lat="61.6046745703" lon="8.58984209597">
        <ele>1481.53</ele>
        <time>2012-08-07T13:14:28Z</time>
      </trkpt>
      <trkpt lat="61.6046798509" lon="8.58987151645">
        <ele>1481.53</ele>
        <time>2012-08-07T13:15:02Z</time>
      </trkpt>
      <trkpt lat="61.6046769172" lon="8.58989163302">
        <ele>1481.53</ele>
        <time>2012-08-07T13:15:42Z</time>
      </trkpt>
      <trkpt lat="61.6046456527" lon="8.58988643624">
        <ele>1481.53</ele>
        <time>2012-08-07T13:16:12Z</time>
      </trkpt>
      <trkpt lat="61.6046500113" lon="8.58990487643">
        <ele>1481.53</ele>
        <time>2012-08-07T13:16:41Z</time>
      </trkpt>
      <trkpt lat="61.604679767" lon="8.58988517895">
        <ele>1481.53</ele>
        <time>2012-08-07T13:17:10Z</time>
      </trkpt>
      <trkpt lat="61.6046845447" lon="8.5898743663">
        <ele>1481.05</ele>
        <time>2012-08-07T13:17:41Z</time>
      </trkpt>
      <trkpt lat="61.6046881489" lon="8.58978266828">
        <ele>1481.05</ele>
        <time>2012-08-07T13:17:57Z</time>
      </trkpt>
      <trkpt lat="61.6046500951" lon="8.58983656392">
        <ele>1481.05</ele>
        <time>2012-08-07T13:18:11Z</time>
      </trkpt>
      <trkpt lat="61.6046679486" lon="8.58977696858">
        <ele>1481.05</ele>
        <time>2012-08-07T13:18:26Z</time>
      </trkpt>
      <trkpt lat="61.6046710499" lon="8.58979959972">
        <ele>1481.05</ele>
        <time>2012-08-07T13:18:48Z</time>
      </trkpt>
      <trkpt lat="61.6046872269" lon="8.5897959955">
        <ele>1481.53</ele>
        <time>2012-08-07T13:19:17Z</time>
      </trkpt>
      <trkpt lat="61.6046977043" lon="8.58977830969">
        <ele>1481.05</ele>
        <time>2012-08-07T13:19:45Z</time>
      </trkpt>
      <trkpt lat="61.6046904121" lon="8.58979582787">
        <ele>1481.05</ele>
        <time>2012-08-07T13:20:09Z</time>
      </trkpt>
      <trkpt lat="61.6046851315" lon="8.58979783952">
        <ele>1480.57</ele>
        <time>2012-08-07T13:20:33Z</time>
      </trkpt>
      <trkpt lat="61.6046866402" lon="8.58980546705">
        <ele>1480.57</ele>
        <time>2012-08-07T13:21:09Z</time>
      </trkpt>
      <trkpt lat="61.604685802" lon="8.58981234021">
        <ele>1481.53</ele>
        <time>2012-08-07T13:21:38Z</time>
      </trkpt>
      <trkpt lat="61.6046860535" lon="8.58977981843">
        <ele>1481.05</ele>
        <time>2012-08-07T13:21:56Z</time>
      </trkpt>
      <trkpt lat="61.6046873946" lon="8.58979105018">
        <ele>1481.05</ele>
        <time>2012-08-07T13:22:17Z</time>
      </trkpt>
      <trkpt lat="61.6047038231" lon="8.58978174627">
        <ele>1481.05</ele>
        <time>2012-08-07T13:22:48Z</time>
      </trkpt>
      <trkpt lat="61.6046975367" lon="8.58979943208">
        <ele>1480.57</ele>
        <time>2012-08-07T13:23:19Z</time>
      </trkpt>
      <trkpt lat="61.604698794" lon="8.58978861943">
        <ele>1480.57</ele>
        <time>2012-08-07T13:23:51Z</time>
      </trkpt>
      <trkpt lat="61.6046889871" lon="8.58975509182">
        <ele>1480.57</ele>
        <time>2012-08-07T13:24:17Z</time>
      </trkpt>
      <trkpt lat="61.6046826169" lon="8.58979658224">
        <ele>1480.57</ele>
        <time>2012-08-07T13:24:35Z</time>
      </trkpt>
      <trkpt lat="61.6046734806" lon="8.58981317841">
        <ele>1480.57</ele>
        <time>2012-08-07T13:24:52Z</time>
      </trkpt>
      <trkpt lat="61.6046350077" lon="8.58986590058">
        <ele>1480.57</ele>
        <time>2012-08-07T13:25:07Z</time>
      </trkpt>
      <trkpt lat="61.6046503466" lon="8.58983748592">
        <ele>1480.09</ele>
        <time>2012-08-07T13:25:22Z</time>
      </trkpt>
      <trkpt lat="61.6046488378" lon="8.58982055448">
        <ele>1480.57</ele>
        <time>2012-08-07T13:25:46Z</time>
      </trkpt>
      <trkpt lat="61.6046393663" lon="8.58980563469">
        <ele>1480.09</ele>
        <time>2012-08-07T13:25:49Z</time>
      </trkpt>
      <trkpt lat="61.6045566369" lon="8.58968242072">
        <ele>1479.13</ele>
        <time>2012-08-07T13:26:06Z</time>
      </trkpt>
      <trkpt lat="61.604566779" lon="8.58970354311">
        <ele>1478.65</ele>
        <time>2012-08-07T13:26:07Z</time>
      </trkpt>
      <trkpt lat="61.6046711337" lon="8.58983153477">
        <ele>1479.61</ele>
        <time>2012-08-07T13:26:15Z</time>
      </trkpt>
      <trkpt lat="61.604687646" lon="8.5898311995">
        <ele>1480.57</ele>
        <time>2012-08-07T13:26:29Z</time>
      </trkpt>
      <trkpt lat="61.6046759952" lon="8.58986279927">
        <ele>1480.09</ele>
        <time>2012-08-07T13:26:48Z</time>
      </trkpt>
      <trkpt lat="61.6046832874" lon="8.5898514837">
        <ele>1479.61</ele>
        <time>2012-08-07T13:27:22Z</time>
      </trkpt>
      <trkpt lat="61.6046790965" lon="8.58982642181">
        <ele>1480.09</ele>
        <time>2012-08-07T13:27:36Z</time>
      </trkpt>
      <trkpt lat="61.6046356782" lon="8.58978124335">
        <ele>1479.61</ele>
        <time>2012-08-07T13:27:43Z</time>
      </trkpt>
      <trkpt lat="61.6045889072" lon="8.5897479672">
        <ele>1478.65</ele>
        <time>2012-08-07T13:27:50Z</time>
      </trkpt>
      <trkpt lat="61.6044899169" lon="8.58971913345">
        <ele>1477.68</ele>
        <time>2012-08-07T13:28:02Z</time>
      </trkpt>
      <trkpt lat="61.604455132" lon="8.58967789449">
        <ele>1476.72</ele>
        <time>2012-08-07T13:28:16Z</time>
      </trkpt>
      <trkpt lat="61.604410205" lon="8.58954705298">
        <ele>1476.72</ele>
        <time>2012-08-07T13:28:28Z</time>
      </trkpt>
      <trkpt lat="61.604390759" lon="8.58951536939">
        <ele>1476.72</ele>
        <time>2012-08-07T13:28:40Z</time>
      </trkpt>
      <trkpt lat="61.6042408068" lon="8.58959399164">
        <ele>1474.8</ele>
        <time>2012-08-07T13:28:47Z</time>
      </trkpt>
      <trkpt lat="61.6042325925" lon="8.5895784013">
        <ele>1474.32</ele>
        <time>2012-08-07T13:28:55Z</time>
      </trkpt>
      <trkpt lat="61.6042063572" lon="8.58952458948">
        <ele>1474.8</ele>
        <time>2012-08-07T13:29:07Z</time>
      </trkpt>
      <trkpt lat="61.6041444149" lon="8.58946147375">
        <ele>1473.84</ele>
        <time>2012-08-07T13:29:12Z</time>
      </trkpt>
      <trkpt lat="61.6040897649" lon="8.58945284039">
        <ele>1472.88</ele>
        <time>2012-08-07T13:29:21Z</time>
      </trkpt>
      <trkpt lat="61.6041061934" lon="8.58942450956">
        <ele>1472.88</ele>
        <time>2012-08-07T13:29:30Z</time>
      </trkpt>
      <trkpt lat="61.6041677166" lon="8.58919291757">
        <ele>1473.84</ele>
        <time>2012-08-07T13:29:36Z</time>
      </trkpt>
      <trkpt lat="61.6042309999" lon="8.58910490759">
        <ele>1474.8</ele>
        <time>2012-08-07T13:29:46Z</time>
      </trkpt>
      <trkpt lat="61.6041905992" lon="8.58910524286">
        <ele>1474.32</ele>
        <time>2012-08-07T13:30:00Z</time>
      </trkpt>
      <trkpt lat="61.604137877" lon="8.58899317682">
        <ele>1473.84</ele>
        <time>2012-08-07T13:30:13Z</time>
      </trkpt>
      <trkpt lat="61.6040830594" lon="8.58880341053">
        <ele>1472.88</ele>
        <time>2012-08-07T13:30:27Z</time>
      </trkpt>
      <trkpt lat="61.604049867" lon="8.58875320293">
        <ele>1471.92</ele>
        <time>2012-08-07T13:30:41Z</time>
      </trkpt>
      <trkpt lat="61.6040316783" lon="8.58868799172">
        <ele>1472.4</ele>
        <time>2012-08-07T13:30:46Z</time>
      </trkpt>
      <trkpt lat="61.6038560774" lon="8.58855321072">
        <ele>1469.51</ele>
        <time>2012-08-07T13:31:00Z</time>
      </trkpt>
      <trkpt lat="61.6037549078" lon="8.58841390349">
        <ele>1468.07</ele>
        <time>2012-08-07T13:31:13Z</time>
      </trkpt>
      <trkpt lat="61.6037181951" lon="8.58840853907">
        <ele>1468.07</ele>
        <time>2012-08-07T13:31:16Z</time>
      </trkpt>
      <trkpt lat="61.6036973242" lon="8.58835749328">
        <ele>1467.59</ele>
        <time>2012-08-07T13:31:19Z</time>
      </trkpt>
      <trkpt lat="61.6036379803" lon="8.58823059127">
        <ele>1466.63</ele>
        <time>2012-08-07T13:31:31Z</time>
      </trkpt>
      <trkpt lat="61.6036344599" lon="8.58821365982">
        <ele>1466.63</ele>
        <time>2012-08-07T13:31:39Z</time>
      </trkpt>
      <trkpt lat="61.6035405826" lon="8.58812791295">
        <ele>1465.19</ele>
        <time>2012-08-07T13:31:48Z</time>
      </trkpt>
      <trkpt lat="61.6034783889" lon="8.58802934177">
        <ele>1465.19</ele>
        <time>2012-08-07T13:31:52Z</time>
      </trkpt>
      <trkpt lat="61.6034492198" lon="8.58788542449">
        <ele>1463.74</ele>
        <time>2012-08-07T13:32:03Z</time>
      </trkpt>
      <trkpt lat="61.6034459509" lon="8.5879123304">
        <ele>1463.74</ele>
        <time>2012-08-07T13:32:07Z</time>
      </trkpt>
      <trkpt lat="61.6033831704" lon="8.58789120801">
        <ele>1462.78</ele>
        <time>2012-08-07T13:32:12Z</time>
      </trkpt>
      <trkpt lat="61.6032607947" lon="8.58773153275">
        <ele>1461.34</ele>
        <time>2012-08-07T13:32:26Z</time>
      </trkpt>
      <trkpt lat="61.6032473836" lon="8.58771468513">
        <ele>1460.86</ele>
        <time>2012-08-07T13:32:30Z</time>
      </trkpt>
      <trkpt lat="61.6031820048" lon="8.58767529018">
        <ele>1459.42</ele>
        <time>2012-08-07T13:32:42Z</time>
      </trkpt>
      <trkpt lat="61.60311101" lon="8.58759205788">
        <ele>1458.46</ele>
        <time>2012-08-07T13:32:51Z</time>
      </trkpt>
      <trkpt lat="61.6030888818" lon="8.58750765212">
        <ele>1457.02</ele>
        <time>2012-08-07T13:33:06Z</time>
      </trkpt>
      <trkpt lat="61.6030903906" lon="8.58749642037">
        <ele>1457.98</ele>
        <time>2012-08-07T13:33:17Z</time>
      </trkpt>
      <trkpt lat="61.6030893847" lon="8.58752684668">
        <ele>1457.5</ele>
        <time>2012-08-07T13:33:23Z</time>
      </trkpt>
      <trkpt lat="61.6030323878" lon="8.58749759383">
        <ele>1457.98</ele>
        <time>2012-08-07T13:33:28Z</time>
      </trkpt>
      <trkpt lat="61.6029008757" lon="8.58743204735">
        <ele>1458.46</ele>
        <time>2012-08-07T13:33:39Z</time>
      </trkpt>
      <trkpt lat="61.6027699504" lon="8.58737220056">
        <ele>1457.98</ele>
        <time>2012-08-07T13:33:52Z</time>
      </trkpt>
      <trkpt lat="61.6026891489" lon="8.58731327578">
        <ele>1457.5</ele>
        <time>2012-08-07T13:34:02Z</time>
      </trkpt>
      <trkpt lat="61.6026735585" lon="8.5873133596">
        <ele>1457.5</ele>
        <time>2012-08-07T13:34:04Z</time>
      </trkpt>
      <trkpt lat="61.6026595607" lon="8.58732626773">
        <ele>1457.02</ele>
        <time>2012-08-07T13:34:06Z</time>
      </trkpt>
      <trkpt lat="61.6026416235" lon="8.58733255416">
        <ele>1457.02</ele>
        <time>2012-08-07T13:34:08Z</time>
      </trkpt>
      <trkpt lat="61.6026260331" lon="8.58731285669">
        <ele>1457.5</ele>
        <time>2012-08-07T13:34:10Z</time>
      </trkpt>
      <trkpt lat="61.6025387775" lon="8.5872221645">
        <ele>1457.02</ele>
        <time>2012-08-07T13:34:23Z</time>
      </trkpt>
      <trkpt lat="61.6024762485" lon="8.58718184754">
        <ele>1456.53</ele>
        <time>2012-08-07T13:34:28Z</time>
      </trkpt>
      <trkpt lat="61.602482032" lon="8.5870451387">
        <ele>1456.53</ele>
        <time>2012-08-07T13:34:37Z</time>
      </trkpt>
      <trkpt lat="61.6024366859" lon="8.58699618839">
        <ele>1456.53</ele>
        <time>2012-08-07T13:34:43Z</time>
      </trkpt>
      <trkpt lat="61.6023854725" lon="8.58697674237">
        <ele>1455.57</ele>
        <time>2012-08-07T13:34:48Z</time>
      </trkpt>
      <trkpt lat="61.6022850573" lon="8.58692309819">
        <ele>1455.57</ele>
        <time>2012-08-07T13:34:59Z</time>
      </trkpt>
      <trkpt lat="61.6020955425" lon="8.58686702326">
        <ele>1455.09</ele>
        <time>2012-08-07T13:35:16Z</time>
      </trkpt>
      <trkpt lat="61.6020620149" lon="8.58683751896">
        <ele>1454.61</ele>
        <time>2012-08-07T13:35:28Z</time>
      </trkpt>
      <trkpt lat="61.6019266471" lon="8.58690440655">
        <ele>1453.65</ele>
        <time>2012-08-07T13:35:43Z</time>
      </trkpt>
      <trkpt lat="61.6018012539" lon="8.586931061">
        <ele>1452.69</ele>
        <time>2012-08-07T13:35:57Z</time>
      </trkpt>
      <trkpt lat="61.601827573" lon="8.58689409681">
        <ele>1452.69</ele>
        <time>2012-08-07T13:36:20Z</time>
      </trkpt>
      <trkpt lat="61.6018869169" lon="8.58683634549">
        <ele>1452.69</ele>
        <time>2012-08-07T13:36:34Z</time>
      </trkpt>
      <trkpt lat="61.6018761881" lon="8.58690273017">
        <ele>1452.69</ele>
        <time>2012-08-07T13:36:49Z</time>
      </trkpt>
      <trkpt lat="61.6018808819" lon="8.58688462526">
        <ele>1452.69</ele>
        <time>2012-08-07T13:37:05Z</time>
      </trkpt>
      <trkpt lat="61.6018695664" lon="8.58685319312">
        <ele>1452.69</ele>
        <time>2012-08-07T13:37:22Z</time>
      </trkpt>
      <trkpt lat="61.601873925" lon="8.58682603575">
        <ele>1452.69</ele>
        <time>2012-08-07T13:37:38Z</time>
      </trkpt>
      <trkpt lat="61.6018680576" lon="8.5868355073">
        <ele>1453.17</ele>
        <time>2012-08-07T13:37:54Z</time>
      </trkpt>
      <trkpt lat="61.6018681414" lon="8.58683642931">
        <ele>1452.69</ele>
        <time>2012-08-07T13:38:15Z</time>
      </trkpt>
      <trkpt lat="61.6018772777" lon="8.58682100661">
        <ele>1453.17</ele>
        <time>2012-08-07T13:38:28Z</time>
      </trkpt>
      <trkpt lat="61.6017821431" lon="8.58707522973">
        <ele>1453.17</ele>
        <time>2012-08-07T13:38:41Z</time>
      </trkpt>
      <trkpt lat="61.6017530579" lon="8.58717011288">
        <ele>1452.69</ele>
        <time>2012-08-07T13:38:46Z</time>
      </trkpt>
      <trkpt lat="61.6016740166" lon="8.58742869459">
        <ele>1452.69</ele>
        <time>2012-08-07T13:39:01Z</time>
      </trkpt>
      <trkpt lat="61.6016581748" lon="8.58746523969">
        <ele>1453.17</ele>
        <time>2012-08-07T13:39:13Z</time>
      </trkpt>
      <trkpt lat="61.6016280837" lon="8.58749583364">
        <ele>1452.69</ele>
        <time>2012-08-07T13:39:29Z</time>
      </trkpt>
      <trkpt lat="61.601567734" lon="8.58751469292">
        <ele>1453.17</ele>
        <time>2012-08-07T13:39:44Z</time>
      </trkpt>
      <trkpt lat="61.6015387326" lon="8.58759306371">
        <ele>1453.65</ele>
        <time>2012-08-07T13:39:58Z</time>
      </trkpt>
      <trkpt lat="61.6015217174" lon="8.5876150243">
        <ele>1454.61</ele>
        <time>2012-08-07T13:40:03Z</time>
      </trkpt>
      <trkpt lat="61.6014991701" lon="8.5876326263">
        <ele>1455.09</ele>
        <time>2012-08-07T13:40:07Z</time>
      </trkpt>
      <trkpt lat="61.6014664806" lon="8.58770068735">
        <ele>1455.57</ele>
        <time>2012-08-07T13:40:20Z</time>
      </trkpt>
      <trkpt lat="61.6014014371" lon="8.58787251636">
        <ele>1455.57</ele>
        <time>2012-08-07T13:40:31Z</time>
      </trkpt>
      <trkpt lat="61.601354247" lon="8.58803956769">
        <ele>1456.05</ele>
        <time>2012-08-07T13:40:44Z</time>
      </trkpt>
      <trkpt lat="61.6013212223" lon="8.58830326237">
        <ele>1456.05</ele>
        <time>2012-08-07T13:40:58Z</time>
      </trkpt>
      <trkpt lat="61.601325497" lon="8.58834751882">
        <ele>1456.05</ele>
        <time>2012-08-07T13:41:01Z</time>
      </trkpt>
      <trkpt lat="61.6013796441" lon="8.58851197176">
        <ele>1456.53</ele>
        <time>2012-08-07T13:41:15Z</time>
      </trkpt>
      <trkpt lat="61.6013550013" lon="8.58855949715">
        <ele>1456.53</ele>
        <time>2012-08-07T13:41:27Z</time>
      </trkpt>
      <trkpt lat="61.6013435181" lon="8.58856000006">
        <ele>1456.05</ele>
        <time>2012-08-07T13:41:43Z</time>
      </trkpt>
      <trkpt lat="61.6013450269" lon="8.58855589293">
        <ele>1456.05</ele>
        <time>2012-08-07T13:41:44Z</time>
      </trkpt>
      <trkpt lat="61.6013159417" lon="8.58866469003">
        <ele>1456.53</ele>
        <time>2012-08-07T13:41:57Z</time>
      </trkpt>
      <trkpt lat="61.6013124213" lon="8.58870777301">
        <ele>1456.05</ele>
        <time>2012-08-07T13:42:15Z</time>
      </trkpt>
      <trkpt lat="61.601278726" lon="8.58874817379">
        <ele>1456.05</ele>
        <time>2012-08-07T13:42:19Z</time>
      </trkpt>
      <trkpt lat="61.6011260077" lon="8.58894514851">
        <ele>1455.09</ele>
        <time>2012-08-07T13:42:35Z</time>
      </trkpt>
      <trkpt lat="61.6010334715" lon="8.58914698474">
        <ele>1454.13</ele>
        <time>2012-08-07T13:42:48Z</time>
      </trkpt>
      <trkpt lat="61.6010043863" lon="8.58923910186">
        <ele>1454.61</ele>
        <time>2012-08-07T13:42:53Z</time>
      </trkpt>
      <trkpt lat="61.6009525023" lon="8.58950455673">
        <ele>1455.57</ele>
        <time>2012-08-07T13:43:00Z</time>
      </trkpt>
      <trkpt lat="61.6009825096" lon="8.59012096189">
        <ele>1454.61</ele>
        <time>2012-08-07T13:43:10Z</time>
      </trkpt>
      <trkpt lat="61.6009996925" lon="8.59087072313">
        <ele>1453.17</ele>
        <time>2012-08-07T13:43:22Z</time>
      </trkpt>
      <trkpt lat="61.6009970941" lon="8.59108479694">
        <ele>1453.17</ele>
        <time>2012-08-07T13:43:33Z</time>
      </trkpt>
      <trkpt lat="61.6009887122" lon="8.59108655713">
        <ele>1453.65</ele>
        <time>2012-08-07T13:43:54Z</time>
      </trkpt>
      <trkpt lat="61.6009962559" lon="8.59109192155">
        <ele>1453.65</ele>
        <time>2012-08-07T13:44:07Z</time>
      </trkpt>
      <trkpt lat="61.6009868681" lon="8.59107985161">
        <ele>1453.65</ele>
        <time>2012-08-07T13:44:23Z</time>
      </trkpt>
      <trkpt lat="61.6009947471" lon="8.59111044556">
        <ele>1453.17</ele>
        <time>2012-08-07T13:44:43Z</time>
      </trkpt>
      <trkpt lat="61.6009880416" lon="8.59110306948">
        <ele>1454.13</ele>
        <time>2012-08-07T13:45:14Z</time>
      </trkpt>
      <trkpt lat="61.6009909753" lon="8.59108278528">
        <ele>1453.17</ele>
        <time>2012-08-07T13:45:36Z</time>
      </trkpt>
      <trkpt lat="61.6009794921" lon="8.59109418467">
        <ele>1453.65</ele>
        <time>2012-08-07T13:46:10Z</time>
      </trkpt>
      <trkpt lat="61.6009807494" lon="8.59108404256">
        <ele>1453.65</ele>
        <time>2012-08-07T13:46:29Z</time>
      </trkpt>
      <trkpt lat="61.6010043025" lon="8.59110206366">
        <ele>1453.65</ele>
        <time>2012-08-07T13:46:53Z</time>
      </trkpt>
      <trkpt lat="61.6009852756" lon="8.59109016135">
        <ele>1454.13</ele>
        <time>2012-08-07T13:47:07Z</time>
      </trkpt>
      <trkpt lat="61.6009644046" lon="8.5910582263">
        <ele>1454.13</ele>
        <time>2012-08-07T13:47:19Z</time>
      </trkpt>
      <trkpt lat="61.6009835992" lon="8.59105956741">
        <ele>1454.13</ele>
        <time>2012-08-07T13:47:41Z</time>
      </trkpt>
      <trkpt lat="61.6009925678" lon="8.59106275253">
        <ele>1454.13</ele>
        <time>2012-08-07T13:47:53Z</time>
      </trkpt>
      <trkpt lat="61.6010379978" lon="8.59119242057">
        <ele>1454.61</ele>
        <time>2012-08-07T13:48:05Z</time>
      </trkpt>
      <trkpt lat="61.601151824" lon="8.59138872474">
        <ele>1453.65</ele>
        <time>2012-08-07T13:48:19Z</time>
      </trkpt>
      <trkpt lat="61.6012539156" lon="8.59154940583">
        <ele>1453.17</ele>
        <time>2012-08-07T13:48:32Z</time>
      </trkpt>
      <trkpt lat="61.6012722719" lon="8.5915880464">
        <ele>1453.17</ele>
        <time>2012-08-07T13:48:35Z</time>
      </trkpt>
      <trkpt lat="61.6013010219" lon="8.59161889181">
        <ele>1453.17</ele>
        <time>2012-08-07T13:48:38Z</time>
      </trkpt>
      <trkpt lat="61.6013705917" lon="8.5917738732">
        <ele>1452.69</ele>
        <time>2012-08-07T13:48:50Z</time>
      </trkpt>
      <trkpt lat="61.6013731062" lon="8.59180111438">
        <ele>1452.21</ele>
        <time>2012-08-07T13:48:58Z</time>
      </trkpt>
      <trkpt lat="61.6014344618" lon="8.59194092453">
        <ele>1451.73</ele>
        <time>2012-08-07T13:49:10Z</time>
      </trkpt>
      <trkpt lat="61.6014623735" lon="8.59204779379">
        <ele>1452.21</ele>
        <time>2012-08-07T13:49:18Z</time>
      </trkpt>
      <trkpt lat="61.601478802" lon="8.592275111">
        <ele>1452.21</ele>
        <time>2012-08-07T13:49:31Z</time>
      </trkpt>
      <trkpt lat="61.601487603" lon="8.5924124904">
        <ele>1451.25</ele>
        <time>2012-08-07T13:49:37Z</time>
      </trkpt>
      <trkpt lat="61.6015067976" lon="8.59264299273">
        <ele>1450.77</ele>
        <time>2012-08-07T13:49:50Z</time>
      </trkpt>
      <trkpt lat="61.6015353799" lon="8.5928432364">
        <ele>1450.29</ele>
        <time>2012-08-07T13:50:03Z</time>
      </trkpt>
      <trkpt lat="61.6015429236" lon="8.59295253642">
        <ele>1449.81</ele>
        <time>2012-08-07T13:50:09Z</time>
      </trkpt>
      <trkpt lat="61.6015942208" lon="8.59306141734">
        <ele>1449.81</ele>
        <time>2012-08-07T13:50:21Z</time>
      </trkpt>
      <trkpt lat="61.6015982442" lon="8.59309025109">
        <ele>1450.29</ele>
        <time>2012-08-07T13:50:23Z</time>
      </trkpt>
      <trkpt lat="61.6016022675" lon="8.59319527633">
        <ele>1449.32</ele>
        <time>2012-08-07T13:50:29Z</time>
      </trkpt>
      <trkpt lat="61.6015934665" lon="8.59336039983">
        <ele>1449.81</ele>
        <time>2012-08-07T13:50:38Z</time>
      </trkpt>
      <trkpt lat="61.6016139183" lon="8.59345285222">
        <ele>1449.81</ele>
        <time>2012-08-07T13:50:42Z</time>
      </trkpt>
      <trkpt lat="61.6015724279" lon="8.5936764814">
        <ele>1449.32</ele>
        <time>2012-08-07T13:50:54Z</time>
      </trkpt>
      <trkpt lat="61.6015609447" lon="8.59382333234">
        <ele>1448.84</ele>
        <time>2012-08-07T13:51:02Z</time>
      </trkpt>
      <trkpt lat="61.6014956497" lon="8.59401703812">
        <ele>1449.32</ele>
        <time>2012-08-07T13:51:14Z</time>
      </trkpt>
      <trkpt lat="61.6015189514" lon="8.59393833205">
        <ele>1447.88</ele>
        <time>2012-08-07T13:51:16Z</time>
      </trkpt>
      <trkpt lat="61.6015382297" lon="8.59386490658">
        <ele>1448.84</ele>
        <time>2012-08-07T13:51:30Z</time>
      </trkpt>
      <trkpt lat="61.6015034448" lon="8.59403505921">
        <ele>1449.32</ele>
        <time>2012-08-07T13:51:43Z</time>
      </trkpt>
      <trkpt lat="61.6014566738" lon="8.5942613706">
        <ele>1449.32</ele>
        <time>2012-08-07T13:51:57Z</time>
      </trkpt>
      <trkpt lat="61.6014226433" lon="8.59441786073">
        <ele>1449.32</ele>
        <time>2012-08-07T13:52:06Z</time>
      </trkpt>
      <trkpt lat="61.6014469508" lon="8.59437972307">
        <ele>1449.32</ele>
        <time>2012-08-07T13:52:16Z</time>
      </trkpt>
      <trkpt lat="61.6014594398" lon="8.59451576136">
        <ele>1448.36</ele>
        <time>2012-08-07T13:52:23Z</time>
      </trkpt>
      <trkpt lat="61.6014728509" lon="8.59459941275">
        <ele>1448.84</ele>
        <time>2012-08-07T13:52:27Z</time>
      </trkpt>
      <trkpt lat="61.6015039477" lon="8.5947392229">
        <ele>1449.32</ele>
        <time>2012-08-07T13:52:34Z</time>
      </trkpt>
      <trkpt lat="61.6014871839" lon="8.59500425868">
        <ele>1445.48</ele>
        <time>2012-08-07T13:52:45Z</time>
      </trkpt>
      <trkpt lat="61.6014889441" lon="8.59502278268">
        <ele>1445.48</ele>
        <time>2012-08-07T13:52:46Z</time>
      </trkpt>
      <trkpt lat="61.6015040316" lon="8.59496855177">
        <ele>1445.48</ele>
        <time>2012-08-07T13:53:00Z</time>
      </trkpt>
      <trkpt lat="61.6015264951" lon="8.59499545768">
        <ele>1445</ele>
        <time>2012-08-07T13:53:03Z</time>
      </trkpt>
      <trkpt lat="61.6015355475" lon="8.5950523708">
        <ele>1445.96</ele>
        <time>2012-08-07T13:53:05Z</time>
      </trkpt>
      <trkpt lat="61.6015342064" lon="8.59513660893">
        <ele>1444.52</ele>
        <time>2012-08-07T13:53:14Z</time>
      </trkpt>
      <trkpt lat="61.6015378106" lon="8.59520198777">
        <ele>1445.48</ele>
        <time>2012-08-07T13:53:18Z</time>
      </trkpt>
      <trkpt lat="61.6015475336" lon="8.59534556977">
        <ele>1444.52</ele>
        <time>2012-08-07T13:53:26Z</time>
      </trkpt>
      <trkpt lat="61.6015702486" lon="8.59544120729">
        <ele>1444.52</ele>
        <time>2012-08-07T13:53:31Z</time>
      </trkpt>
      <trkpt lat="61.6015662253" lon="8.59549560584">
        <ele>1444.52</ele>
        <time>2012-08-07T13:53:34Z</time>
      </trkpt>
      <trkpt lat="61.6015699133" lon="8.59554111958">
        <ele>1444.52</ele>
        <time>2012-08-07T13:53:37Z</time>
      </trkpt>
      <trkpt lat="61.6015960649" lon="8.59576877207">
        <ele>1444.52</ele>
        <time>2012-08-07T13:53:49Z</time>
      </trkpt>
      <trkpt lat="61.6016087215" lon="8.59596700408">
        <ele>1444.52</ele>
        <time>2012-08-07T13:53:59Z</time>
      </trkpt>
      <trkpt lat="61.6016097274" lon="8.5960084945">
        <ele>1445.48</ele>
        <time>2012-08-07T13:54:02Z</time>
      </trkpt>
      <trkpt lat="61.6016164329" lon="8.59605467878">
        <ele>1443.56</ele>
        <time>2012-08-07T13:54:04Z</time>
      </trkpt>
      <trkpt lat="61.6016264074" lon="8.59614294022">
        <ele>1445</ele>
        <time>2012-08-07T13:54:10Z</time>
      </trkpt>
      <trkpt lat="61.6015907004" lon="8.59636975452">
        <ele>1445</ele>
        <time>2012-08-07T13:54:20Z</time>
      </trkpt>
      <trkpt lat="61.6015887726" lon="8.59652741812">
        <ele>1445</ele>
        <time>2012-08-07T13:54:29Z</time>
      </trkpt>
      <trkpt lat="61.6015954781" lon="8.59664107673">
        <ele>1444.04</ele>
        <time>2012-08-07T13:54:35Z</time>
      </trkpt>
      <trkpt lat="61.6015890241" lon="8.59685607255">
        <ele>1443.56</ele>
        <time>2012-08-07T13:54:48Z</time>
      </trkpt>
      <trkpt lat="61.6015814804" lon="8.59687124379">
        <ele>1442.6</ele>
        <time>2012-08-07T13:54:49Z</time>
      </trkpt>
      <trkpt lat="61.6015675664" lon="8.59692119993">
        <ele>1444.04</ele>
        <time>2012-08-07T13:54:53Z</time>
      </trkpt>
      <trkpt lat="61.601557089" lon="8.59702052549">
        <ele>1442.6</ele>
        <time>2012-08-07T13:55:01Z</time>
      </trkpt>
      <trkpt lat="61.6015850846" lon="8.59725035727">
        <ele>1442.11</ele>
        <time>2012-08-07T13:55:12Z</time>
      </trkpt>
      <trkpt lat="61.6015850846" lon="8.59730056487">
        <ele>1441.63</ele>
        <time>2012-08-07T13:55:26Z</time>
      </trkpt>
      <trkpt lat="61.6015881021" lon="8.59722328372">
        <ele>1443.56</ele>
        <time>2012-08-07T13:55:28Z</time>
      </trkpt>
      <trkpt lat="61.6015440971" lon="8.59716603532">
        <ele>1442.11</ele>
        <time>2012-08-07T13:55:38Z</time>
      </trkpt>
      <trkpt lat="61.6015479527" lon="8.59714105725">
        <ele>1442.11</ele>
        <time>2012-08-07T13:56:01Z</time>
      </trkpt>
      <trkpt lat="61.6015927959" lon="8.59719428234">
        <ele>1442.11</ele>
        <time>2012-08-07T13:56:26Z</time>
      </trkpt>
      <trkpt lat="61.601597406" lon="8.5972231999">
        <ele>1442.6</ele>
        <time>2012-08-07T13:56:29Z</time>
      </trkpt>
      <trkpt lat="61.6016170196" lon="8.59739963897">
        <ele>1442.11</ele>
        <time>2012-08-07T13:56:42Z</time>
      </trkpt>
      <trkpt lat="61.601703437" lon="8.59750491567">
        <ele>1441.63</ele>
        <time>2012-08-07T13:56:54Z</time>
      </trkpt>
      <trkpt lat="61.6017764434" lon="8.59772611409">
        <ele>1441.15</ele>
        <time>2012-08-07T13:57:05Z</time>
      </trkpt>
      <trkpt lat="61.6018167604" lon="8.59778621234">
        <ele>1441.15</ele>
        <time>2012-08-07T13:57:11Z</time>
      </trkpt>
      <trkpt lat="61.6018119827" lon="8.59786005691">
        <ele>1441.63</ele>
        <time>2012-08-07T13:57:15Z</time>
      </trkpt>
      <trkpt lat="61.6018054448" lon="8.59795678407">
        <ele>1441.63</ele>
        <time>2012-08-07T13:57:22Z</time>
      </trkpt>
      <trkpt lat="61.6018482763" lon="8.59808703884">
        <ele>1441.15</ele>
        <time>2012-08-07T13:57:36Z</time>
      </trkpt>
      <trkpt lat="61.6018991545" lon="8.59818041325">
        <ele>1441.63</ele>
        <time>2012-08-07T13:57:42Z</time>
      </trkpt>
      <trkpt lat="61.6018540598" lon="8.59841368161">
        <ele>1441.15</ele>
        <time>2012-08-07T13:57:55Z</time>
      </trkpt>
      <trkpt lat="61.6018394753" lon="8.59847067855">
        <ele>1440.67</ele>
        <time>2012-08-07T13:58:07Z</time>
      </trkpt>
      <trkpt lat="61.601847522" lon="8.59845902771">
        <ele>1440.67</ele>
        <time>2012-08-07T13:58:25Z</time>
      </trkpt>
      <trkpt lat="61.6018276569" lon="8.59848442487">
        <ele>1440.67</ele>
        <time>2012-08-07T13:58:45Z</time>
      </trkpt>
      <trkpt lat="61.6018191073" lon="8.59848576598">
        <ele>1441.15</ele>
        <time>2012-08-07T13:58:46Z</time>
      </trkpt>
      <trkpt lat="61.6018306743" lon="8.59830672853">
        <ele>1439.71</ele>
        <time>2012-08-07T13:59:01Z</time>
      </trkpt>
      <trkpt lat="61.6018273216" lon="8.59829440713">
        <ele>1442.11</ele>
        <time>2012-08-07T13:59:02Z</time>
      </trkpt>
      <trkpt lat="61.6018340271" lon="8.59820715152">
        <ele>1441.63</ele>
        <time>2012-08-07T13:59:15Z</time>
      </trkpt>
      <trkpt lat="61.6018371284" lon="8.59821511433">
        <ele>1441.63</ele>
        <time>2012-08-07T13:59:19Z</time>
      </trkpt>
      <trkpt lat="61.6018381342" lon="8.59836598858">
        <ele>1440.67</ele>
        <time>2012-08-07T13:59:31Z</time>
      </trkpt>
      <trkpt lat="61.6018376313" lon="8.59838744625">
        <ele>1441.15</ele>
        <time>2012-08-07T13:59:32Z</time>
      </trkpt>
      <trkpt lat="61.6018414032" lon="8.59848903492">
        <ele>1442.11</ele>
        <time>2012-08-07T13:59:37Z</time>
      </trkpt>
      <trkpt lat="61.60185121" lon="8.59864602797">
        <ele>1441.63</ele>
        <time>2012-08-07T13:59:52Z</time>
      </trkpt>
      <trkpt lat="61.6018674709" lon="8.5987796355">
        <ele>1441.15</ele>
        <time>2012-08-07T14:00:05Z</time>
      </trkpt>
      <trkpt lat="61.6018269025" lon="8.598909555">
        <ele>1442.11</ele>
        <time>2012-08-07T14:00:15Z</time>
      </trkpt>
      <trkpt lat="61.6018015053" lon="8.59898365103">
        <ele>1441.63</ele>
        <time>2012-08-07T14:00:19Z</time>
      </trkpt>
      <trkpt lat="61.6017634515" lon="8.59904634766">
        <ele>1441.63</ele>
        <time>2012-08-07T14:00:23Z</time>
      </trkpt>
      <trkpt lat="61.6017382219" lon="8.5991103854">
        <ele>1441.63</ele>
        <time>2012-08-07T14:00:31Z</time>
      </trkpt>
      <trkpt lat="61.6017177701" lon="8.59920895658">
        <ele>1441.15</ele>
        <time>2012-08-07T14:00:37Z</time>
      </trkpt>
      <trkpt lat="61.6016814765" lon="8.59939872287">
        <ele>1441.15</ele>
        <time>2012-08-07T14:00:48Z</time>
      </trkpt>
      <trkpt lat="61.6016849969" lon="8.59937164932">
        <ele>1441.15</ele>
        <time>2012-08-07T14:01:12Z</time>
      </trkpt>
      <trkpt lat="61.601712741" lon="8.59945639037">
        <ele>1439.71</ele>
        <time>2012-08-07T14:01:31Z</time>
      </trkpt>
      <trkpt lat="61.6017020959" lon="8.59949494712">
        <ele>1440.67</ele>
        <time>2012-08-07T14:01:33Z</time>
      </trkpt>
      <trkpt lat="61.6016902775" lon="8.59963241033">
        <ele>1440.67</ele>
        <time>2012-08-07T14:01:42Z</time>
      </trkpt>
      <trkpt lat="61.6016536485" lon="8.59971866012">
        <ele>1440.67</ele>
        <time>2012-08-07T14:01:48Z</time>
      </trkpt>
      <trkpt lat="61.6016375553" lon="8.59980189241">
        <ele>1440.67</ele>
        <time>2012-08-07T14:02:02Z</time>
      </trkpt>
      <trkpt lat="61.6016235575" lon="8.59976283275">
        <ele>1441.15</ele>
        <time>2012-08-07T14:02:20Z</time>
      </trkpt>
      <trkpt lat="61.6016385611" lon="8.59991638921">
        <ele>1440.67</ele>
        <time>2012-08-07T14:02:30Z</time>
      </trkpt>
      <trkpt lat="61.6015777085" lon="8.59999978915">
        <ele>1440.67</ele>
        <time>2012-08-07T14:02:44Z</time>
      </trkpt>
      <trkpt lat="61.6015536524" lon="8.59999115579">
        <ele>1441.15</ele>
        <time>2012-08-07T14:02:58Z</time>
      </trkpt>
      <trkpt lat="61.6015894432" lon="8.59996676445">
        <ele>1440.19</ele>
        <time>2012-08-07T14:03:05Z</time>
      </trkpt>
      <trkpt lat="61.6016535647" lon="8.60022174194">
        <ele>1440.19</ele>
        <time>2012-08-07T14:03:19Z</time>
      </trkpt>
      <trkpt lat="61.6016571689" lon="8.60024571419">
        <ele>1440.19</ele>
        <time>2012-08-07T14:03:21Z</time>
      </trkpt>
      <trkpt lat="61.6016691551" lon="8.60032391734">
        <ele>1440.67</ele>
        <time>2012-08-07T14:03:31Z</time>
      </trkpt>
      <trkpt lat="61.6016778722" lon="8.60048862174">
        <ele>1439.71</ele>
        <time>2012-08-07T14:03:40Z</time>
      </trkpt>
      <trkpt lat="61.6016562469" lon="8.60066439025">
        <ele>1439.71</ele>
        <time>2012-08-07T14:03:53Z</time>
      </trkpt>
      <trkpt lat="61.601644177" lon="8.60075432807">
        <ele>1439.71</ele>
        <time>2012-08-07T14:04:00Z</time>
      </trkpt>
      <trkpt lat="61.6015879344" lon="8.60070797615">
        <ele>1439.71</ele>
        <time>2012-08-07T14:04:06Z</time>
      </trkpt>
      <trkpt lat="61.601564046" lon="8.60062709078">
        <ele>1439.71</ele>
        <time>2012-08-07T14:04:10Z</time>
      </trkpt>
      <trkpt lat="61.6015371401" lon="8.60054100864">
        <ele>1439.71</ele>
        <time>2012-08-07T14:04:15Z</time>
      </trkpt>
      <trkpt lat="61.6015495453" lon="8.60049155541">
        <ele>1435.87</ele>
        <time>2012-08-07T14:04:28Z</time>
      </trkpt>
      <trkpt lat="61.6015424207" lon="8.60049633309">
        <ele>1444.04</ele>
        <time>2012-08-07T14:04:29Z</time>
      </trkpt>
      <trkpt lat="61.6015384812" lon="8.60049524345">
        <ele>1439.23</ele>
        <time>2012-08-07T14:04:30Z</time>
      </trkpt>
      <trkpt lat="61.6015236452" lon="8.60047738999">
        <ele>1440.67</ele>
        <time>2012-08-07T14:04:34Z</time>
      </trkpt>
      <trkpt lat="61.6015225556" lon="8.60052768141">
        <ele>1439.23</ele>
        <time>2012-08-07T14:04:46Z</time>
      </trkpt>
      <trkpt lat="61.6015062109" lon="8.6005527433">
        <ele>1440.19</ele>
        <time>2012-08-07T14:04:55Z</time>
      </trkpt>
      <trkpt lat="61.6015140899" lon="8.60058727674">
        <ele>1441.15</ele>
        <time>2012-08-07T14:04:57Z</time>
      </trkpt>
      <trkpt lat="61.6015272494" lon="8.60060253181">
        <ele>1440.67</ele>
        <time>2012-08-07T14:05:00Z</time>
      </trkpt>
      <trkpt lat="61.6015282553" lon="8.60067889094">
        <ele>1439.23</ele>
        <time>2012-08-07T14:05:09Z</time>
      </trkpt>
      <trkpt lat="61.6015158501" lon="8.60056908801">
        <ele>1440.19</ele>
        <time>2012-08-07T14:05:26Z</time>
      </trkpt>
      <trkpt lat="61.6014859267" lon="8.60057177022">
        <ele>1440.19</ele>
        <time>2012-08-07T14:05:43Z</time>
      </trkpt>
      <trkpt lat="61.6014794726" lon="8.60049658455">
        <ele>1441.15</ele>
        <time>2012-08-07T14:05:55Z</time>
      </trkpt>
      <trkpt lat="61.6014837474" lon="8.6004492268">
        <ele>1441.63</ele>
        <time>2012-08-07T14:06:02Z</time>
      </trkpt>
      <trkpt lat="61.6015047859" lon="8.60042584129">
        <ele>1441.63</ele>
        <time>2012-08-07T14:06:08Z</time>
      </trkpt>
      <trkpt lat="61.6015673988" lon="8.60047546215">
        <ele>1440.67</ele>
        <time>2012-08-07T14:06:16Z</time>
      </trkpt>
      <trkpt lat="61.6016103141" lon="8.60052508302">
        <ele>1440.67</ele>
        <time>2012-08-07T14:06:23Z</time>
      </trkpt>
      <trkpt lat="61.6016386449" lon="8.60051343217">
        <ele>1441.63</ele>
        <time>2012-08-07T14:06:26Z</time>
      </trkpt>
      <trkpt lat="61.6017054487" lon="8.60042667948">
        <ele>1440.67</ele>
        <time>2012-08-07T14:06:34Z</time>
      </trkpt>
      <trkpt lat="61.6017517168" lon="8.60054855235">
        <ele>1442.11</ele>
        <time>2012-08-07T14:06:43Z</time>
      </trkpt>
      <trkpt lat="61.6017632" lon="8.60069414601">
        <ele>1441.15</ele>
        <time>2012-08-07T14:06:50Z</time>
      </trkpt>
      <trkpt lat="61.6017447598" lon="8.60079741105">
        <ele>1441.63</ele>
        <time>2012-08-07T14:06:55Z</time>
      </trkpt>
      <trkpt lat="61.6017410718" lon="8.60089472495">
        <ele>1441.15</ele>
        <time>2012-08-07T14:07:00Z</time>
      </trkpt>
      <trkpt lat="61.6017305106" lon="8.6009323597">
        <ele>1440.67</ele>
        <time>2012-08-07T14:07:02Z</time>
      </trkpt>
      <trkpt lat="61.6017174348" lon="8.60098709352">
        <ele>1441.15</ele>
        <time>2012-08-07T14:07:05Z</time>
      </trkpt>
      <trkpt lat="61.6016844939" lon="8.60108222812">
        <ele>1440.67</ele>
        <time>2012-08-07T14:07:11Z</time>
      </trkpt>
      <trkpt lat="61.6016718373" lon="8.60110821202">
        <ele>1440.67</ele>
        <time>2012-08-07T14:07:13Z</time>
      </trkpt>
      <trkpt lat="61.6016482841" lon="8.60122865997">
        <ele>1440.67</ele>
        <time>2012-08-07T14:07:20Z</time>
      </trkpt>
      <trkpt lat="61.6016086377" lon="8.60135983676">
        <ele>1440.19</ele>
        <time>2012-08-07T14:07:29Z</time>
      </trkpt>
      <trkpt lat="61.6016471945" lon="8.60138280317">
        <ele>1440.67</ele>
        <time>2012-08-07T14:07:42Z</time>
      </trkpt>
      <trkpt lat="61.6016248986" lon="8.60139034688">
        <ele>1440.19</ele>
        <time>2012-08-07T14:08:00Z</time>
      </trkpt>
      <trkpt lat="61.6017008387" lon="8.60167734325">
        <ele>1441.15</ele>
        <time>2012-08-07T14:08:13Z</time>
      </trkpt>
      <trkpt lat="61.6016965639" lon="8.60169301741">
        <ele>1441.63</ele>
        <time>2012-08-07T14:08:14Z</time>
      </trkpt>
      <trkpt lat="61.6016786266" lon="8.60175655223">
        <ele>1441.63</ele>
        <time>2012-08-07T14:08:27Z</time>
      </trkpt>
      <trkpt lat="61.6017115675" lon="8.60184716061">
        <ele>1441.63</ele>
        <time>2012-08-07T14:08:46Z</time>
      </trkpt>
      <trkpt lat="61.6017104778" lon="8.60191773623">
        <ele>1441.15</ele>
        <time>2012-08-07T14:08:49Z</time>
      </trkpt>
      <trkpt lat="61.6017512977" lon="8.6020140443">
        <ele>1440.67</ele>
        <time>2012-08-07T14:08:55Z</time>
      </trkpt>
      <trkpt lat="61.6017429158" lon="8.60211370513">
        <ele>1440.67</ele>
        <time>2012-08-07T14:09:09Z</time>
      </trkpt>
      <trkpt lat="61.60177988" lon="8.60234387219">
        <ele>1440.67</ele>
        <time>2012-08-07T14:09:21Z</time>
      </trkpt>
      <trkpt lat="61.6017901059" lon="8.60262684524">
        <ele>1440.67</ele>
        <time>2012-08-07T14:09:32Z</time>
      </trkpt>
      <trkpt lat="61.6017833166" lon="8.6026962474">
        <ele>1440.67</ele>
        <time>2012-08-07T14:09:37Z</time>
      </trkpt>
      <trkpt lat="61.601749789" lon="8.60266749747">
        <ele>1441.15</ele>
        <time>2012-08-07T14:09:52Z</time>
      </trkpt>
      <trkpt lat="61.6017499566" lon="8.60278584994">
        <ele>1441.15</ele>
        <time>2012-08-07T14:10:03Z</time>
      </trkpt>
      <trkpt lat="61.6017575003" lon="8.6028706748">
        <ele>1441.15</ele>
        <time>2012-08-07T14:10:07Z</time>
      </trkpt>
      <trkpt lat="61.6017638706" lon="8.60291417688">
        <ele>1441.15</ele>
        <time>2012-08-07T14:10:09Z</time>
      </trkpt>
      <trkpt lat="61.6017864179" lon="8.60303093679">
        <ele>1440.67</ele>
        <time>2012-08-07T14:10:16Z</time>
      </trkpt>
      <trkpt lat="61.6017773654" lon="8.60309380107">
        <ele>1441.15</ele>
        <time>2012-08-07T14:10:26Z</time>
      </trkpt>
      <trkpt lat="61.6017672233" lon="8.60313529149">
        <ele>1440.67</ele>
        <time>2012-08-07T14:10:44Z</time>
      </trkpt>
      <trkpt lat="61.601765966" lon="8.60312942415">
        <ele>1441.15</ele>
        <time>2012-08-07T14:10:45Z</time>
      </trkpt>
      <trkpt lat="61.6017693188" lon="8.60318608582">
        <ele>1441.63</ele>
        <time>2012-08-07T14:10:49Z</time>
      </trkpt>
      <trkpt lat="61.6017746832" lon="8.60328088515">
        <ele>1440.67</ele>
        <time>2012-08-07T14:10:54Z</time>
      </trkpt>
      <trkpt lat="61.6017205361" lon="8.60341248102">
        <ele>1441.63</ele>
        <time>2012-08-07T14:11:03Z</time>
      </trkpt>
      <trkpt lat="61.601705784" lon="8.60344734974">
        <ele>1441.63</ele>
        <time>2012-08-07T14:11:05Z</time>
      </trkpt>
      <trkpt lat="61.6016762797" lon="8.60356369056">
        <ele>1441.63</ele>
        <time>2012-08-07T14:11:11Z</time>
      </trkpt>
      <trkpt lat="61.6016643774" lon="8.60359445214">
        <ele>1442.11</ele>
        <time>2012-08-07T14:11:13Z</time>
      </trkpt>
      <trkpt lat="61.6015889402" lon="8.60374700278">
        <ele>1441.63</ele>
        <time>2012-08-07T14:11:24Z</time>
      </trkpt>
      <trkpt lat="61.6015410796" lon="8.60387180932">
        <ele>1440.67</ele>
        <time>2012-08-07T14:11:30Z</time>
      </trkpt>
      <trkpt lat="61.6015477851" lon="8.60397884622">
        <ele>1441.15</ele>
        <time>2012-08-07T14:11:36Z</time>
      </trkpt>
      <trkpt lat="61.6014960688" lon="8.60417280346">
        <ele>1441.15</ele>
        <time>2012-08-07T14:11:47Z</time>
      </trkpt>
      <trkpt lat="61.6014967393" lon="8.60422016121">
        <ele>1440.67</ele>
        <time>2012-08-07T14:11:50Z</time>
      </trkpt>
      <trkpt lat="61.6015037801" lon="8.60430188477">
        <ele>1440.67</ele>
        <time>2012-08-07T14:11:54Z</time>
      </trkpt>
      <trkpt lat="61.6015243996" lon="8.60444311984">
        <ele>1441.15</ele>
        <time>2012-08-07T14:11:59Z</time>
      </trkpt>
      <trkpt lat="61.6015290096" lon="8.60448410735">
        <ele>1440.67</ele>
        <time>2012-08-07T14:12:01Z</time>
      </trkpt>
      <trkpt lat="61.6015433427" lon="8.60461151227">
        <ele>1441.15</ele>
        <time>2012-08-07T14:12:12Z</time>
      </trkpt>
      <trkpt lat="61.6015610285" lon="8.60465669073">
        <ele>1441.63</ele>
        <time>2012-08-07T14:12:37Z</time>
      </trkpt>
      <trkpt lat="61.6015761159" lon="8.6048569344">
        <ele>1441.63</ele>
        <time>2012-08-07T14:12:48Z</time>
      </trkpt>
      <trkpt lat="61.6015829053" lon="8.60508634709">
        <ele>1440.67</ele>
        <time>2012-08-07T14:13:02Z</time>
      </trkpt>
      <trkpt lat="61.6015796363" lon="8.6052466929">
        <ele>1442.11</ele>
        <time>2012-08-07T14:13:11Z</time>
      </trkpt>
      <trkpt lat="61.6015347093" lon="8.6054572463">
        <ele>1441.15</ele>
        <time>2012-08-07T14:13:22Z</time>
      </trkpt>
      <trkpt lat="61.6015212145" lon="8.60563687049">
        <ele>1440.67</ele>
        <time>2012-08-07T14:13:32Z</time>
      </trkpt>
      <trkpt lat="61.6014935542" lon="8.60569629818">
        <ele>1440.67</ele>
        <time>2012-08-07T14:13:36Z</time>
      </trkpt>
      <trkpt lat="61.6014486272" lon="8.60567836091">
        <ele>1441.15</ele>
        <time>2012-08-07T14:13:49Z</time>
      </trkpt>
      <trkpt lat="61.6014389042" lon="8.6057571508">
        <ele>1440.67</ele>
        <time>2012-08-07T14:14:14Z</time>
      </trkpt>
      <trkpt lat="61.6014406644" lon="8.6059962865">
        <ele>1441.15</ele>
        <time>2012-08-07T14:14:25Z</time>
      </trkpt>
      <trkpt lat="61.601443598" lon="8.60604724847">
        <ele>1441.15</ele>
        <time>2012-08-07T14:14:27Z</time>
      </trkpt>
      <trkpt lat="61.6014425922" lon="8.60609686933">
        <ele>1441.15</ele>
        <time>2012-08-07T14:14:29Z</time>
      </trkpt>
      <trkpt lat="61.6014432628" lon="8.6061636731">
        <ele>1440.19</ele>
        <time>2012-08-07T14:14:32Z</time>
      </trkpt>
      <trkpt lat="61.6014253255" lon="8.60633399338">
        <ele>1441.15</ele>
        <time>2012-08-07T14:14:41Z</time>
      </trkpt>
      <trkpt lat="61.6014265828" lon="8.60630088486">
        <ele>1440.67</ele>
        <time>2012-08-07T14:14:53Z</time>
      </trkpt>
      <trkpt lat="61.6014244035" lon="8.60647866502">
        <ele>1441.15</ele>
        <time>2012-08-07T14:15:13Z</time>
      </trkpt>
      <trkpt lat="61.6013410874" lon="8.60668972135">
        <ele>1441.15</ele>
        <time>2012-08-07T14:15:25Z</time>
      </trkpt>
      <trkpt lat="61.601269925" lon="8.60670698807">
        <ele>1440.67</ele>
        <time>2012-08-07T14:15:37Z</time>
      </trkpt>
      <trkpt lat="61.6012850124" lon="8.60673339106">
        <ele>1438.75</ele>
        <time>2012-08-07T14:16:02Z</time>
      </trkpt>
      <trkpt lat="61.6012986749" lon="8.60683917068">
        <ele>1442.11</ele>
        <time>2012-08-07T14:16:08Z</time>
      </trkpt>
      <trkpt lat="61.6012932267" lon="8.60688409768">
        <ele>1441.63</ele>
        <time>2012-08-07T14:16:10Z</time>
      </trkpt>
      <trkpt lat="61.6012852639" lon="8.60702809878">
        <ele>1441.15</ele>
        <time>2012-08-07T14:16:22Z</time>
      </trkpt>
      <trkpt lat="61.6012904607" lon="8.6070990935">
        <ele>1441.15</ele>
        <time>2012-08-07T14:16:32Z</time>
      </trkpt>
      <trkpt lat="61.6012828331" lon="8.60714904964">
        <ele>1440.67</ele>
        <time>2012-08-07T14:16:34Z</time>
      </trkpt>
      <trkpt lat="61.6012928076" lon="8.60728357919">
        <ele>1440.67</ele>
        <time>2012-08-07T14:16:42Z</time>
      </trkpt>
      <trkpt lat="61.6013045423" lon="8.60735381953">
        <ele>1440.19</ele>
        <time>2012-08-07T14:16:46Z</time>
      </trkpt>
      <trkpt lat="61.6013120022" lon="8.60739723779">
        <ele>1440.67</ele>
        <time>2012-08-07T14:16:48Z</time>
      </trkpt>
      <trkpt lat="61.6013275087" lon="8.60751760192">
        <ele>1440.19</ele>
        <time>2012-08-07T14:16:54Z</time>
      </trkpt>
      <trkpt lat="61.6012625489" lon="8.60756236129">
        <ele>1441.15</ele>
        <time>2012-08-07T14:17:00Z</time>
      </trkpt>
      <trkpt lat="61.6012317035" lon="8.60757526942">
        <ele>1440.19</ele>
        <time>2012-08-07T14:17:08Z</time>
      </trkpt>
      <trkpt lat="61.6012633871" lon="8.6077839788">
        <ele>1440.19</ele>
        <time>2012-08-07T14:17:17Z</time>
      </trkpt>
      <trkpt lat="61.6013234854" lon="8.60802814364">
        <ele>1439.71</ele>
        <time>2012-08-07T14:17:29Z</time>
      </trkpt>
      <trkpt lat="61.6013799794" lon="8.60828312114">
        <ele>1440.67</ele>
        <time>2012-08-07T14:17:41Z</time>
      </trkpt>
      <trkpt lat="61.6013793927" lon="8.6083159782">
        <ele>1439.71</ele>
        <time>2012-08-07T14:17:42Z</time>
      </trkpt>
      <trkpt lat="61.6013835836" lon="8.60841563903">
        <ele>1440.19</ele>
        <time>2012-08-07T14:17:47Z</time>
      </trkpt>
      <trkpt lat="61.6014147643" lon="8.60840834677">
        <ele>1440.19</ele>
        <time>2012-08-07T14:18:05Z</time>
      </trkpt>
      <trkpt lat="61.601401018" lon="8.60842075199">
        <ele>1440.19</ele>
        <time>2012-08-07T14:18:29Z</time>
      </trkpt>
      <trkpt lat="61.6014015209" lon="8.60848227516">
        <ele>1439.71</ele>
        <time>2012-08-07T14:18:41Z</time>
      </trkpt>
      <trkpt lat="61.6014548298" lon="8.60857640393">
        <ele>1440.19</ele>
        <time>2012-08-07T14:18:52Z</time>
      </trkpt>
      <trkpt lat="61.6015190352" lon="8.60880003311">
        <ele>1439.71</ele>
        <time>2012-08-07T14:19:08Z</time>
      </trkpt>
      <trkpt lat="61.6015281714" lon="8.60891419463">
        <ele>1440.67</ele>
        <time>2012-08-07T14:19:14Z</time>
      </trkpt>
      <trkpt lat="61.6015753616" lon="8.60902810469">
        <ele>1439.71</ele>
        <time>2012-08-07T14:19:34Z</time>
      </trkpt>
      <trkpt lat="61.6015875153" lon="8.60900614411">
        <ele>1440.19</ele>
        <time>2012-08-07T14:19:52Z</time>
      </trkpt>
      <trkpt lat="61.6015975736" lon="8.60909247771">
        <ele>1440.19</ele>
        <time>2012-08-07T14:19:56Z</time>
      </trkpt>
      <trkpt lat="61.6016357113" lon="8.6091902107">
        <ele>1439.71</ele>
        <time>2012-08-07T14:20:00Z</time>
      </trkpt>
      <trkpt lat="61.6016488709" lon="8.6092232354">
        <ele>1440.19</ele>
        <time>2012-08-07T14:20:03Z</time>
      </trkpt>
      <trkpt lat="61.6016751062" lon="8.60936832614">
        <ele>1440.19</ele>
        <time>2012-08-07T14:20:12Z</time>
      </trkpt>
      <trkpt lat="61.6017040238" lon="8.60943295062">
        <ele>1440.19</ele>
        <time>2012-08-07T14:20:17Z</time>
      </trkpt>
      <trkpt lat="61.6017196979" lon="8.60948123038">
        <ele>1439.71</ele>
        <time>2012-08-07T14:20:28Z</time>
      </trkpt>
      <trkpt lat="61.6017435864" lon="8.60954065807">
        <ele>1440.19</ele>
        <time>2012-08-07T14:20:38Z</time>
      </trkpt>
      <trkpt lat="61.6017592605" lon="8.60968591645">
        <ele>1440.19</ele>
        <time>2012-08-07T14:20:44Z</time>
      </trkpt>
      <trkpt lat="61.6017441731" lon="8.60977744684">
        <ele>1440.19</ele>
        <time>2012-08-07T14:20:50Z</time>
      </trkpt>
      <trkpt lat="61.6017871723" lon="8.60994474962">
        <ele>1440.19</ele>
        <time>2012-08-07T14:21:02Z</time>
      </trkpt>
      <trkpt lat="61.6018048581" lon="8.60991004854">
        <ele>1440.19</ele>
        <time>2012-08-07T14:21:17Z</time>
      </trkpt>
      <trkpt lat="61.6018127371" lon="8.6099292431">
        <ele>1440.19</ele>
        <time>2012-08-07T14:21:45Z</time>
      </trkpt>
      <trkpt lat="61.601793291" lon="8.60991365276">
        <ele>1440.19</ele>
        <time>2012-08-07T14:22:16Z</time>
      </trkpt>
      <trkpt lat="61.6017944645" lon="8.60991985537">
        <ele>1439.71</ele>
        <time>2012-08-07T14:22:35Z</time>
      </trkpt>
      <trkpt lat="61.6018151678" lon="8.61000711098">
        <ele>1440.19</ele>
        <time>2012-08-07T14:22:48Z</time>
      </trkpt>
      <trkpt lat="61.6018078756" lon="8.61005287617">
        <ele>1439.71</ele>
        <time>2012-08-07T14:23:03Z</time>
      </trkpt>
      <trkpt lat="61.6018117312" lon="8.60993594863">
        <ele>1439.71</ele>
        <time>2012-08-07T14:23:21Z</time>
      </trkpt>
      <trkpt lat="61.6018087976" lon="8.60998188145">
        <ele>1443.08</ele>
        <time>2012-08-07T14:23:29Z</time>
      </trkpt>
      <trkpt lat="61.6018128209" lon="8.60997844487">
        <ele>1439.71</ele>
        <time>2012-08-07T14:23:31Z</time>
      </trkpt>
      <trkpt lat="61.6018153355" lon="8.60999269411">
        <ele>1439.23</ele>
        <time>2012-08-07T14:23:53Z</time>
      </trkpt>
      <trkpt lat="61.6018128209" lon="8.60999478959">
        <ele>1440.19</ele>
        <time>2012-08-07T14:23:55Z</time>
      </trkpt>
      <trkpt lat="61.6018084623" lon="8.60996084288">
        <ele>1436.35</ele>
        <time>2012-08-07T14:23:59Z</time>
      </trkpt>
      <trkpt lat="61.6018076241" lon="8.60995581374">
        <ele>1443.56</ele>
        <time>2012-08-07T14:24:00Z</time>
      </trkpt>
      <trkpt lat="61.601815084" lon="8.6099503655">
        <ele>1440.19</ele>
        <time>2012-08-07T14:24:01Z</time>
      </trkpt>
      <trkpt lat="61.6018644534" lon="8.61004466191">
        <ele>1439.71</ele>
        <time>2012-08-07T14:24:15Z</time>
      </trkpt>
      <trkpt lat="61.6018462647" lon="8.61008145846">
        <ele>1439.71</ele>
        <time>2012-08-07T14:24:40Z</time>
      </trkpt>
      <trkpt lat="61.6018559877" lon="8.61007248983">
        <ele>1439.71</ele>
        <time>2012-08-07T14:25:05Z</time>
      </trkpt>
      <trkpt lat="61.6018722486" lon="8.6100556422">
        <ele>1439.23</ele>
        <time>2012-08-07T14:25:35Z</time>
      </trkpt>
      <trkpt lat="61.6018533893" lon="8.61006536521">
        <ele>1438.75</ele>
        <time>2012-08-07T14:25:56Z</time>
      </trkpt>
      <trkpt lat="61.6018547304" lon="8.61009721644">
        <ele>1439.23</ele>
        <time>2012-08-07T14:25:58Z</time>
      </trkpt>
      <trkpt lat="61.6019040998" lon="8.61022319645">
        <ele>1438.75</ele>
        <time>2012-08-07T14:26:13Z</time>
      </trkpt>
      <trkpt lat="61.6019607615" lon="8.61031187698">
        <ele>1438.27</ele>
        <time>2012-08-07T14:26:20Z</time>
      </trkpt>
      <trkpt lat="61.6020844784" lon="8.61048814841">
        <ele>1439.23</ele>
        <time>2012-08-07T14:26:35Z</time>
      </trkpt>
      <trkpt lat="61.602093447" lon="8.61049862579">
        <ele>1439.23</ele>
        <time>2012-08-07T14:26:36Z</time>
      </trkpt>
      <trkpt lat="61.6021180898" lon="8.61051580869">
        <ele>1439.71</ele>
        <time>2012-08-07T14:26:40Z</time>
      </trkpt>
      <trkpt lat="61.6022744961" lon="8.61066366546">
        <ele>1438.27</ele>
        <time>2012-08-07T14:26:54Z</time>
      </trkpt>
      <trkpt lat="61.6023018211" lon="8.61068361439">
        <ele>1438.75</ele>
        <time>2012-08-07T14:26:58Z</time>
      </trkpt>
      <trkpt lat="61.6023916751" lon="8.61064773984">
        <ele>1437.31</ele>
        <time>2012-08-07T14:27:06Z</time>
      </trkpt>
      <trkpt lat="61.6025035735" lon="8.61081772484">
        <ele>1439.71</ele>
        <time>2012-08-07T14:27:19Z</time>
      </trkpt>
      <trkpt lat="61.6025196668" lon="8.61094102263">
        <ele>1439.23</ele>
        <time>2012-08-07T14:27:39Z</time>
      </trkpt>
      <trkpt lat="61.602524193" lon="8.61092065461">
        <ele>1440.19</ele>
        <time>2012-08-07T14:27:45Z</time>
      </trkpt>
      <trkpt lat="61.6025298927" lon="8.61090120859">
        <ele>1439.71</ele>
        <time>2012-08-07T14:28:07Z</time>
      </trkpt>
      <trkpt lat="61.6025361791" lon="8.61084932461">
        <ele>1438.75</ele>
        <time>2012-08-07T14:28:13Z</time>
      </trkpt>
      <trkpt lat="61.6026183218" lon="8.61075921915">
        <ele>1438.75</ele>
        <time>2012-08-07T14:28:24Z</time>
      </trkpt>
      <trkpt lat="61.6026684456" lon="8.61069526523">
        <ele>1438.27</ele>
        <time>2012-08-07T14:28:32Z</time>
      </trkpt>
      <trkpt lat="61.6026959382" lon="8.61068554223">
        <ele>1438.27</ele>
        <time>2012-08-07T14:28:35Z</time>
      </trkpt>
      <trkpt lat="61.6028120276" lon="8.61084513366">
        <ele>1438.27</ele>
        <time>2012-08-07T14:28:48Z</time>
      </trkpt>
      <trkpt lat="61.6028473992" lon="8.61098142341">
        <ele>1439.71</ele>
        <time>2012-08-07T14:29:00Z</time>
      </trkpt>
      <trkpt lat="61.6028804239" lon="8.61105401069">
        <ele>1438.75</ele>
        <time>2012-08-07T14:29:16Z</time>
      </trkpt>
      <trkpt lat="61.6029329784" lon="8.61116867512">
        <ele>1439.71</ele>
        <time>2012-08-07T14:29:25Z</time>
      </trkpt>
      <trkpt lat="61.6029954236" lon="8.61118552275">
        <ele>1436.83</ele>
        <time>2012-08-07T14:29:33Z</time>
      </trkpt>
      <trkpt lat="61.6030023806" lon="8.611146966">
        <ele>1439.71</ele>
        <time>2012-08-07T14:29:36Z</time>
      </trkpt>
      <trkpt lat="61.603039261" lon="8.61107546836">
        <ele>1438.27</ele>
        <time>2012-08-07T14:29:40Z</time>
      </trkpt>
      <trkpt lat="61.6030601319" lon="8.61104504205">
        <ele>1438.75</ele>
        <time>2012-08-07T14:29:42Z</time>
      </trkpt>
      <trkpt lat="61.6030668374" lon="8.61104839481">
        <ele>1438.75</ele>
        <time>2012-08-07T14:29:43Z</time>
      </trkpt>
      <trkpt lat="61.603093408" lon="8.61106574535">
        <ele>1438.27</ele>
        <time>2012-08-07T14:29:46Z</time>
      </trkpt>
      <trkpt lat="61.6031376645" lon="8.61104101874">
        <ele>1438.27</ele>
        <time>2012-08-07T14:29:50Z</time>
      </trkpt>
      <trkpt lat="61.6032130178" lon="8.61111436039">
        <ele>1438.75</ele>
        <time>2012-08-07T14:30:00Z</time>
      </trkpt>
      <trkpt lat="61.6032368224" lon="8.61112534069">
        <ele>1437.79</ele>
        <time>2012-08-07T14:30:04Z</time>
      </trkpt>
      <trkpt lat="61.6032613814" lon="8.61117630266">
        <ele>1438.75</ele>
        <time>2012-08-07T14:30:09Z</time>
      </trkpt>
      <trkpt lat="61.6032773908" lon="8.6111901328">
        <ele>1437.31</ele>
        <time>2012-08-07T14:30:11Z</time>
      </trkpt>
      <trkpt lat="61.6033255868" lon="8.61127177253">
        <ele>1438.27</ele>
        <time>2012-08-07T14:30:24Z</time>
      </trkpt>
      <trkpt lat="61.6033953242" lon="8.61134570092">
        <ele>1437.79</ele>
        <time>2012-08-07T14:30:46Z</time>
      </trkpt>
      <trkpt lat="61.6034033708" lon="8.61136539839">
        <ele>1437.79</ele>
        <time>2012-08-07T14:30:48Z</time>
      </trkpt>
      <trkpt lat="61.6034767125" lon="8.61155281775">
        <ele>1436.83</ele>
        <time>2012-08-07T14:31:00Z</time>
      </trkpt>
      <trkpt lat="61.6034886986" lon="8.61159757711">
        <ele>1437.31</ele>
        <time>2012-08-07T14:31:02Z</time>
      </trkpt>
      <trkpt lat="61.6035136767" lon="8.61171433702">
        <ele>1437.79</ele>
        <time>2012-08-07T14:31:10Z</time>
      </trkpt>
      <trkpt lat="61.6035281774" lon="8.61173881218">
        <ele>1438.27</ele>
        <time>2012-08-07T14:31:12Z</time>
      </trkpt>
      <trkpt lat="61.6035404988" lon="8.61177074723">
        <ele>1437.79</ele>
        <time>2012-08-07T14:31:14Z</time>
      </trkpt>
      <trkpt lat="61.6035753675" lon="8.61186210997">
        <ele>1437.79</ele>
        <time>2012-08-07T14:31:19Z</time>
      </trkpt>
      <trkpt lat="61.6036132537" lon="8.6119481083">
        <ele>1437.31</ele>
        <time>2012-08-07T14:31:26Z</time>
      </trkpt>
      <trkpt lat="61.6036532354" lon="8.61201667227">
        <ele>1437.79</ele>
        <time>2012-08-07T14:31:34Z</time>
      </trkpt>
      <trkpt lat="61.6036654729" lon="8.61210845411">
        <ele>1437.31</ele>
        <time>2012-08-07T14:31:40Z</time>
      </trkpt>
      <trkpt lat="61.603704365" lon="8.61221616156">
        <ele>1437.79</ele>
        <time>2012-08-07T14:31:47Z</time>
      </trkpt>
      <trkpt lat="61.6037509684" lon="8.61245563254">
        <ele>1437.79</ele>
        <time>2012-08-07T14:31:58Z</time>
      </trkpt>
      <trkpt lat="61.6038207896" lon="8.61261354759">
        <ele>1436.83</ele>
        <time>2012-08-07T14:32:08Z</time>
      </trkpt>
      <trkpt lat="61.6038497072" lon="8.6126351729">
        <ele>1437.31</ele>
        <time>2012-08-07T14:32:12Z</time>
      </trkpt>
      <trkpt lat="61.6039108112" lon="8.61274279654">
        <ele>1437.79</ele>
        <time>2012-08-07T14:32:20Z</time>
      </trkpt>
      <trkpt lat="61.6039485298" lon="8.6128813494">
        <ele>1436.35</ele>
        <time>2012-08-07T14:32:27Z</time>
      </trkpt>
      <trkpt lat="61.6040057782" lon="8.61313314177">
        <ele>1437.79</ele>
        <time>2012-08-07T14:32:38Z</time>
      </trkpt>
      <trkpt lat="61.6040311754" lon="8.6132032983">
        <ele>1437.79</ele>
        <time>2012-08-07T14:32:43Z</time>
      </trkpt>
      <trkpt lat="61.6040590033" lon="8.61327370629">
        <ele>1436.83</ele>
        <time>2012-08-07T14:32:47Z</time>
      </trkpt>
      <trkpt lat="61.6040781979" lon="8.61337244511">
        <ele>1438.27</ele>
        <time>2012-08-07T14:32:51Z</time>
      </trkpt>
      <trkpt lat="61.6041203588" lon="8.61351191998">
        <ele>1437.79</ele>
        <time>2012-08-07T14:33:05Z</time>
      </trkpt>
      <trkpt lat="61.6041336861" lon="8.61358568072">
        <ele>1438.27</ele>
        <time>2012-08-07T14:33:20Z</time>
      </trkpt>
      <trkpt lat="61.6042366158" lon="8.61388793215">
        <ele>1437.31</ele>
        <time>2012-08-07T14:33:34Z</time>
      </trkpt>
      <trkpt lat="61.604339378" lon="8.61416495405">
        <ele>1436.83</ele>
        <time>2012-08-07T14:33:48Z</time>
      </trkpt>
      <trkpt lat="61.6044345126" lon="8.61440601759">
        <ele>1435.39</ele>
        <time>2012-08-07T14:34:02Z</time>
      </trkpt>
      <trkpt lat="61.6045174934" lon="8.61462268978">
        <ele>1435.39</ele>
        <time>2012-08-07T14:34:13Z</time>
      </trkpt>
      <trkpt lat="61.6045612469" lon="8.61473919824">
        <ele>1434.91</ele>
        <time>2012-08-07T14:34:22Z</time>
      </trkpt>
      <trkpt lat="61.6045972891" lon="8.61476258375">
        <ele>1432.98</ele>
        <time>2012-08-07T14:34:27Z</time>
      </trkpt>
      <trkpt lat="61.6046624165" lon="8.61489510164">
        <ele>1434.42</ele>
        <time>2012-08-07T14:34:40Z</time>
      </trkpt>
      <trkpt lat="61.6046670265" lon="8.61491094343">
        <ele>1433.46</ele>
        <time>2012-08-07T14:34:45Z</time>
      </trkpt>
      <trkpt lat="61.6046769172" lon="8.61493650824">
        <ele>1435.39</ele>
        <time>2012-08-07T14:34:47Z</time>
      </trkpt>
      <trkpt lat="61.6047202516" lon="8.61504136585">
        <ele>1435.39</ele>
        <time>2012-08-07T14:34:55Z</time>
      </trkpt>
      <trkpt lat="61.6047779191" lon="8.61524018459">
        <ele>1435.87</ele>
        <time>2012-08-07T14:35:04Z</time>
      </trkpt>
      <trkpt lat="61.6048194934" lon="8.61532182433">
        <ele>1434.91</ele>
        <time>2012-08-07T14:35:08Z</time>
      </trkpt>
      <trkpt lat="61.6048701201" lon="8.61553623341">
        <ele>1434.42</ele>
        <time>2012-08-07T14:35:21Z</time>
      </trkpt>
      <trkpt lat="61.6049178131" lon="8.61572859809">
        <ele>1434.42</ele>
        <time>2012-08-07T14:35:32Z</time>
      </trkpt>
      <trkpt lat="61.605010014" lon="8.61592917703">
        <ele>1434.42</ele>
        <time>2012-08-07T14:35:45Z</time>
      </trkpt>
      <trkpt lat="61.6050417814" lon="8.61598659307">
        <ele>1434.42</ele>
        <time>2012-08-07T14:35:49Z</time>
      </trkpt>
      <trkpt lat="61.605072543" lon="8.61612254754">
        <ele>1429.62</ele>
        <time>2012-08-07T14:35:57Z</time>
      </trkpt>
      <trkpt lat="61.6050728783" lon="8.61613025889">
        <ele>1423.37</ele>
        <time>2012-08-07T14:35:58Z</time>
      </trkpt>
      <trkpt lat="61.6050737165" lon="8.61613453366">
        <ele>1432.98</ele>
        <time>2012-08-07T14:35:59Z</time>
      </trkpt>
      <trkpt lat="61.605073465" lon="8.61613361165">
        <ele>1432.98</ele>
        <time>2012-08-07T14:36:00Z</time>
      </trkpt>
      <trkpt lat="61.6050730459" lon="8.6161721684">
        <ele>1446.44</ele>
        <time>2012-08-07T14:36:07Z</time>
      </trkpt>
      <trkpt lat="61.6050712019" lon="8.61618474126">
        <ele>1435.39</ele>
        <time>2012-08-07T14:36:08Z</time>
      </trkpt>
      <trkpt lat="61.6050741356" lon="8.61621768214">
        <ele>1431.54</ele>
        <time>2012-08-07T14:36:17Z</time>
      </trkpt>
      <trkpt lat="61.6050766502" lon="8.61622472294">
        <ele>1436.35</ele>
        <time>2012-08-07T14:36:18Z</time>
      </trkpt>
      <trkpt lat="61.6051011253" lon="8.61628565937">
        <ele>1433.94</ele>
        <time>2012-08-07T14:36:23Z</time>
      </trkpt>
      <trkpt lat="61.6051741317" lon="8.61646578647">
        <ele>1433.46</ele>
        <time>2012-08-07T14:36:35Z</time>
      </trkpt>
      <trkpt lat="61.6052495688" lon="8.61666695215">
        <ele>1432.98</ele>
        <time>2012-08-07T14:36:47Z</time>
      </trkpt>
      <trkpt lat="61.6052870359" lon="8.61673844978">
        <ele>1432.5</ele>
        <time>2012-08-07T14:36:51Z</time>
      </trkpt>
      <trkpt lat="61.6053702682" lon="8.61688186415">
        <ele>1432.02</ele>
        <time>2012-08-07T14:37:03Z</time>
      </trkpt>
      <trkpt lat="61.6053994372" lon="8.61693441868">
        <ele>1432.02</ele>
        <time>2012-08-07T14:37:07Z</time>
      </trkpt>
      <trkpt lat="61.6054475494" lon="8.61703014001">
        <ele>1432.02</ele>
        <time>2012-08-07T14:37:14Z</time>
      </trkpt>
      <trkpt lat="61.6055679973" lon="8.61715083942">
        <ele>1432.02</ele>
        <time>2012-08-07T14:37:28Z</time>
      </trkpt>
      <trkpt lat="61.6056072246" lon="8.61718922853">
        <ele>1433.46</ele>
        <time>2012-08-07T14:37:33Z</time>
      </trkpt>
      <trkpt lat="61.6056358907" lon="8.61725703813">
        <ele>1431.54</ele>
        <time>2012-08-07T14:37:49Z</time>
      </trkpt>
      <trkpt lat="61.6056359746" lon="8.61728000455">
        <ele>1431.54</ele>
        <time>2012-08-07T14:38:05Z</time>
      </trkpt>
      <trkpt lat="61.6056304425" lon="8.61729542725">
        <ele>1431.06</ele>
        <time>2012-08-07T14:38:37Z</time>
      </trkpt>
      <trkpt lat="61.6056213062" lon="8.61729333177">
        <ele>1432.02</ele>
        <time>2012-08-07T14:38:44Z</time>
      </trkpt>
      <trkpt lat="61.6057264153" lon="8.61743431538">
        <ele>1431.54</ele>
        <time>2012-08-07T14:38:57Z</time>
      </trkpt>
      <trkpt lat="61.6057522316" lon="8.61746004783">
        <ele>1432.02</ele>
        <time>2012-08-07T14:39:00Z</time>
      </trkpt>
      <trkpt lat="61.6058005951" lon="8.61751277">
        <ele>1430.58</ele>
        <time>2012-08-07T14:39:05Z</time>
      </trkpt>
      <trkpt lat="61.6059925407" lon="8.61755434424">
        <ele>1431.54</ele>
        <time>2012-08-07T14:39:22Z</time>
      </trkpt>
      <trkpt lat="61.6060956381" lon="8.61769306473">
        <ele>1431.54</ele>
        <time>2012-08-07T14:39:35Z</time>
      </trkpt>
      <trkpt lat="61.6062029265" lon="8.61785609275">
        <ele>1429.62</ele>
        <time>2012-08-07T14:39:47Z</time>
      </trkpt>
      <trkpt lat="61.6063068621" lon="8.61811819486">
        <ele>1428.66</ele>
        <time>2012-08-07T14:40:00Z</time>
      </trkpt>
      <trkpt lat="61.6064237058" lon="8.61836445518">
        <ele>1427.7</ele>
        <time>2012-08-07T14:40:13Z</time>
      </trkpt>
      <trkpt lat="61.60652739" lon="8.61853921786">
        <ele>1426.73</ele>
        <time>2012-08-07T14:40:25Z</time>
      </trkpt>
      <trkpt lat="61.606596373" lon="8.61862638965">
        <ele>1428.18</ele>
        <time>2012-08-07T14:40:33Z</time>
      </trkpt>
      <trkpt lat="61.6067328304" lon="8.61872345209">
        <ele>1429.62</ele>
        <time>2012-08-07T14:40:45Z</time>
      </trkpt>
      <trkpt lat="61.6067605745" lon="8.6187226139">
        <ele>1428.18</ele>
        <time>2012-08-07T14:41:01Z</time>
      </trkpt>
      <trkpt lat="61.606753869" lon="8.618759159">
        <ele>1426.73</ele>
        <time>2012-08-07T14:41:21Z</time>
      </trkpt>
      <trkpt lat="61.6067560483" lon="8.61876024865">
        <ele>1430.1</ele>
        <time>2012-08-07T14:41:22Z</time>
      </trkpt>
      <trkpt lat="61.606756635" lon="8.61875647679">
        <ele>1429.14</ele>
        <time>2012-08-07T14:41:23Z</time>
      </trkpt>
      <trkpt lat="61.6067590658" lon="8.61875605769">
        <ele>1424.81</ele>
        <time>2012-08-07T14:41:24Z</time>
      </trkpt>
      <trkpt lat="61.6067565512" lon="8.61875622533">
        <ele>1431.54</ele>
        <time>2012-08-07T14:41:25Z</time>
      </trkpt>
      <trkpt lat="61.6067568026" lon="8.61875220202">
        <ele>1428.18</ele>
        <time>2012-08-07T14:41:27Z</time>
      </trkpt>
      <trkpt lat="61.6067560483" lon="8.61871238798">
        <ele>1428.66</ele>
        <time>2012-08-07T14:41:46Z</time>
      </trkpt>
      <trkpt lat="61.6067904141" lon="8.61871406436">
        <ele>1428.18</ele>
        <time>2012-08-07T14:41:50Z</time>
      </trkpt>
      <trkpt lat="61.6068549547" lon="8.6186569836">
        <ele>1425.29</ele>
        <time>2012-08-07T14:42:05Z</time>
      </trkpt>
      <trkpt lat="61.6068584751" lon="8.61865639687">
        <ele>1428.66</ele>
        <time>2012-08-07T14:42:06Z</time>
      </trkpt>
      <trkpt lat="61.6068475787" lon="8.61866083927">
        <ele>1427.7</ele>
        <time>2012-08-07T14:42:25Z</time>
      </trkpt>
      <trkpt lat="61.6068645939" lon="8.6186688859">
        <ele>1427.21</ele>
        <time>2012-08-07T14:42:48Z</time>
      </trkpt>
      <trkpt lat="61.6068804357" lon="8.61867710017">
        <ele>1427.21</ele>
        <time>2012-08-07T14:42:57Z</time>
      </trkpt>
      <trkpt lat="61.606881693" lon="8.61867701635">
        <ele>1424.33</ele>
        <time>2012-08-07T14:42:58Z</time>
      </trkpt>
      <trkpt lat="61.6068824474" lon="8.61868062057">
        <ele>1427.7</ele>
        <time>2012-08-07T14:43:00Z</time>
      </trkpt>
      <trkpt lat="61.6068838723" lon="8.6186772678">
        <ele>1431.54</ele>
        <time>2012-08-07T14:43:01Z</time>
      </trkpt>
      <trkpt lat="61.6068846267" lon="8.61867005937">
        <ele>1427.7</ele>
        <time>2012-08-07T14:43:02Z</time>
      </trkpt>
      <trkpt lat="61.606890494" lon="8.61867575906">
        <ele>1425.77</ele>
        <time>2012-08-07T14:43:17Z</time>
      </trkpt>
      <trkpt lat="61.6068821959" lon="8.6186825484">
        <ele>1427.21</ele>
        <time>2012-08-07T14:43:19Z</time>
      </trkpt>
      <trkpt lat="61.6068643425" lon="8.61865337938">
        <ele>1423.85</ele>
        <time>2012-08-07T14:43:28Z</time>
      </trkpt>
      <trkpt lat="61.6068666894" lon="8.61865664832">
        <ele>1427.7</ele>
        <time>2012-08-07T14:43:29Z</time>
      </trkpt>
      <trkpt lat="61.6068666056" lon="8.61865421757">
        <ele>1427.7</ele>
        <time>2012-08-07T14:43:30Z</time>
      </trkpt>
      <trkpt lat="61.6068562958" lon="8.61864248291">
        <ele>1431.06</ele>
        <time>2012-08-07T14:43:32Z</time>
      </trkpt>
      <trkpt lat="61.6068547033" lon="8.61864231527">
        <ele>1427.7</ele>
        <time>2012-08-07T14:43:33Z</time>
      </trkpt>
      <trkpt lat="61.6068417951" lon="8.61867668107">
        <ele>1414.24</ele>
        <time>2012-08-07T14:43:48Z</time>
      </trkpt>
      <trkpt lat="61.6068401188" lon="8.61867601052">
        <ele>1423.37</ele>
        <time>2012-08-07T14:43:49Z</time>
      </trkpt>
      <trkpt lat="61.6068423819" lon="8.61867617816">
        <ele>1428.66</ele>
        <time>2012-08-07T14:43:51Z</time>
      </trkpt>
      <trkpt lat="61.6068433877" lon="8.61867642961">
        <ele>1424.81</ele>
        <time>2012-08-07T14:43:52Z</time>
      </trkpt>
      <trkpt lat="61.6068465728" lon="8.61868497916">
        <ele>1428.66</ele>
        <time>2012-08-07T14:44:17Z</time>
      </trkpt>
      <trkpt lat="61.6068495903" lon="8.61868908629">
        <ele>1424.81</ele>
        <time>2012-08-07T14:44:18Z</time>
      </trkpt>
      <trkpt lat="61.606883537" lon="8.61871154979">
        <ele>1427.7</ele>
        <time>2012-08-07T14:44:30Z</time>
      </trkpt>
      <trkpt lat="61.6068583075" lon="8.61864667386">
        <ele>1426.25</ele>
        <time>2012-08-07T14:44:57Z</time>
      </trkpt>
      <trkpt lat="61.6068536974" lon="8.61866276711">
        <ele>1423.37</ele>
        <time>2012-08-07T14:45:03Z</time>
      </trkpt>
      <trkpt lat="61.606842801" lon="8.61867056228">
        <ele>1432.98</ele>
        <time>2012-08-07T14:45:04Z</time>
      </trkpt>
      <trkpt lat="61.606866857" lon="8.61865203828">
        <ele>1427.21</ele>
        <time>2012-08-07T14:45:06Z</time>
      </trkpt>
      <trkpt lat="61.6068850458" lon="8.61865203828">
        <ele>1427.21</ele>
        <time>2012-08-07T14:45:07Z</time>
      </trkpt>
      <trkpt lat="61.6068638396" lon="8.6186600849">
        <ele>1425.77</ele>
        <time>2012-08-07T14:45:09Z</time>
      </trkpt>
      <trkpt lat="61.6068004724" lon="8.6187226139">
        <ele>1426.73</ele>
        <time>2012-08-07T14:45:13Z</time>
      </trkpt>
      <trkpt lat="61.6067472473" lon="8.61874189228">
        <ele>1427.21</ele>
        <time>2012-08-07T14:45:28Z</time>
      </trkpt>
      <trkpt lat="61.6067347582" lon="8.61870392226">
        <ele>1426.25</ele>
        <time>2012-08-07T14:45:50Z</time>
      </trkpt>
      <trkpt lat="61.6067853849" lon="8.61869931221">
        <ele>1426.73</ele>
        <time>2012-08-07T14:46:03Z</time>
      </trkpt>
      <trkpt lat="61.6068064235" lon="8.6187507771">
        <ele>1425.29</ele>
        <time>2012-08-07T14:46:16Z</time>
      </trkpt>
      <trkpt lat="61.6068742331" lon="8.61876033247">
        <ele>1425.29</ele>
        <time>2012-08-07T14:46:24Z</time>
      </trkpt>
      <trkpt lat="61.6069092695" lon="8.61875396222">
        <ele>1423.37</ele>
        <time>2012-08-07T14:46:27Z</time>
      </trkpt>
      <trkpt lat="61.6069588065" lon="8.61876737326">
        <ele>1424.33</ele>
        <time>2012-08-07T14:46:32Z</time>
      </trkpt>
      <trkpt lat="61.6069915798" lon="8.61881523393">
        <ele>1423.85</ele>
        <time>2012-08-07T14:46:34Z</time>
      </trkpt>
      <trkpt lat="61.6070458945" lon="8.61887332052">
        <ele>1422.89</ele>
        <time>2012-08-07T14:46:38Z</time>
      </trkpt>
      <trkpt lat="61.607257789" lon="8.61893760972">
        <ele>1411.35</ele>
        <time>2012-08-07T14:46:54Z</time>
      </trkpt>
      <trkpt lat="61.6072635725" lon="8.61893802881">
        <ele>1411.35</ele>
        <time>2012-08-07T14:46:55Z</time>
      </trkpt>
      <trkpt lat="61.6072680987" lon="8.61894641072">
        <ele>1426.73</ele>
        <time>2012-08-07T14:46:56Z</time>
      </trkpt>
      <trkpt lat="61.6072727926" lon="8.61894716509">
        <ele>1422.89</ele>
        <time>2012-08-07T14:46:57Z</time>
      </trkpt>
      <trkpt lat="61.6073135287" lon="8.61894607544">
        <ele>1422.41</ele>
        <time>2012-08-07T14:47:05Z</time>
      </trkpt>
      <trkpt lat="61.6073991079" lon="8.61904045567">
        <ele>1421.93</ele>
        <time>2012-08-07T14:47:17Z</time>
      </trkpt>
      <trkpt lat="61.6075688414" lon="8.61913860776">
        <ele>1422.41</ele>
        <time>2012-08-07T14:47:32Z</time>
      </trkpt>
      <trkpt lat="61.6077161115" lon="8.6192559544">
        <ele>1420.97</ele>
        <time>2012-08-07T14:47:47Z</time>
      </trkpt>
      <trkpt lat="61.6078289319" lon="8.61940531991">
        <ele>1418.08</ele>
        <time>2012-08-07T14:48:01Z</time>
      </trkpt>
      <trkpt lat="61.6078477073" lon="8.61941688694">
        <ele>1418.08</ele>
        <time>2012-08-07T14:48:03Z</time>
      </trkpt>
      <trkpt lat="61.6079720948" lon="8.61954730935">
        <ele>1418.08</ele>
        <time>2012-08-07T14:48:14Z</time>
      </trkpt>
      <trkpt lat="61.6081136651" lon="8.61961143091">
        <ele>1419.52</ele>
        <time>2012-08-07T14:48:26Z</time>
      </trkpt>
      <trkpt lat="61.6081716679" lon="8.61967287026">
        <ele>1419.04</ele>
        <time>2012-08-07T14:48:33Z</time>
      </trkpt>
      <trkpt lat="61.6082233842" lon="8.619700782">
        <ele>1419.04</ele>
        <time>2012-08-07T14:48:37Z</time>
      </trkpt>
      <trkpt lat="61.6082482785" lon="8.61971545033">
        <ele>1420</ele>
        <time>2012-08-07T14:48:39Z</time>
      </trkpt>
      <trkpt lat="61.6083766054" lon="8.61982751638">
        <ele>1418.08</ele>
        <time>2012-08-07T14:48:50Z</time>
      </trkpt>
      <trkpt lat="61.6084332671" lon="8.61990421079">
        <ele>1419.04</ele>
        <time>2012-08-07T14:49:00Z</time>
      </trkpt>
      <trkpt lat="61.6084394697" lon="8.61992307007">
        <ele>1419.04</ele>
        <time>2012-08-07T14:49:10Z</time>
      </trkpt>
      <trkpt lat="61.6084725782" lon="8.61993396655">
        <ele>1418.08</ele>
        <time>2012-08-07T14:49:14Z</time>
      </trkpt>
      <trkpt lat="61.6086347681" lon="8.62009070814">
        <ele>1418.56</ele>
        <time>2012-08-07T14:49:29Z</time>
      </trkpt>
      <trkpt lat="61.6087458283" lon="8.62023705617">
        <ele>1417.6</ele>
        <time>2012-08-07T14:49:42Z</time>
      </trkpt>
      <trkpt lat="61.6089410428" lon="8.6204490345">
        <ele>1416.64</ele>
        <time>2012-08-07T14:49:58Z</time>
      </trkpt>
      <trkpt lat="61.6091008857" lon="8.62060426734">
        <ele>1414.72</ele>
        <time>2012-08-07T14:50:14Z</time>
      </trkpt>
      <trkpt lat="61.6092326492" lon="8.62077123486">
        <ele>1413.28</ele>
        <time>2012-08-07T14:50:28Z</time>
      </trkpt>
      <trkpt lat="61.6094454657" lon="8.62100861035">
        <ele>1411.83</ele>
        <time>2012-08-07T14:50:44Z</time>
      </trkpt>
      <trkpt lat="61.6096433625" lon="8.62119225785">
        <ele>1408.95</ele>
        <time>2012-08-07T14:50:59Z</time>
      </trkpt>
      <trkpt lat="61.6097814962" lon="8.62138160504">
        <ele>1407.99</ele>
        <time>2012-08-07T14:51:13Z</time>
      </trkpt>
      <trkpt lat="61.6098431032" lon="8.62151697278">
        <ele>1406.55</ele>
        <time>2012-08-07T14:51:30Z</time>
      </trkpt>
      <trkpt lat="61.6098685842" lon="8.62154010683">
        <ele>1406.07</ele>
        <time>2012-08-07T14:52:02Z</time>
      </trkpt>
      <trkpt lat="61.6099521518" lon="8.62160976045">
        <ele>1407.03</ele>
        <time>2012-08-07T14:52:15Z</time>
      </trkpt>
      <trkpt lat="61.6099647246" lon="8.62162618898">
        <ele>1405.58</ele>
        <time>2012-08-07T14:52:16Z</time>
      </trkpt>
      <trkpt lat="61.610064134" lon="8.62175719813">
        <ele>1406.07</ele>
        <time>2012-08-07T14:52:31Z</time>
      </trkpt>
      <trkpt lat="61.6100708395" lon="8.62177329138">
        <ele>1406.07</ele>
        <time>2012-08-07T14:52:32Z</time>
      </trkpt>
      <trkpt lat="61.610109061" lon="8.62189172767">
        <ele>1405.1</ele>
        <time>2012-08-07T14:52:41Z</time>
      </trkpt>
      <trkpt lat="61.6101129167" lon="8.6219099164">
        <ele>1404.62</ele>
        <time>2012-08-07T14:52:42Z</time>
      </trkpt>
      <trkpt lat="61.6101190355" lon="8.62193648703">
        <ele>1404.62</ele>
        <time>2012-08-07T14:52:43Z</time>
      </trkpt>
      <trkpt lat="61.6101274174" lon="8.62196808681">
        <ele>1404.62</ele>
        <time>2012-08-07T14:52:44Z</time>
      </trkpt>
      <trkpt lat="61.6101406608" lon="8.62199231051">
        <ele>1404.62</ele>
        <time>2012-08-07T14:52:45Z</time>
      </trkpt>
      <trkpt lat="61.6101462767" lon="8.62203363329">
        <ele>1404.14</ele>
        <time>2012-08-07T14:52:58Z</time>
      </trkpt>
      <trkpt lat="61.6101540718" lon="8.62208115868">
        <ele>1404.14</ele>
        <time>2012-08-07T14:53:31Z</time>
      </trkpt>
      <trkpt lat="61.6101948917" lon="8.62208794802">
        <ele>1404.14</ele>
        <time>2012-08-07T14:53:41Z</time>
      </trkpt>
      <trkpt lat="61.6102181934" lon="8.62210881896">
        <ele>1402.7</ele>
        <time>2012-08-07T14:53:43Z</time>
      </trkpt>
      <trkpt lat="61.6102381423" lon="8.6221072264">
        <ele>1403.66</ele>
        <time>2012-08-07T14:53:44Z</time>
      </trkpt>
      <trkpt lat="61.6102532297" lon="8.62211124972">
        <ele>1402.7</ele>
        <time>2012-08-07T14:53:45Z</time>
      </trkpt>
      <trkpt lat="61.6102641262" lon="8.62211594358">
        <ele>1403.66</ele>
        <time>2012-08-07T14:53:46Z</time>
      </trkpt>
      <trkpt lat="61.610282734" lon="8.62210932188">
        <ele>1403.18</ele>
        <time>2012-08-07T14:53:47Z</time>
      </trkpt>
      <trkpt lat="61.6102974024" lon="8.62211083062">
        <ele>1402.22</ele>
        <time>2012-08-07T14:53:48Z</time>
      </trkpt>
      <trkpt lat="61.6103102267" lon="8.62211829051">
        <ele>1405.1</ele>
        <time>2012-08-07T14:53:49Z</time>
      </trkpt>
      <trkpt lat="61.6103228834" lon="8.62212583423">
        <ele>1402.22</ele>
        <time>2012-08-07T14:53:50Z</time>
      </trkpt>
      <trkpt lat="61.6104694828" lon="8.62221216783">
        <ele>1402.7</ele>
        <time>2012-08-07T14:54:03Z</time>
      </trkpt>
      <trkpt lat="61.6106322594" lon="8.62229741178">
        <ele>1402.7</ele>
        <time>2012-08-07T14:54:18Z</time>
      </trkpt>
      <trkpt lat="61.6107683815" lon="8.62234896049">
        <ele>1402.22</ele>
        <time>2012-08-07T14:54:28Z</time>
      </trkpt>
      <trkpt lat="61.6108123027" lon="8.62234225497">
        <ele>1402.22</ele>
        <time>2012-08-07T14:54:34Z</time>
      </trkpt>
      <trkpt lat="61.6109869815" lon="8.62246521749">
        <ele>1401.26</ele>
        <time>2012-08-07T14:54:50Z</time>
      </trkpt>
      <trkpt lat="61.6110992152" lon="8.62254903652">
        <ele>1399.82</ele>
        <time>2012-08-07T14:55:02Z</time>
      </trkpt>
      <trkpt lat="61.6112219263" lon="8.62265205011">
        <ele>1399.34</ele>
        <time>2012-08-07T14:55:14Z</time>
      </trkpt>
      <trkpt lat="61.6113363393" lon="8.62273905426">
        <ele>1395.97</ele>
        <time>2012-08-07T14:55:23Z</time>
      </trkpt>
      <trkpt lat="61.6113432124" lon="8.62273955718">
        <ele>1399.82</ele>
        <time>2012-08-07T14:55:24Z</time>
      </trkpt>
      <trkpt lat="61.6114095133" lon="8.62276252359">
        <ele>1398.37</ele>
        <time>2012-08-07T14:55:30Z</time>
      </trkpt>
      <trkpt lat="61.611421667" lon="8.62276797183">
        <ele>1398.37</ele>
        <time>2012-08-07T14:55:31Z</time>
      </trkpt>
      <trkpt lat="61.6115019657" lon="8.62283385359">
        <ele>1394.05</ele>
        <time>2012-08-07T14:55:39Z</time>
      </trkpt>
      <trkpt lat="61.6115171369" lon="8.6228466779">
        <ele>1399.34</ele>
        <time>2012-08-07T14:55:40Z</time>
      </trkpt>
      <trkpt lat="61.6115273628" lon="8.6228501983">
        <ele>1399.34</ele>
        <time>2012-08-07T14:55:41Z</time>
      </trkpt>
      <trkpt lat="61.6115364991" lon="8.62285279669">
        <ele>1396.93</ele>
        <time>2012-08-07T14:55:42Z</time>
      </trkpt>
      <trkpt lat="61.6115504969" lon="8.62285656855">
        <ele>1396.93</ele>
        <time>2012-08-07T14:55:43Z</time>
      </trkpt>
      <trkpt lat="61.6116235871" lon="8.62293007784">
        <ele>1396.93</ele>
        <time>2012-08-07T14:55:50Z</time>
      </trkpt>
      <trkpt lat="61.6117402632" lon="8.62317248248">
        <ele>1396.93</ele>
        <time>2012-08-07T14:56:05Z</time>
      </trkpt>
      <trkpt lat="61.6118286923" lon="8.62344296649">
        <ele>1397.89</ele>
        <time>2012-08-07T14:56:21Z</time>
      </trkpt>
      <trkpt lat="61.61185937" lon="8.62350205891">
        <ele>1396.45</ele>
        <time>2012-08-07T14:56:25Z</time>
      </trkpt>
      <trkpt lat="61.6118689254" lon="8.62351614051">
        <ele>1396.45</ele>
        <time>2012-08-07T14:56:26Z</time>
      </trkpt>
      <trkpt lat="61.6118798219" lon="8.62353122793">
        <ele>1396.45</ele>
        <time>2012-08-07T14:56:27Z</time>
      </trkpt>
      <trkpt lat="61.6118911374" lon="8.62354715355">
        <ele>1396.45</ele>
        <time>2012-08-07T14:56:28Z</time>
      </trkpt>
      <trkpt lat="61.6120439395" lon="8.62380690873">
        <ele>1396.93</ele>
        <time>2012-08-07T14:56:44Z</time>
      </trkpt>
      <trkpt lat="61.6122128349" lon="8.62396121956">
        <ele>1395.01</ele>
        <time>2012-08-07T14:56:58Z</time>
      </trkpt>
      <trkpt lat="61.6123639606" lon="8.62397949211">
        <ele>1394.05</ele>
        <time>2012-08-07T14:57:12Z</time>
      </trkpt>
      <trkpt lat="61.6124476958" lon="8.62401595339">
        <ele>1395.01</ele>
        <time>2012-08-07T14:57:22Z</time>
      </trkpt>
      <trkpt lat="61.6125447582" lon="8.62403087318">
        <ele>1395.01</ele>
        <time>2012-08-07T14:57:33Z</time>
      </trkpt>
      <trkpt lat="61.6125594266" lon="8.62403632142">
        <ele>1394.53</ele>
        <time>2012-08-07T14:57:34Z</time>
      </trkpt>
      <trkpt lat="61.6125751007" lon="8.62404176965">
        <ele>1392.61</ele>
        <time>2012-08-07T14:57:35Z</time>
      </trkpt>
      <trkpt lat="61.6125906911" lon="8.62405191176">
        <ele>1395.01</ele>
        <time>2012-08-07T14:57:36Z</time>
      </trkpt>
      <trkpt lat="61.6126139089" lon="8.62407881767">
        <ele>1395.97</ele>
        <time>2012-08-07T14:57:37Z</time>
      </trkpt>
      <trkpt lat="61.6126269009" lon="8.62409608439">
        <ele>1394.53</ele>
        <time>2012-08-07T14:57:38Z</time>
      </trkpt>
      <trkpt lat="61.6127892584" lon="8.62420018762">
        <ele>1393.57</ele>
        <time>2012-08-07T14:57:53Z</time>
      </trkpt>
      <trkpt lat="61.6129187588" lon="8.62439204939">
        <ele>1393.09</ele>
        <time>2012-08-07T14:58:08Z</time>
      </trkpt>
      <trkpt lat="61.613090001" lon="8.62467728555">
        <ele>1389.72</ele>
        <time>2012-08-07T14:58:25Z</time>
      </trkpt>
      <trkpt lat="61.6131604929" lon="8.62474526279">
        <ele>1391.17</ele>
        <time>2012-08-07T14:58:34Z</time>
      </trkpt>
      <trkpt lat="61.6133421287" lon="8.62501633354">
        <ele>1391.65</ele>
        <time>2012-08-07T14:58:52Z</time>
      </trkpt>
      <trkpt lat="61.613513371" lon="8.62508271821">
        <ele>1391.17</ele>
        <time>2012-08-07T14:59:08Z</time>
      </trkpt>
      <trkpt lat="61.6136915702" lon="8.6251562275">
        <ele>1391.65</ele>
        <time>2012-08-07T14:59:25Z</time>
      </trkpt>
      <trkpt lat="61.6138309613" lon="8.62522588111">
        <ele>1389.72</ele>
        <time>2012-08-07T14:59:39Z</time>
      </trkpt>
      <trkpt lat="61.6139012855" lon="8.62526376732">
        <ele>1391.17</ele>
        <time>2012-08-07T14:59:47Z</time>
      </trkpt>
      <trkpt lat="61.6139588691" lon="8.62527265213">
        <ele>1389.24</ele>
        <time>2012-08-07T14:59:54Z</time>
      </trkpt>
      <trkpt lat="61.6139687598" lon="8.62528095022">
        <ele>1389.24</ele>
        <time>2012-08-07T14:59:55Z</time>
      </trkpt>
      <trkpt lat="61.61406314" lon="8.62534850836">
        <ele>1389.72</ele>
        <time>2012-08-07T15:00:03Z</time>
      </trkpt>
      <trkpt lat="61.6141017806" lon="8.62538773566">
        <ele>1388.76</ele>
        <time>2012-08-07T15:00:08Z</time>
      </trkpt>
      <trkpt lat="61.6141124256" lon="8.62538756803">
        <ele>1389.72</ele>
        <time>2012-08-07T15:00:09Z</time>
      </trkpt>
      <trkpt lat="61.6141212266" lon="8.62538396381">
        <ele>1389.24</ele>
        <time>2012-08-07T15:00:10Z</time>
      </trkpt>
      <trkpt lat="61.6142503079" lon="8.62536971457">
        <ele>1390.2</ele>
        <time>2012-08-07T15:00:21Z</time>
      </trkpt>
      <trkpt lat="61.6143175308" lon="8.62538010813">
        <ele>1389.24</ele>
        <time>2012-08-07T15:00:27Z</time>
      </trkpt>
      <trkpt lat="61.6144363023" lon="8.62540081143">
        <ele>1390.2</ele>
        <time>2012-08-07T15:00:42Z</time>
      </trkpt>
      <trkpt lat="61.6146281641" lon="8.62550013699">
        <ele>1390.68</ele>
        <time>2012-08-07T15:00:58Z</time>
      </trkpt>
      <trkpt lat="61.6146593448" lon="8.6255477462">
        <ele>1389.24</ele>
        <time>2012-08-07T15:01:01Z</time>
      </trkpt>
      <trkpt lat="61.614838969" lon="8.62570608035">
        <ele>1389.24</ele>
        <time>2012-08-07T15:01:19Z</time>
      </trkpt>
      <trkpt lat="61.6148786154" lon="8.62571664155">
        <ele>1388.76</ele>
        <time>2012-08-07T15:01:23Z</time>
      </trkpt>
      <trkpt lat="61.6150298249" lon="8.6258292105">
        <ele>1388.76</ele>
        <time>2012-08-07T15:01:37Z</time>
      </trkpt>
      <trkpt lat="61.6152189206" lon="8.62588746473">
        <ele>1389.24</ele>
        <time>2012-08-07T15:01:53Z</time>
      </trkpt>
      <trkpt lat="61.6152356844" lon="8.62588478252">
        <ele>1388.76</ele>
        <time>2012-08-07T15:01:55Z</time>
      </trkpt>
      <trkpt lat="61.6152885742" lon="8.6259265244">
        <ele>1387.8</ele>
        <time>2012-08-07T15:02:00Z</time>
      </trkpt>
      <trkpt lat="61.6154351737" lon="8.62606541254">
        <ele>1387.8</ele>
        <time>2012-08-07T15:02:14Z</time>
      </trkpt>
      <trkpt lat="61.6156158876" lon="8.62618787214">
        <ele>1389.24</ele>
        <time>2012-08-07T15:02:30Z</time>
      </trkpt>
      <trkpt lat="61.6158078332" lon="8.62625232898">
        <ele>1389.72</ele>
        <time>2012-08-07T15:02:46Z</time>
      </trkpt>
      <trkpt lat="61.6159224138" lon="8.62631636672">
        <ele>1389.24</ele>
        <time>2012-08-07T15:03:00Z</time>
      </trkpt>
      <trkpt lat="61.6160065681" lon="8.62635752186">
        <ele>1390.68</ele>
        <time>2012-08-07T15:03:06Z</time>
      </trkpt>
      <trkpt lat="61.6160284448" lon="8.6263814941">
        <ele>1389.24</ele>
        <time>2012-08-07T15:03:08Z</time>
      </trkpt>
      <trkpt lat="61.6161995195" lon="8.62631133758">
        <ele>1389.24</ele>
        <time>2012-08-07T15:03:25Z</time>
      </trkpt>
      <trkpt lat="61.6162822489" lon="8.62629247829">
        <ele>1388.76</ele>
        <time>2012-08-07T15:03:33Z</time>
      </trkpt>
      <trkpt lat="61.6164444387" lon="8.62635006197">
        <ele>1386.84</ele>
        <time>2012-08-07T15:03:51Z</time>
      </trkpt>
      <trkpt lat="61.6164715122" lon="8.62637302838">
        <ele>1387.32</ele>
        <time>2012-08-07T15:03:55Z</time>
      </trkpt>
      <trkpt lat="61.6164920479" lon="8.62639113329">
        <ele>1388.76</ele>
        <time>2012-08-07T15:03:57Z</time>
      </trkpt>
      <trkpt lat="61.6165463626" lon="8.62644888461">
        <ele>1388.76</ele>
        <time>2012-08-07T15:04:01Z</time>
      </trkpt>
      <trkpt lat="61.6166098975" lon="8.62643195316">
        <ele>1388.76</ele>
        <time>2012-08-07T15:04:07Z</time>
      </trkpt>
      <trkpt lat="61.6167723387" lon="8.62660981715">
        <ele>1389.24</ele>
        <time>2012-08-07T15:04:24Z</time>
      </trkpt>
      <trkpt lat="61.6169366241" lon="8.62664191984">
        <ele>1387.8</ele>
        <time>2012-08-07T15:04:40Z</time>
      </trkpt>
      <trkpt lat="61.6170527972" lon="8.6267042812">
        <ele>1387.32</ele>
        <time>2012-08-07T15:04:56Z</time>
      </trkpt>
      <trkpt lat="61.6171729099" lon="8.6267919559">
        <ele>1384.92</ele>
        <time>2012-08-07T15:05:10Z</time>
      </trkpt>
      <trkpt lat="61.6172072757" lon="8.62678122707">
        <ele>1384.92</ele>
        <time>2012-08-07T15:05:15Z</time>
      </trkpt>
      <trkpt lat="61.6173091158" lon="8.62677359954">
        <ele>1384.92</ele>
        <time>2012-08-07T15:05:31Z</time>
      </trkpt>
      <trkpt lat="61.6173875704" lon="8.62674619071">
        <ele>1384.92</ele>
        <time>2012-08-07T15:05:41Z</time>
      </trkpt>
      <trkpt lat="61.617428977" lon="8.6267280858">
        <ele>1385.88</ele>
        <time>2012-08-07T15:05:46Z</time>
      </trkpt>
      <trkpt lat="61.6175694577" lon="8.62680025399">
        <ele>1385.4</ele>
        <time>2012-08-07T15:06:00Z</time>
      </trkpt>
      <trkpt lat="61.6176494211" lon="8.62678583711">
        <ele>1385.4</ele>
        <time>2012-08-07T15:06:13Z</time>
      </trkpt>
      <trkpt lat="61.6177598946" lon="8.62689966336">
        <ele>1385.88</ele>
        <time>2012-08-07T15:06:28Z</time>
      </trkpt>
      <trkpt lat="61.6178821027" lon="8.62697686069">
        <ele>1386.36</ele>
        <time>2012-08-07T15:06:44Z</time>
      </trkpt>
      <trkpt lat="61.6179837752" lon="8.62708088011">
        <ele>1387.8</ele>
        <time>2012-08-07T15:06:58Z</time>
      </trkpt>
      <trkpt lat="61.6180989426" lon="8.62716419622">
        <ele>1386.84</ele>
        <time>2012-08-07T15:07:12Z</time>
      </trkpt>
      <trkpt lat="61.6181897186" lon="8.62720744684">
        <ele>1388.76</ele>
        <time>2012-08-07T15:07:26Z</time>
      </trkpt>
      <trkpt lat="61.6181961726" lon="8.62721130252">
        <ele>1387.32</ele>
        <time>2012-08-07T15:07:27Z</time>
      </trkpt>
      <trkpt lat="61.6182918102" lon="8.62729570828">
        <ele>1386.36</ele>
        <time>2012-08-07T15:07:42Z</time>
      </trkpt>
      <trkpt lat="61.6183638945" lon="8.62742001191">
        <ele>1387.8</ele>
        <time>2012-08-07T15:07:51Z</time>
      </trkpt>
      <trkpt lat="61.6184377391" lon="8.62754205242">
        <ele>1386.84</ele>
        <time>2012-08-07T15:08:05Z</time>
      </trkpt>
      <trkpt lat="61.6185367294" lon="8.62750684842">
        <ele>1385.88</ele>
        <time>2012-08-07T15:08:22Z</time>
      </trkpt>
      <trkpt lat="61.6185577679" lon="8.62749394029">
        <ele>1389.24</ele>
        <time>2012-08-07T15:08:25Z</time>
      </trkpt>
      <trkpt lat="61.6186171118" lon="8.62746804021">
        <ele>1387.32</ele>
        <time>2012-08-07T15:08:38Z</time>
      </trkpt>
      <trkpt lat="61.6187370569" lon="8.62755546346">
        <ele>1386.36</ele>
        <time>2012-08-07T15:08:53Z</time>
      </trkpt>
      <trkpt lat="61.6188167688" lon="8.62755931914">
        <ele>1387.8</ele>
        <time>2012-08-07T15:09:09Z</time>
      </trkpt>
      <trkpt lat="61.6189322714" lon="8.62751271576">
        <ele>1389.72</ele>
        <time>2012-08-07T15:09:22Z</time>
      </trkpt>
      <trkpt lat="61.6189714149" lon="8.62752621062">
        <ele>1388.76</ele>
        <time>2012-08-07T15:09:27Z</time>
      </trkpt>
      <trkpt lat="61.6190137435" lon="8.62749519758">
        <ele>1388.28</ele>
        <time>2012-08-07T15:09:33Z</time>
      </trkpt>
      <trkpt lat="61.619026484" lon="8.62749888562">
        <ele>1389.24</ele>
        <time>2012-08-07T15:09:35Z</time>
      </trkpt>
      <trkpt lat="61.6191502009" lon="8.62755345181">
        <ele>1387.32</ele>
        <time>2012-08-07T15:09:49Z</time>
      </trkpt>
      <trkpt lat="61.6192287393" lon="8.62754590809">
        <ele>1390.68</ele>
        <time>2012-08-07T15:10:03Z</time>
      </trkpt>
      <trkpt lat="61.6193527915" lon="8.62757742405">
        <ele>1389.72</ele>
        <time>2012-08-07T15:10:18Z</time>
      </trkpt>
      <trkpt lat="61.6194418073" lon="8.62763819285">
        <ele>1389.72</ele>
        <time>2012-08-07T15:10:27Z</time>
      </trkpt>
      <trkpt lat="61.6194603313" lon="8.62767591141">
        <ele>1389.24</ele>
        <time>2012-08-07T15:10:29Z</time>
      </trkpt>
      <trkpt lat="61.619531326" lon="8.62779552117">
        <ele>1389.72</ele>
        <time>2012-08-07T15:10:41Z</time>
      </trkpt>
      <trkpt lat="61.6195692122" lon="8.62781798467">
        <ele>1390.68</ele>
        <time>2012-08-07T15:10:47Z</time>
      </trkpt>
      <trkpt lat="61.6197377723" lon="8.62785268575">
        <ele>1389.24</ele>
        <time>2012-08-07T15:11:04Z</time>
      </trkpt>
      <trkpt lat="61.6197927576" lon="8.62790624611">
        <ele>1389.72</ele>
        <time>2012-08-07T15:11:17Z</time>
      </trkpt>
      <trkpt lat="61.6198638361" lon="8.62794622779">
        <ele>1390.2</ele>
        <time>2012-08-07T15:11:25Z</time>
      </trkpt>
      <trkpt lat="61.6198723018" lon="8.62795963883">
        <ele>1389.24</ele>
        <time>2012-08-07T15:11:26Z</time>
      </trkpt>
      <trkpt lat="61.6198894847" lon="8.62799006514">
        <ele>1390.68</ele>
        <time>2012-08-07T15:11:28Z</time>
      </trkpt>
      <trkpt lat="61.6199400276" lon="8.62806701101">
        <ele>1388.76</ele>
        <time>2012-08-07T15:11:33Z</time>
      </trkpt>
      <trkpt lat="61.6199452244" lon="8.62807463855">
        <ele>1392.13</ele>
        <time>2012-08-07T15:11:34Z</time>
      </trkpt>
      <trkpt lat="61.6199558694" lon="8.62807723694">
        <ele>1390.2</ele>
        <time>2012-08-07T15:11:35Z</time>
      </trkpt>
      <trkpt lat="61.6200751439" lon="8.62813088112">
        <ele>1391.17</ele>
        <time>2012-08-07T15:11:50Z</time>
      </trkpt>
      <trkpt lat="61.6201926582" lon="8.62811394967">
        <ele>1390.68</ele>
        <time>2012-08-07T15:12:05Z</time>
      </trkpt>
      <trkpt lat="61.6202233359" lon="8.62807539292">
        <ele>1387.32</ele>
        <time>2012-08-07T15:12:18Z</time>
      </trkpt>
      <trkpt lat="61.6202302929" lon="8.62807505764">
        <ele>1392.13</ele>
        <time>2012-08-07T15:12:19Z</time>
      </trkpt>
      <trkpt lat="61.6202738788" lon="8.62802962773">
        <ele>1391.17</ele>
        <time>2012-08-07T15:12:26Z</time>
      </trkpt>
      <trkpt lat="61.6203562729" lon="8.62812082283">
        <ele>1390.68</ele>
        <time>2012-08-07T15:12:46Z</time>
      </trkpt>
      <trkpt lat="61.6204656567" lon="8.62836507149">
        <ele>1389.24</ele>
        <time>2012-08-07T15:13:06Z</time>
      </trkpt>
      <trkpt lat="61.6205286048" lon="8.62841041759">
        <ele>1392.61</ele>
        <time>2012-08-07T15:13:18Z</time>
      </trkpt>
      <trkpt lat="61.6206822451" lon="8.6285289377">
        <ele>1390.68</ele>
        <time>2012-08-07T15:13:37Z</time>
      </trkpt>
      <trkpt lat="61.6207477078" lon="8.62868065014">
        <ele>1389.24</ele>
        <time>2012-08-07T15:13:51Z</time>
      </trkpt>
      <trkpt lat="61.6207578499" lon="8.62868861295">
        <ele>1390.68</ele>
        <time>2012-08-07T15:13:53Z</time>
      </trkpt>
      <trkpt lat="61.6207903717" lon="8.62871199846">
        <ele>1391.65</ele>
        <time>2012-08-07T15:13:58Z</time>
      </trkpt>
      <trkpt lat="61.620807806" lon="8.6287143454">
        <ele>1389.24</ele>
        <time>2012-08-07T15:14:01Z</time>
      </trkpt>
      <trkpt lat="61.6208145116" lon="8.62872239202">
        <ele>1393.09</ele>
        <time>2012-08-07T15:14:02Z</time>
      </trkpt>
      <trkpt lat="61.620824486" lon="8.62873303704">
        <ele>1390.68</ele>
        <time>2012-08-07T15:14:03Z</time>
      </trkpt>
      <trkpt lat="61.6209149268" lon="8.628944261">
        <ele>1390.68</ele>
        <time>2012-08-07T15:14:18Z</time>
      </trkpt>
      <trkpt lat="61.6209966503" lon="8.62910267897">
        <ele>1386.84</ele>
        <time>2012-08-07T15:14:33Z</time>
      </trkpt>
      <trkpt lat="61.6210029367" lon="8.62911785021">
        <ele>1393.09</ele>
        <time>2012-08-07T15:14:34Z</time>
      </trkpt>
      <trkpt lat="61.6210344527" lon="8.62918834202">
        <ele>1390.2</ele>
        <time>2012-08-07T15:14:39Z</time>
      </trkpt>
      <trkpt lat="61.6210823134" lon="8.6292433273">
        <ele>1390.68</ele>
        <time>2012-08-07T15:14:48Z</time>
      </trkpt>
      <trkpt lat="61.6212013364" lon="8.62941490486">
        <ele>1388.28</ele>
        <time>2012-08-07T15:15:05Z</time>
      </trkpt>
      <trkpt lat="61.6212082934" lon="8.62942848355">
        <ele>1388.28</ele>
        <time>2012-08-07T15:15:06Z</time>
      </trkpt>
      <trkpt lat="61.6212220397" lon="8.62945153378">
        <ele>1392.61</ele>
        <time>2012-08-07T15:15:08Z</time>
      </trkpt>
      <trkpt lat="61.6212291643" lon="8.62946645357">
        <ele>1389.72</ele>
        <time>2012-08-07T15:15:09Z</time>
      </trkpt>
      <trkpt lat="61.621233942" lon="8.62948665395">
        <ele>1389.72</ele>
        <time>2012-08-07T15:15:10Z</time>
      </trkpt>
      <trkpt lat="61.6212844849" lon="8.6296850536">
        <ele>1390.68</ele>
        <time>2012-08-07T15:15:25Z</time>
      </trkpt>
      <trkpt lat="61.6213717405" lon="8.62984900363">
        <ele>1391.65</ele>
        <time>2012-08-07T15:15:40Z</time>
      </trkpt>
      <trkpt lat="61.6214569844" lon="8.63004673272">
        <ele>1390.2</ele>
        <time>2012-08-07T15:15:55Z</time>
      </trkpt>
      <trkpt lat="61.6215688828" lon="8.63022493199">
        <ele>1391.17</ele>
        <time>2012-08-07T15:16:13Z</time>
      </trkpt>
      <trkpt lat="61.6216032486" lon="8.63026843406">
        <ele>1390.2</ele>
        <time>2012-08-07T15:16:17Z</time>
      </trkpt>
      <trkpt lat="61.6216532048" lon="8.6303188093">
        <ele>1390.68</ele>
        <time>2012-08-07T15:16:36Z</time>
      </trkpt>
      <trkpt lat="61.6217498481" lon="8.63046599552">
        <ele>1390.68</ele>
        <time>2012-08-07T15:17:04Z</time>
      </trkpt>
      <trkpt lat="61.6219200008" lon="8.63072298467">
        <ele>1390.2</ele>
        <time>2012-08-07T15:17:25Z</time>
      </trkpt>
      <trkpt lat="61.6220324021" lon="8.63090814091">
        <ele>1390.68</ele>
        <time>2012-08-07T15:17:44Z</time>
      </trkpt>
      <trkpt lat="61.6220818553" lon="8.63104426302">
        <ele>1390.68</ele>
        <time>2012-08-07T15:17:55Z</time>
      </trkpt>
      <trkpt lat="61.6222067457" lon="8.63130108453">
        <ele>1391.65</ele>
        <time>2012-08-07T15:18:13Z</time>
      </trkpt>
      <trkpt lat="61.6222681012" lon="8.63152747974">
        <ele>1391.17</ele>
        <time>2012-08-07T15:18:29Z</time>
      </trkpt>
      <trkpt lat="61.6223591287" lon="8.63170073368">
        <ele>1391.17</ele>
        <time>2012-08-07T15:18:45Z</time>
      </trkpt>
      <trkpt lat="61.6224370804" lon="8.63187314942">
        <ele>1390.68</ele>
        <time>2012-08-07T15:19:02Z</time>
      </trkpt>
      <trkpt lat="61.622507656" lon="8.63197482191">
        <ele>1389.72</ele>
        <time>2012-08-07T15:19:17Z</time>
      </trkpt>
      <trkpt lat="61.6225108411" lon="8.63199577667">
        <ele>1391.65</ele>
        <time>2012-08-07T15:19:18Z</time>
      </trkpt>
      <trkpt lat="61.6225998569" lon="8.63233700395">
        <ele>1390.2</ele>
        <time>2012-08-07T15:19:36Z</time>
      </trkpt>
      <trkpt lat="61.6226981767" lon="8.63248217851">
        <ele>1390.68</ele>
        <time>2012-08-07T15:19:52Z</time>
      </trkpt>
      <trkpt lat="61.6226136871" lon="8.63253733143">
        <ele>1392.13</ele>
        <time>2012-08-07T15:20:11Z</time>
      </trkpt>
      <trkpt lat="61.6225313768" lon="8.63260354847">
        <ele>1391.17</ele>
        <time>2012-08-07T15:20:34Z</time>
      </trkpt>
      <trkpt lat="61.6225721128" lon="8.63255443051">
        <ele>1390.2</ele>
        <time>2012-08-07T15:20:42Z</time>
      </trkpt>
      <trkpt lat="61.6227915511" lon="8.63223139197">
        <ele>1391.17</ele>
        <time>2012-08-07T15:21:03Z</time>
      </trkpt>
      <trkpt lat="61.622867072" lon="8.63236332312">
        <ele>1390.68</ele>
        <time>2012-08-07T15:21:24Z</time>
      </trkpt>
      <trkpt lat="61.6228653118" lon="8.63252358511">
        <ele>1390.2</ele>
        <time>2012-08-07T15:21:47Z</time>
      </trkpt>
      <trkpt lat="61.6228692513" lon="8.63252760842">
        <ele>1385.88</ele>
        <time>2012-08-07T15:21:49Z</time>
      </trkpt>
      <trkpt lat="61.622871682" lon="8.63252601586">
        <ele>1387.8</ele>
        <time>2012-08-07T15:21:50Z</time>
      </trkpt>
      <trkpt lat="61.6228748672" lon="8.63252392039">
        <ele>1391.17</ele>
        <time>2012-08-07T15:21:51Z</time>
      </trkpt>
      <trkpt lat="61.6228792258" lon="8.63251713105">
        <ele>1398.37</ele>
        <time>2012-08-07T15:21:52Z</time>
      </trkpt>
      <trkpt lat="61.6228779685" lon="8.63251327537">
        <ele>1398.37</ele>
        <time>2012-08-07T15:21:53Z</time>
      </trkpt>
      <trkpt lat="61.6228766274" lon="8.6325085815">
        <ele>1390.68</ele>
        <time>2012-08-07T15:21:54Z</time>
      </trkpt>
      <trkpt lat="61.6228805669" lon="8.63249734975">
        <ele>1389.72</ele>
        <time>2012-08-07T15:21:58Z</time>
      </trkpt>
      <trkpt lat="61.6228831653" lon="8.63249793649">
        <ele>1392.13</ele>
        <time>2012-08-07T15:21:59Z</time>
      </trkpt>
      <trkpt lat="61.6228763759" lon="8.63249852322">
        <ele>1390.68</ele>
        <time>2012-08-07T15:22:00Z</time>
      </trkpt>
      <trkpt lat="61.6228187084" lon="8.63252987154">
        <ele>1387.32</ele>
        <time>2012-08-07T15:22:11Z</time>
      </trkpt>
      <trkpt lat="61.6228140984" lon="8.63252366893">
        <ele>1391.17</ele>
        <time>2012-08-07T15:22:12Z</time>
      </trkpt>
      <trkpt lat="61.6228042077" lon="8.63251151517">
        <ele>1392.61</ele>
        <time>2012-08-07T15:22:14Z</time>
      </trkpt>
      <trkpt lat="61.6227995977" lon="8.63251201808">
        <ele>1390.2</ele>
        <time>2012-08-07T15:22:15Z</time>
      </trkpt>
      <trkpt lat="61.6227952391" lon="8.63251537085">
        <ele>1391.65</ele>
        <time>2012-08-07T15:22:16Z</time>
      </trkpt>
      <trkpt lat="61.6227864381" lon="8.63252450712">
        <ele>1389.72</ele>
        <time>2012-08-07T15:22:18Z</time>
      </trkpt>
      <trkpt lat="61.6227496415" lon="8.63256717101">
        <ele>1392.61</ele>
        <time>2012-08-07T15:22:29Z</time>
      </trkpt>
      <trkpt lat="61.6226447839" lon="8.63254386932">
        <ele>1389.72</ele>
        <time>2012-08-07T15:27:03Z</time>
      </trkpt>
    </trkseg>
  </trk>
</gpx>